Provisional Data: Long Run near Gaines, PA


Please select a monitoring station.
Please select start date.
Please select start date.

Toggle Unit: C/F Toggle Unit: C/F
Sample Time Temperature (C) Temperature (F) Specific Conductivity (mS/cm) pH   Turbidity (NTU+) DO (mg/L)
12/23/2022 12:00:00 AM 2.15 35.87 0.099 7.32 2.05 13.43
12/23/2022 12:15:00 AM 2.15 35.87 0.101 7.31 2.1 13.42
12/23/2022 12:30:00 AM 2.15 35.87 0.104 7.31 2.26 13.41
12/23/2022 12:45:00 AM 2.14 35.852 0.108 7.31 2.47 13.4
12/23/2022 1:00:00 AM 2.13 35.834 0.115 7.3 2.47 13.4
12/23/2022 1:15:00 AM 2.12 35.816 0.122 7.3 2.88 13.4
12/23/2022 1:30:00 AM 2.1 35.78 0.124 7.29 3.07 13.41
12/23/2022 1:45:00 AM 2.08 35.744 0.124 7.28 3.31 13.41
12/23/2022 2:00:00 AM 2.05 35.69 0.123 7.27 3.83 13.42
12/23/2022 2:15:00 AM 2 35.6 0.119 7.25 4.13 13.43
12/23/2022 2:30:00 AM 1.94 35.492 0.114 7.23 4.87 13.44
12/23/2022 2:45:00 AM 1.87 35.366 0.11 7.21 5.68 13.45
12/23/2022 3:00:00 AM 1.83 35.294 0.107 7.2 6.97 13.47
12/23/2022 3:15:00 AM 1.79 35.222 0.105 7.19 7.36 13.48
12/23/2022 3:30:00 AM 1.76 35.168 0.103 7.18 8.69 13.48
12/23/2022 3:45:00 AM 1.75 35.15 0.101 7.15 9.64 13.48
12/23/2022 4:00:00 AM 1.74 35.132 0.097 7.12 10.84 13.47
12/23/2022 4:15:00 AM 1.74 35.132 0.094 7.15 12.92 13.48
12/23/2022 4:30:00 AM 1.72 35.096 0.092 7.14 14.97 13.48
12/23/2022 4:45:00 AM 1.66 34.988 0.09 7.12 18.92 13.5
12/23/2022 5:00:00 AM 1.6 34.88 0.09 7.16 24.25 13.51
12/23/2022 5:15:00 AM 1.54 34.772 0.091 7.17 27.83 13.53
12/23/2022 5:30:00 AM 1.47 34.646 0.095 7.18 33.37 13.57
12/23/2022 5:45:00 AM 1.37 34.466 0.097 7.18 479.5 13.61
12/23/2022 6:00:00 AM 1.29 34.322 0.1 7.21 29.35 13.64
12/23/2022 6:15:00 AM 1.24 34.232 0.102 7.24 36.99 13.68
12/23/2022 6:30:00 AM 1.21 34.178 0.103 7.24 40.09 13.69
12/23/2022 6:45:00 AM 1.19 34.142 0.106 7.22 43.95 13.69
12/23/2022 7:00:00 AM 1.19 34.142 0.108 7.19 49.3 13.69
12/23/2022 7:15:00 AM 1.19 34.142 0.106 7.26 41.18 13.69
12/23/2022 7:30:00 AM 1.21 34.178 0.103 7.26 41.55 13.69
12/23/2022 7:45:00 AM 1.23 34.214 0.099 7.24 38.86 13.67
12/23/2022 8:00:00 AM 1.26 34.268 0.096 7.24 37.84 13.67
12/23/2022 8:15:00 AM 1.29 34.322 0.094 7.23 34.83 13.65
12/23/2022 8:30:00 AM 1.33 34.394 0.092 7.22 36.09 13.65
12/23/2022 8:45:00 AM 1.38 34.484 0.091 7.2 32.28 13.64
12/23/2022 9:00:00 AM 1.42 34.556 0.09 7.24 29.54 13.62
12/23/2022 9:15:00 AM 1.46 34.628 0.09 7.24 28.33 13.61
12/23/2022 9:30:00 AM 1.46 34.628 0.089 7.21 28.04 13.6
12/23/2022 9:45:00 AM 1.4 34.52 0.09 7.22 29.1 13.61
12/23/2022 10:00:00 AM 1.4 34.52 0.09 7.21 28.11 13.62
12/23/2022 10:15:00 AM 1.43 34.574 0.09 7.23 26.63 13.64
12/23/2022 10:30:00 AM 1.43 34.574 0.09 7.22 24.85 13.66
12/23/2022 10:45:00 AM 1.4 34.52 0.089 7.24 25.09 13.68
12/23/2022 11:00:00 AM 1.35 34.43 0.089 7.22 26.73 13.69
12/23/2022 11:15:00 AM 1.32 34.376 0.089 7.24 27.13 13.73
12/23/2022 11:30:00 AM 1.26 34.268 0.089 7.23 27.36 13.76
12/23/2022 11:45:00 AM 1.19 34.142 0.089 7.23 28.41 13.79
12/23/2022 12:00:00 PM 1.12 34.016 0.089 7.23 27.43 13.82
12/23/2022 12:15:00 PM 1.06 33.908 0.089 7.21 27.72 13.85
12/23/2022 12:30:00 PM 1.01 33.818 0.088 7.22 27.18 13.88
12/23/2022 12:45:00 PM 0.99 33.782 0.088 7.21 27.26 13.92
12/23/2022 1:00:00 PM 0.94 33.692 0.088 7.22 26.81 13.94
12/23/2022 1:15:00 PM 0.88 33.584 0.088 7.23 26.45 13.97
12/23/2022 1:30:00 PM 0.8 33.44 0.088 7.22 25.77 13.99
12/23/2022 1:45:00 PM 0.73 33.314 0.088 7.21 26.19 14.02
12/23/2022 2:00:00 PM 0.66 33.188 0.088 7.21 25.69 14.06
12/23/2022 2:15:00 PM 0.62 33.116 0.088 7.22 25.17 14.08
12/23/2022 2:30:00 PM 0.57 33.026 0.088 7.21 24.09 14.1
12/23/2022 2:45:00 PM 0.53 32.954 0.088 7.22 23.97 14.12
12/23/2022 3:00:00 PM 0.47 32.846 0.088 7.22 24.05 14.16
12/23/2022 3:15:00 PM 0.41 32.738 0.088 7.21 23.58 14.16
12/23/2022 3:30:00 PM 0.38 32.684 0.088 7.21 22.95 14.19
12/23/2022 3:45:00 PM 0.32 32.576 0.088 7.22 22.38 14.21
12/23/2022 4:00:00 PM 0.27 32.486 0.088 7.22 22.06 14.22
12/23/2022 4:15:00 PM 0.2 32.36 0.087 7.21 21.97 14.23
12/23/2022 4:30:00 PM 0.14 32.252 0.087 7.21 21.92 14.24
12/23/2022 4:45:00 PM 0.06 32.108 0.087 7.2 21.71 14.25
12/23/2022 5:00:00 PM 0 32 0.087 7.2 21.34 14.25
12/23/2022 5:15:00 PM -0.03 31.946 0.087 7.2 20.68 14.26
12/23/2022 5:30:00 PM -0.04 31.928 0.087 7.2 21 14.26
12/23/2022 5:45:00 PM -0.06 31.892 0.087 7.19 20.32 14.27
12/23/2022 6:00:00 PM -0.06 31.892 0.087 7.17 20.14 14.27
12/23/2022 6:15:00 PM -0.07 31.874 0.087 7.19 19.46 14.28
12/23/2022 6:30:00 PM -0.08 31.856 0.087 7.2 19.43 14.28
12/23/2022 6:45:00 PM -0.1 31.82 0.087 7.17 19.2 14.29
12/23/2022 7:00:00 PM -0.1 31.82 0.087 7.19 18.81 14.31
12/23/2022 7:15:00 PM -0.1 31.82 0.087 7.2 19.08 14.31
12/23/2022 7:30:00 PM -0.1 31.82 0.087 7.23 19.14 14.3
12/23/2022 7:45:00 PM -0.1 31.82 0.087 7.22 20.34 14.3
12/23/2022 8:00:00 PM -0.09 31.838 0.086 7.22 19.62 14.3
12/23/2022 8:15:00 PM -0.09 31.838 0.086 7.22 19.75 14.31
12/23/2022 8:30:00 PM -0.08 31.856 0.086 7.23 19.43 14.31
12/23/2022 8:45:00 PM -0.08 31.856 0.086 7.22 19.5 14.31
12/23/2022 9:00:00 PM -0.09 31.838 0.086 7.21 20.05 14.31
12/23/2022 9:15:00 PM -0.09 31.838 0.086 7.2 20.58 14.32
12/23/2022 9:30:00 PM -0.09 31.838 0.086 7.2 20.63 14.32
12/23/2022 9:45:00 PM -0.09 31.838 0.086 7.19 20.31 14.32
12/23/2022 10:00:00 PM -0.09 31.838 0.086 7.18 19.81 14.32
12/23/2022 10:15:00 PM -0.09 31.838 0.086 7.16 19.73 14.32
12/23/2022 10:30:00 PM -0.09 31.838 0.086 7.18 19.46 14.32
12/23/2022 10:45:00 PM -0.09 31.838 0.085 7.19 19.54 14.32
12/23/2022 11:00:00 PM -0.09 31.838 0.085 7.19 19.44 14.32
12/23/2022 11:15:00 PM -0.09 31.838 0.085 7.19 18.71 14.32
12/23/2022 11:30:00 PM -0.09 31.838 0.085 7.2 18.24 14.33
12/23/2022 11:45:00 PM -0.09 31.838 0.085 7.2 18.18 14.32
12/24/2022 12:00:00 AM -0.08 31.856 0.084 7.19 17.74 14.32
12/24/2022 12:15:00 AM -0.08 31.856 0.084 7.19 17.93 14.32
12/24/2022 12:30:00 AM -0.08 31.856 0.084 7.19 18.11 14.32
12/24/2022 12:45:00 AM -0.08 31.856 0.084 7.18 18.28 14.32
12/24/2022 1:00:00 AM -0.08 31.856 0.084 7.18 18.22 14.32
12/24/2022 1:15:00 AM -0.08 31.856 0.084 7.17 18.26 14.32
12/24/2022 1:30:00 AM -0.08 31.856 0.084 7.19 19.28 14.32
12/24/2022 1:45:00 AM -0.08 31.856 0.084 7.18 19.89 14.33
12/24/2022 2:00:00 AM -0.08 31.856 0.083 7.18 18.06 14.33
12/24/2022 2:15:00 AM -0.08 31.856 0.083 7.18 18 14.33
12/24/2022 2:30:00 AM -0.08 31.856 0.083 7.18 17.88 14.34
12/24/2022 2:45:00 AM -0.08 31.856 0.083 7.17 17.84 14.33
12/24/2022 3:00:00 AM -0.08 31.856 0.083 7.17 17.92 14.34
12/24/2022 3:15:00 AM -0.09 31.838 0.083 7.18 17.72 14.34
12/24/2022 3:30:00 AM -0.08 31.856 0.083 7.18 18.28 14.34
12/24/2022 3:45:00 AM -0.08 31.856 0.083 7.18 18.03 14.35
12/24/2022 4:00:00 AM -0.08 31.856 0.083 7.19 17.82 14.34
12/24/2022 4:15:00 AM -0.08 31.856 0.082 7.18 18.12 14.35
12/24/2022 4:30:00 AM -0.08 31.856 0.082 7.18 17.86 14.35
12/24/2022 4:45:00 AM -0.08 31.856 0.082 7.18 17.72 14.35
12/24/2022 5:00:00 AM -0.08 31.856 0.082 7.18 17.67 14.35
12/24/2022 5:15:00 AM -0.08 31.856 0.082 7.18 17.78 14.35
12/24/2022 5:30:00 AM -0.07 31.874 0.082 7.18 17.93 14.35
12/24/2022 5:45:00 AM -0.08 31.856 0.082 7.18 17.97 14.35
12/24/2022 6:00:00 AM -0.08 31.856 0.082 7.18 17.67 14.35
12/24/2022 6:15:00 AM -0.08 31.856 0.082 7.18 17.73 14.35
12/24/2022 6:30:00 AM -0.08 31.856 0.082 7.18 17.68 14.36
12/24/2022 6:45:00 AM -0.08 31.856 0.082 7.17 17.73 14.35
12/24/2022 7:00:00 AM -0.08 31.856 0.082 7.18 17.63 14.36
12/24/2022 7:15:00 AM -0.08 31.856 0.082 7.18 18.12 14.37
12/24/2022 7:30:00 AM -0.08 31.856 0.082 7.18 17.84 14.37
12/24/2022 7:45:00 AM -0.08 31.856 0.082 7.18 17.73 14.38
12/24/2022 8:00:00 AM -0.08 31.856 0.082 7.19 18.14 14.39
12/24/2022 8:15:00 AM -0.08 31.856 0.081 7.19 17.72 14.42
12/24/2022 8:30:00 AM -0.07 31.874 0.081 7.19 18.14 14.44
12/24/2022 8:45:00 AM -0.07 31.874 0.081 7.2 18.08 14.47
12/24/2022 9:00:00 AM -0.07 31.874 0.081 7.21 17.92 14.5
12/24/2022 9:15:00 AM -0.07 31.874 0.081 7.21 17.91 14.52
12/24/2022 9:30:00 AM -0.08 31.856 0.081 7.21 18.48 14.54
12/24/2022 9:45:00 AM -0.08 31.856 0.081 7.22 17.75 14.55
12/24/2022 10:00:00 AM -0.07 31.874 0.081 7.22 17.86 14.56
12/24/2022 10:15:00 AM -0.08 31.856 0.081 7.23 19.84 14.57
12/24/2022 10:30:00 AM -0.07 31.874 0.081 7.24 12.29 14.56
12/24/2022 10:45:00 AM -0.07 31.874 0.081 7.24 12.11 14.58
12/24/2022 11:00:00 AM -0.06 31.892 0.081 7.23 11.61 14.58
12/24/2022 11:15:00 AM -0.05 31.91 0.081 7.24 11.14 14.57
12/24/2022 11:30:00 AM -0.04 31.928 0.081 7.27 11.18 14.58
12/24/2022 11:45:00 AM -0.02 31.964 0.081 7.26 12.02 14.58
12/24/2022 12:00:00 PM 0 32 0.081 7.27 12.79 14.58
12/24/2022 12:15:00 PM 0 32 0.081 7.27 12.42 14.57
12/24/2022 12:30:00 PM -0.01 31.982 0.08 7.27 13.29 14.57
12/24/2022 12:45:00 PM -0.01 31.982 0.08 7.27 13.8 14.57
12/24/2022 1:00:00 PM -0.01 31.982 0.08 7.27 14.15 14.56
12/24/2022 1:15:00 PM -0.01 31.982 0.08 7.27 13.21 14.57
12/24/2022 1:30:00 PM -0.02 31.964 0.08 7.27 13.63 14.57
12/24/2022 1:45:00 PM 0 32 0.08 7.27 13.39 14.56
12/24/2022 2:00:00 PM 0 32 0.08 7.27 13.26 14.56
12/24/2022 2:15:00 PM 0.01 32.018 0.08 7.28 15.04 14.56
12/24/2022 2:30:00 PM 0.03 32.054 0.08 7.26 13.59 14.56
12/24/2022 2:45:00 PM 0.04 32.072 0.08 7.28 13.26 14.55
12/24/2022 3:00:00 PM 0.04 32.072 0.08 7.27 12.84 14.55
12/24/2022 3:15:00 PM 0.04 32.072 0.08 7.27 12.73 14.55
12/24/2022 3:30:00 PM 0.03 32.054 0.08 7.28 12.95 14.54
12/24/2022 3:45:00 PM 0.02 32.036 0.08 7.27 12.79 14.54
12/24/2022 4:00:00 PM 0.01 32.018 0.08 7.27 12.75 14.53
12/24/2022 4:15:00 PM 0 32 0.08 7.26 12.9 14.52
12/24/2022 4:30:00 PM -0.02 31.964 0.08 7.25 12.89 14.49
12/24/2022 4:45:00 PM -0.03 31.946 0.08 7.25 12.84 14.47
12/24/2022 5:00:00 PM -0.03 31.946 0.08 7.24 12.69 14.44
12/24/2022 5:15:00 PM -0.03 31.946 0.08 7.23 12.37 14.42
12/24/2022 5:30:00 PM -0.03 31.946 0.08 7.23 12.31 14.41
12/24/2022 5:45:00 PM -0.03 31.946 0.08 7.23 12.31 14.41
12/24/2022 6:00:00 PM -0.04 31.928 0.08 7.22 11.91 14.4
12/24/2022 6:15:00 PM -0.03 31.946 0.08 7.23 11.75 14.4
12/24/2022 6:30:00 PM -0.02 31.964 0.08 7.22 11.51 14.4
12/24/2022 6:45:00 PM -0.02 31.964 0.08 7.22 11.44 14.39
12/24/2022 7:00:00 PM -0.02 31.964 0.08 7.22 11.38 14.4
12/24/2022 7:15:00 PM -0.02 31.964 0.08 7.21 11.31 14.39
12/24/2022 7:30:00 PM -0.02 31.964 0.08 7.22 11.38 14.4
12/24/2022 7:45:00 PM -0.02 31.964 0.08 7.22 11.52 14.39
12/24/2022 8:00:00 PM -0.02 31.964 0.08 7.22 11.23 14.39
12/24/2022 8:15:00 PM -0.02 31.964 0.08 7.21 11.38 14.39
12/24/2022 8:30:00 PM -0.02 31.964 0.08 7.22 12.02 14.4
12/24/2022 8:45:00 PM -0.02 31.964 0.08 7.22 10.87 14.39
12/24/2022 9:00:00 PM -0.01 31.982 0.08 7.21 10.84 14.39
12/24/2022 9:15:00 PM -0.01 31.982 0.079 7.21 10.8 14.39
12/24/2022 9:30:00 PM -0.01 31.982 0.079 7.21 10.98 14.4
12/24/2022 9:45:00 PM 0 32 0.079 7.21 10.92 14.39
12/24/2022 10:00:00 PM 0 32 0.079 7.21 10.93 14.4
12/24/2022 10:15:00 PM 0 32 0.079 7.2 10.89 14.39
12/24/2022 10:30:00 PM 0.01 32.018 0.079 7.21 10.97 14.39
12/24/2022 10:45:00 PM 0 32 0.079 7.21 10.84 14.4
12/24/2022 11:00:00 PM 0 32 0.079 7.21 10.99 14.39
12/24/2022 11:15:00 PM -0.01 31.982 0.079 7.21 11.09 14.39
12/24/2022 11:30:00 PM 0 32 0.079 7.21 11.02 14.39
12/24/2022 11:45:00 PM 0 32 0.079 7.21 11.08 14.38
12/25/2022 12:00:00 AM 0 32 0.079 7.21 10.94 14.38
12/25/2022 12:15:00 AM 0 32 0.079 7.21 11.11 14.38
12/25/2022 12:30:00 AM 0.01 32.018 0.079 7.22 10.97 14.38
12/25/2022 12:45:00 AM 0.01 32.018 0.079 7.21 10.64 14.38
12/25/2022 1:00:00 AM 0.01 32.018 0.078 7.22 10.67 14.38
12/25/2022 1:15:00 AM 0.02 32.036 0.078 7.22 10.76 14.37
12/25/2022 1:30:00 AM 0.03 32.054 0.078 7.21 10.95 14.36
12/25/2022 1:45:00 AM 0.05 32.09 0.078 7.21 10.47 14.36
12/25/2022 2:00:00 AM 0.05 32.09 0.078 7.21 10.61 14.36
12/25/2022 2:15:00 AM 0.06 32.108 0.078 7.22 10.52 14.36
12/25/2022 2:30:00 AM 0.06 32.108 0.078 7.21 10.52 14.36
12/25/2022 2:45:00 AM 0.07 32.126 0.078 7.22 10.5 14.36
12/25/2022 3:00:00 AM 0.07 32.126 0.078 7.21 10.53 14.36
12/25/2022 3:15:00 AM 0.08 32.144 0.078 7.21 10.34 14.35
12/25/2022 3:30:00 AM 0.09 32.162 0.078 7.21 10.8 14.35
12/25/2022 3:45:00 AM 0.09 32.162 0.078 7.21 10.85 14.35
12/25/2022 4:00:00 AM 0.09 32.162 0.078 7.22 10.33 14.35
12/25/2022 4:15:00 AM 0.1 32.18 0.078 7.22 14.82 14.35
12/25/2022 4:30:00 AM 0.09 32.162 0.078 7.21 10.43 14.35
12/25/2022 4:45:00 AM 0.09 32.162 0.078 7.22 11.71 14.35
12/25/2022 5:00:00 AM 0.1 32.18 0.078 7.21 10.21 14.35
12/25/2022 5:15:00 AM 0.11 32.198 0.078 7.22 10.97 14.35
12/25/2022 5:30:00 AM 0.12 32.216 0.078 7.21 11.29 14.34
12/25/2022 5:45:00 AM 0.11 32.198 0.077 7.21 10.4 14.34
12/25/2022 6:00:00 AM 0.12 32.216 0.077 7.21 10.34 14.35
12/25/2022 6:15:00 AM 0.12 32.216 0.077 7.2 11.33 14.35
12/25/2022 6:30:00 AM 0.13 32.234 0.077 7.21 10.99 14.35
12/25/2022 6:45:00 AM 0.14 32.252 0.077 7.22 13.52 14.34
12/25/2022 7:00:00 AM 0.14 32.252 0.077 7.21 10.77 14.35
12/25/2022 7:15:00 AM 0.14 32.252 0.077 7.22 11.6 14.35
12/25/2022 7:30:00 AM 0.15 32.27 0.077 7.22 11.24 14.35
12/25/2022 7:45:00 AM 0.16 32.288 0.077 7.21 10.29 14.36
12/25/2022 8:00:00 AM 0.17 32.306 0.077 7.23 11.3 14.36
12/25/2022 8:15:00 AM 0.18 32.324 0.077 7.22 11.02 14.38
12/25/2022 8:30:00 AM 0.19 32.342 0.077 7.23 10.46 14.4
12/25/2022 8:45:00 AM 0.2 32.36 0.077 7.24 10.3 14.44
12/25/2022 9:00:00 AM 0.22 32.396 0.077 7.25 11.76 14.47
12/25/2022 9:15:00 AM 0.24 32.432 0.077 7.26 11.08 14.5
12/25/2022 9:30:00 AM 0.26 32.468 0.077 7.27 10.82 14.51
12/25/2022 9:45:00 AM 0.28 32.504 0.077 7.27 10.08 14.52
12/25/2022 10:00:00 AM 0.3 32.54 0.077 7.28 10.16 14.52
12/25/2022 10:15:00 AM 0.3 32.54 0.077 7.28 10.13 14.53
12/25/2022 10:30:00 AM 0.32 32.576 0.077 7.28 11.59 14.53
12/25/2022 10:45:00 AM 0.35 32.63 0.077 7.29 10.69 14.54
12/25/2022 11:00:00 AM 0.38 32.684 0.076 7.28 10.24 14.54
12/25/2022 11:15:00 AM 0.42 32.756 0.076 7.29 10.28 14.54
12/25/2022 11:30:00 AM 0.44 32.792 0.076 7.3 10.3 14.54
12/25/2022 11:45:00 AM 0.47 32.846 0.076 7.29 12.51 14.53
12/25/2022 12:00:00 PM 0.49 32.882 0.076 7.3 10.45 14.53
12/25/2022 12:15:00 PM 0.47 32.846 0.076 7.31 11 14.53
12/25/2022 12:30:00 PM 0.47 32.846 0.076 7.3 10.3 14.52
12/25/2022 12:45:00 PM 0.47 32.846 0.076 7.31 11.19 14.52
12/25/2022 1:00:00 PM 0.46 32.828 0.076 7.31 11.69 14.52
12/25/2022 1:15:00 PM 0.45 32.81 0.076 7.31 10.86 14.51
12/25/2022 1:30:00 PM 0.45 32.81 0.076 7.31 10.44 14.51
12/25/2022 1:45:00 PM 0.47 32.846 0.076 7.3 10.89 14.5
12/25/2022 2:00:00 PM 0.46 32.828 0.076 7.3 10.83 14.5
12/25/2022 2:15:00 PM 0.48 32.864 0.076 7.31 11.11 14.5
12/25/2022 2:30:00 PM 0.49 32.882 0.076 7.31 11.08 14.49
12/25/2022 2:45:00 PM 0.52 32.936 0.076 7.31 10.99 14.47
12/25/2022 3:00:00 PM 0.53 32.954 0.076 7.31 11.09 14.45
12/25/2022 3:15:00 PM 0.55 32.99 0.076 7.3 10.82 14.43
12/25/2022 3:30:00 PM 0.57 33.026 0.076 7.3 10.94 14.43
12/25/2022 3:45:00 PM 0.61 33.098 0.076 7.3 10.81 14.42
12/25/2022 4:00:00 PM 0.64 33.152 0.076 7.31 11 14.39
12/25/2022 4:15:00 PM 0.65 33.17 0.076 7.3 10.93 14.36
12/25/2022 4:30:00 PM 0.66 33.188 0.076 7.3 11.01 14.32
12/25/2022 4:45:00 PM 0.67 33.206 0.076 7.29 12.31 14.29
12/25/2022 5:00:00 PM 0.68 33.224 0.076 7.28 10.56 14.26
12/25/2022 5:15:00 PM 0.67 33.206 0.076 7.27 10.64 14.23
12/25/2022 5:30:00 PM 0.66 33.188 0.076 7.26 10.42 14.23
12/25/2022 5:45:00 PM 0.65 33.17 0.076 7.26 10.13 14.22
12/25/2022 6:00:00 PM 0.65 33.17 0.076 7.25 10.23 14.22
12/25/2022 6:15:00 PM 0.64 33.152 0.076 7.25 10.86 14.22
12/25/2022 6:30:00 PM 0.64 33.152 0.076 7.25 10.97 14.22
12/25/2022 6:45:00 PM 0.64 33.152 0.076 7.25 10.57 14.22
12/25/2022 7:00:00 PM 0.63 33.134 0.076 7.24 10.62 14.22
12/25/2022 7:15:00 PM 0.62 33.116 0.076 7.24 11.04 14.23
12/25/2022 7:30:00 PM 0.62 33.116 0.076 7.24 10.51 14.23
12/25/2022 7:45:00 PM 0.61 33.098 0.076 7.24 10.44 14.24
12/25/2022 8:00:00 PM 0.6 33.08 0.076 7.24 10.41 14.24
12/25/2022 8:15:00 PM 0.6 33.08 0.076 7.24 10.44 14.25
12/25/2022 8:30:00 PM 0.6 33.08 0.076 7.24 10.42 14.25
12/25/2022 8:45:00 PM 0.59 33.062 0.076 7.24 10.35 14.25
12/25/2022 9:00:00 PM 0.59 33.062 0.076 7.24 10.3 14.26
12/25/2022 9:15:00 PM 0.59 33.062 0.076 7.24 10.31 14.26
12/25/2022 9:30:00 PM 0.58 33.044 0.076 7.23 10.31 14.25
12/25/2022 9:45:00 PM 0.58 33.044 0.076 7.24 10.29 14.26
12/25/2022 10:00:00 PM 0.58 33.044 0.076 7.23 10.39 14.26
12/25/2022 10:15:00 PM 0.57 33.026 0.076 7.23 10.41 14.26
12/25/2022 10:30:00 PM 0.58 33.044 0.076 7.23 10.44 14.27
12/25/2022 10:45:00 PM 0.57 33.026 0.076 7.23 10.43 14.27
12/25/2022 11:00:00 PM 0.57 33.026 0.076 7.23 10.79 14.27
12/25/2022 11:15:00 PM 0.57 33.026 0.076 7.23 10.65 14.28
12/25/2022 11:30:00 PM 0.56 33.008 0.076 7.23 10.74 14.28
12/25/2022 11:45:00 PM 0.57 33.026 0.076 7.23 10.35 14.28
12/26/2022 12:00:00 AM 0.55 32.99 0.076 7.24 10.26 14.28
12/26/2022 12:15:00 AM 0.55 32.99 0.076 7.24 10.62 14.29
12/26/2022 12:30:00 AM 0.54 32.972 0.075 7.24 10.52 14.29
12/26/2022 12:45:00 AM 0.54 32.972 0.075 7.23 11.18 14.29
12/26/2022 1:00:00 AM 0.53 32.954 0.075 7.23 10.62 14.3
12/26/2022 1:15:00 AM 0.52 32.936 0.075 7.23 11.01 14.3
12/26/2022 1:30:00 AM 0.51 32.918 0.075 7.23 10.57 14.31
12/26/2022 1:45:00 AM 0.51 32.918 0.075 7.23 10.56 14.31
12/26/2022 2:00:00 AM 0.5 32.9 0.075 7.23 14.13 14.32
12/26/2022 2:15:00 AM 0.5 32.9 0.075 7.23 10.63 14.33
12/26/2022 2:30:00 AM 0.48 32.864 0.075 7.23 10.7 14.33
12/26/2022 2:45:00 AM 0.48 32.864 0.075 7.24 10.97 14.33
12/26/2022 3:00:00 AM 0.48 32.864 0.075 7.24 10.89 14.34
12/26/2022 3:15:00 AM 0.47 32.846 0.075 7.23 10.87 14.34
12/26/2022 3:30:00 AM 0.46 32.828 0.075 7.23 11.49 14.35
12/26/2022 3:45:00 AM 0.46 32.828 0.075 7.23 10.8 14.35
12/26/2022 4:00:00 AM 0.45 32.81 0.075 7.23 10.58 14.36
12/26/2022 4:15:00 AM 0.44 32.792 0.075 7.23 10.6 14.36
12/26/2022 4:30:00 AM 0.44 32.792 0.075 7.23 10.62 14.36
12/26/2022 4:45:00 AM 0.44 32.792 0.075 7.23 10.6 14.37
12/26/2022 5:00:00 AM 0.44 32.792 0.075 7.23 14.5 14.37
12/26/2022 5:15:00 AM 0.43 32.774 0.075 7.23 10.75 14.37
12/26/2022 5:30:00 AM 0.42 32.756 0.075 7.23 10.65 14.38
12/26/2022 5:45:00 AM 0.42 32.756 0.075 7.23 10.59 14.38
12/26/2022 6:00:00 AM 0.4 32.72 0.075 7.24 11.64 14.39
12/26/2022 6:15:00 AM 0.4 32.72 0.075 7.23 22.25 14.39
12/26/2022 6:30:00 AM 0.38 32.684 0.075 7.23 10.86 14.4
12/26/2022 6:45:00 AM 0.37 32.666 0.075 7.23 10.97 14.4
12/26/2022 7:00:00 AM 0.35 32.63 0.075 7.23 10.43 14.41
12/26/2022 7:15:00 AM 0.33 32.594 0.075 7.23 10.71 14.42
12/26/2022 7:30:00 AM 0.3 32.54 0.075 7.23 10.62 14.44
12/26/2022 7:45:00 AM 0.28 32.504 0.075 7.23 10.72 14.45
12/26/2022 8:00:00 AM 0.28 32.504 0.075 7.23 10.46 14.48
12/26/2022 8:15:00 AM 0.28 32.504 0.075 7.24 10.45 14.51
12/26/2022 8:30:00 AM 0.29 32.522 0.075 7.25 13.68 14.55
12/26/2022 8:45:00 AM 0.31 32.558 0.075 7.25 10.28 14.58
12/26/2022 9:00:00 AM 0.34 32.612 0.075 7.27 10.24 14.6
12/26/2022 9:15:00 AM 0.36 32.648 0.075 7.28 10.68 14.62
12/26/2022 9:30:00 AM 0.4 32.72 0.075 7.29 10.77 14.65
12/26/2022 9:45:00 AM 0.42 32.756 0.075 7.29 11.02 14.66
12/26/2022 10:00:00 AM 0.46 32.828 0.075 7.3 10.89 14.68
12/26/2022 10:15:00 AM 0.51 32.918 0.074 7.31 10.72 14.67
12/26/2022 10:30:00 AM 0.56 33.008 0.074 7.31 10.27 14.67
12/26/2022 10:45:00 AM 0.62 33.116 0.074 7.32 10.64 14.67
12/26/2022 11:00:00 AM 0.67 33.206 0.074 7.33 10.71 14.66
12/26/2022 11:15:00 AM 0.72 33.296 0.074 7.33 10.71 14.64
12/26/2022 11:30:00 AM 0.78 33.404 0.074 7.33 10.64 14.62
12/26/2022 11:45:00 AM 0.83 33.494 0.074 7.33 10.45 14.61
12/26/2022 12:00:00 PM 0.89 33.602 0.074 7.34 11.11 14.58
12/26/2022 12:15:00 PM 0.94 33.692 0.074 7.34 11.27 14.56
12/26/2022 12:30:00 PM 1 33.8 0.074 7.34 10.43 14.54
12/26/2022 12:45:00 PM 1.05 33.89 0.074 7.34 12.1 14.52
12/26/2022 1:00:00 PM 1.08 33.944 0.074 7.34 10.78 14.5
12/26/2022 1:15:00 PM 1.1 33.98 0.074 7.34 11.75 14.48
12/26/2022 1:30:00 PM 1.13 34.034 0.074 7.34 10.74 14.46
12/26/2022 1:45:00 PM 1.15 34.07 0.074 7.34 11.19 14.45
12/26/2022 2:00:00 PM 1.18 34.124 0.074 7.35 10.32 14.43
12/26/2022 2:15:00 PM 1.2 34.16 0.074 7.35 10.45 14.42
12/26/2022 2:30:00 PM 1.22 34.196 0.074 7.34 10.83 14.4
12/26/2022 2:45:00 PM 1.22 34.196 0.074 7.34 10.42 14.39
12/26/2022 3:00:00 PM 1.23 34.214 0.074 7.34 10.4 14.37
12/26/2022 3:15:00 PM 1.22 34.196 0.074 7.34 10.32 14.36
12/26/2022 3:30:00 PM 1.2 34.16 0.074 7.33 10.37 14.35
12/26/2022 3:45:00 PM 1.2 34.16 0.074 7.33 10.34 14.33
12/26/2022 4:00:00 PM 1.2 34.16 0.074 7.32 10.39 14.3
12/26/2022 4:15:00 PM 1.19 34.142 0.074 7.31 11.05 14.28
12/26/2022 4:30:00 PM 1.18 34.124 0.074 7.3 10.41 14.24
12/26/2022 4:45:00 PM 1.16 34.088 0.075 7.29 9.94 14.21
12/26/2022 5:00:00 PM 1.15 34.07 0.075 7.28 10.12 14.18
12/26/2022 5:15:00 PM 1.13 34.034 0.075 7.27 9.79 14.17
12/26/2022 5:30:00 PM 1.12 34.016 0.075 7.26 10.38 14.16
12/26/2022 5:45:00 PM 1.11 33.998 0.075 7.26 10.32 14.15
12/26/2022 6:00:00 PM 1.1 33.98 0.075 7.25 9.53 14.15
12/26/2022 6:15:00 PM 1.08 33.944 0.075 7.25 9.52 14.15
12/26/2022 6:30:00 PM 1.06 33.908 0.075 7.25 9.58 14.16
12/26/2022 6:45:00 PM 1.05 33.89 0.075 7.25 11.25 14.16
12/26/2022 7:00:00 PM 1.04 33.872 0.075 7.25 9.5 14.17
12/26/2022 7:15:00 PM 1.02 33.836 0.075 7.25 9.6 14.17
12/26/2022 7:30:00 PM 1 33.8 0.075 7.24 9.52 14.18
12/26/2022 7:45:00 PM 0.98 33.764 0.075 7.24 9.55 14.19
12/26/2022 8:00:00 PM 0.97 33.746 0.075 7.24 9.45 14.19
12/26/2022 8:15:00 PM 0.96 33.728 0.075 7.23 9.63 14.2
12/26/2022 8:30:00 PM 0.95 33.71 0.075 7.23 9.89 14.2
12/26/2022 8:45:00 PM 0.95 33.71 0.075 7.23 9.62 14.2
12/26/2022 9:00:00 PM 0.94 33.692 0.075 7.24 9.65 14.21
12/26/2022 9:15:00 PM 0.94 33.692 0.075 7.23 9.58 14.21
12/26/2022 9:30:00 PM 0.94 33.692 0.075 7.24 9.63 14.21
12/26/2022 9:45:00 PM 0.94 33.692 0.075 7.24 9.67 14.21
12/26/2022 10:00:00 PM 0.94 33.692 0.075 7.24 9.53 14.21
12/26/2022 10:15:00 PM 0.93 33.674 0.075 7.23 9.66 14.21
12/26/2022 10:30:00 PM 0.93 33.674 0.075 7.24 9.58 14.21
12/26/2022 10:45:00 PM 0.93 33.674 0.075 7.23 9.66 14.22
12/26/2022 11:00:00 PM 0.93 33.674 0.075 7.24 9.56 14.22
12/26/2022 11:15:00 PM 0.93 33.674 0.075 7.24 9.6 14.21
12/26/2022 11:30:00 PM 0.94 33.692 0.075 7.24 9.59 14.21
12/26/2022 11:45:00 PM 0.93 33.674 0.075 7.23 9.73 14.21
12/27/2022 12:00:00 AM 0.93 33.674 0.075 7.24 9.66 14.21
12/27/2022 12:15:00 AM 0.93 33.674 0.075 7.24 9.65 14.21
12/27/2022 12:30:00 AM 0.93 33.674 0.075 7.23 9.69 14.21
12/27/2022 12:45:00 AM 0.93 33.674 0.075 7.24 9.61 14.21
12/27/2022 1:00:00 AM 0.93 33.674 0.075 7.24 9.53 14.21
12/27/2022 1:15:00 AM 0.93 33.674 0.075 7.24 10.44 14.21
12/27/2022 1:30:00 AM 0.93 33.674 0.075 7.24 9.84 14.21
12/27/2022 1:45:00 AM 0.93 33.674 0.075 7.24 9.95 14.21
12/27/2022 2:00:00 AM 0.93 33.674 0.075 7.24 9.59 14.21
12/27/2022 2:15:00 AM 0.94 33.692 0.075 7.24 9.45 14.21
12/27/2022 2:30:00 AM 0.94 33.692 0.075 7.24 9.63 14.21
12/27/2022 2:45:00 AM 0.94 33.692 0.075 7.23 9.5 14.21
12/27/2022 3:00:00 AM 0.94 33.692 0.075 7.24 9.62 14.21
12/27/2022 3:15:00 AM 0.94 33.692 0.075 7.24 9.39 14.21
12/27/2022 3:30:00 AM 0.94 33.692 0.075 7.23 9.21 14.21
12/27/2022 3:45:00 AM 0.94 33.692 0.075 7.24 9.24 14.21
12/27/2022 4:00:00 AM 0.94 33.692 0.075 7.23 9.29 14.2
12/27/2022 4:15:00 AM 0.95 33.71 0.075 7.24 9.11 14.2
12/27/2022 4:30:00 AM 0.95 33.71 0.075 7.24 9.19 14.21
12/27/2022 4:45:00 AM 0.95 33.71 0.075 7.24 9.05 14.2
12/27/2022 5:00:00 AM 0.96 33.728 0.075 7.24 9.45 14.21
12/27/2022 5:15:00 AM 0.96 33.728 0.075 7.23 9.8 14.2
12/27/2022 5:30:00 AM 0.96 33.728 0.075 7.24 9.5 14.2
12/27/2022 5:45:00 AM 0.96 33.728 0.075 7.24 9.52 14.21
12/27/2022 6:00:00 AM 0.97 33.746 0.075 7.24 9.41 14.2
12/27/2022 6:15:00 AM 0.97 33.746 0.075 7.24 9.54 14.2
12/27/2022 6:30:00 AM 0.97 33.746 0.075 7.24 9.54 14.2
12/27/2022 6:45:00 AM 0.98 33.764 0.075 7.24 9.68 14.2
12/27/2022 7:00:00 AM 0.98 33.764 0.075 7.24 9.72 14.2
12/27/2022 7:15:00 AM 0.99 33.782 0.075 7.24 9.58 14.2
12/27/2022 7:30:00 AM 0.99 33.782 0.075 7.24 9.61 14.2
12/27/2022 7:45:00 AM 0.99 33.782 0.075 7.24 9.46 14.2
12/27/2022 8:00:00 AM 1 33.8 0.075 7.24 9.42 14.22
12/27/2022 8:15:00 AM 1.01 33.818 0.075 7.25 9.32 14.24
12/27/2022 8:30:00 AM 1.01 33.818 0.075 7.26 9.39 14.28
12/27/2022 8:45:00 AM 1.03 33.854 0.075 7.26 9.48 14.31
12/27/2022 9:00:00 AM 1.04 33.872 0.074 7.28 9.93 14.34
12/27/2022 9:15:00 AM 1.05 33.89 0.074 7.28 9.99 14.37
12/27/2022 9:30:00 AM 1.07 33.926 0.074 7.29 9.45 14.4
12/27/2022 9:45:00 AM 1.1 33.98 0.074 7.3 9.58 14.42
12/27/2022 10:00:00 AM 1.13 34.034 0.074 7.31 10.47 14.44
12/27/2022 10:15:00 AM 1.15 34.07 0.074 7.32 10.47 14.44
12/27/2022 10:30:00 AM 1.18 34.124 0.074 7.33 11.52 14.45
12/27/2022 10:45:00 AM 1.21 34.178 0.074 7.33 11.77 14.45
12/27/2022 11:00:00 AM 1.23 34.214 0.074 7.34 11.64 14.44
12/27/2022 11:15:00 AM 1.26 34.268 0.074 7.34 11.56 14.44
12/27/2022 11:30:00 AM 1.29 34.322 0.074 7.34 11.79 14.44
12/27/2022 11:45:00 AM 1.34 34.412 0.074 7.35 11.74 14.44
12/27/2022 12:00:00 PM 1.38 34.484 0.074 7.35 11.63 14.44
12/27/2022 12:15:00 PM 1.44 34.592 0.074 7.36 11.81 14.43
12/27/2022 12:30:00 PM 1.49 34.682 0.074 7.36 11.8 14.41
12/27/2022 12:45:00 PM 1.54 34.772 0.074 7.36 11.86 14.39
12/27/2022 1:00:00 PM 1.59 34.862 0.074 7.36 11.76 14.38
12/27/2022 1:15:00 PM 1.63 34.934 0.074 7.37 11.54 14.35
12/27/2022 1:30:00 PM 1.66 34.988 0.074 7.37 11.49 14.34
12/27/2022 1:45:00 PM 1.68 35.024 0.074 7.37 11.7 14.32
12/27/2022 2:00:00 PM 1.69 35.042 0.074 7.37 11.52 14.31
12/27/2022 2:15:00 PM 1.7 35.06 0.074 7.37 11.51 14.3
12/27/2022 2:30:00 PM 1.71 35.078 0.074 7.37 11.58 14.28
12/27/2022 2:45:00 PM 1.72 35.096 0.074 7.36 11.49 14.27
12/27/2022 3:00:00 PM 1.71 35.078 0.074 7.36 12.45 14.26
12/27/2022 3:15:00 PM 1.71 35.078 0.074 7.36 11.94 14.24
12/27/2022 3:30:00 PM 1.71 35.078 0.074 7.35 11.94 14.23
12/27/2022 3:45:00 PM 1.7 35.06 0.074 7.35 11.96 14.2
12/27/2022 4:00:00 PM 1.69 35.042 0.074 7.34 11.92 14.17
12/27/2022 4:15:00 PM 1.68 35.024 0.074 7.33 11.82 14.12
12/27/2022 4:30:00 PM 1.66 34.988 0.074 7.32 11.75 14.09
12/27/2022 4:45:00 PM 1.65 34.97 0.074 7.31 11.57 14.06
12/27/2022 5:00:00 PM 1.63 34.934 0.074 7.3 11.65 14.03
12/27/2022 5:15:00 PM 1.62 34.916 0.074 7.29 11.58 14.01
12/27/2022 5:30:00 PM 1.61 34.898 0.074 7.28 11.71 13.99
12/27/2022 5:45:00 PM 1.59 34.862 0.074 7.27 11.62 13.99
12/27/2022 6:00:00 PM 1.58 34.844 0.074 7.27 11.59 13.99
12/27/2022 6:15:00 PM 1.58 34.844 0.074 7.26 11.66 13.99
12/27/2022 6:30:00 PM 1.57 34.826 0.074 7.26 11.72 13.99
12/27/2022 6:45:00 PM 1.56 34.808 0.074 7.27 11.67 13.99
12/27/2022 7:00:00 PM 1.55 34.79 0.074 7.26 11.46 13.99
12/27/2022 7:15:00 PM 1.55 34.79 0.074 7.26 11.38 13.99
12/27/2022 7:30:00 PM 1.55 34.79 0.074 7.25 11.55 13.99
12/27/2022 7:45:00 PM 1.55 34.79 0.074 7.25 11.53 13.99
12/27/2022 8:00:00 PM 1.55 34.79 0.074 7.25 11.55 13.99
12/27/2022 8:15:00 PM 1.55 34.79 0.074 7.25 11.6 13.99
12/27/2022 8:30:00 PM 1.54 34.772 0.074 7.25 11.53 14
12/27/2022 8:45:00 PM 1.54 34.772 0.074 7.25 11.44 13.99
12/27/2022 9:00:00 PM 1.54 34.772 0.074 7.25 11.48 13.99
12/27/2022 9:15:00 PM 1.54 34.772 0.074 7.25 11.48 13.99
12/27/2022 9:30:00 PM 1.54 34.772 0.074 7.25 11.68 13.99
12/27/2022 9:45:00 PM 1.54 34.772 0.074 7.25 11.82 13.99
12/27/2022 10:00:00 PM 1.54 34.772 0.074 7.25 11.45 13.99
12/27/2022 10:15:00 PM 1.54 34.772 0.074 7.25 11.33 13.99
12/27/2022 10:30:00 PM 1.55 34.79 0.074 7.25 11.21 13.99
12/27/2022 10:45:00 PM 1.55 34.79 0.074 7.25 11.48 13.98
12/27/2022 11:00:00 PM 1.56 34.808 0.074 7.25 11.88 13.98
12/27/2022 11:15:00 PM 1.57 34.826 0.074 7.25 11.9 13.97
12/27/2022 11:30:00 PM 1.57 34.826 0.074 7.25 11.82 13.97
12/27/2022 11:45:00 PM 1.58 34.844 0.074 7.24 11.93 13.96
12/28/2022 12:00:00 AM 1.59 34.862 0.074 7.25 11.84 13.96
12/28/2022 12:15:00 AM 1.6 34.88 0.074 7.25 11.83 13.96
12/28/2022 12:30:00 AM 1.61 34.898 0.074 7.24 11.97 13.95
12/28/2022 12:45:00 AM 1.61 34.898 0.074 7.24 11.78 13.94
12/28/2022 1:00:00 AM 1.62 34.916 0.074 7.24 11.77 13.94
12/28/2022 1:15:00 AM 1.63 34.934 0.074 7.24 11.72 13.93
12/28/2022 1:30:00 AM 1.63 34.934 0.074 7.24 11.97 13.93
12/28/2022 1:45:00 AM 1.64 34.952 0.074 7.24 11.75 13.92
12/28/2022 2:00:00 AM 1.65 34.97 0.074 7.24 11.76 13.92
12/28/2022 2:15:00 AM 1.65 34.97 0.074 7.24 11.76 13.92
12/28/2022 2:30:00 AM 1.66 34.988 0.074 7.24 11.78 13.91
12/28/2022 2:45:00 AM 1.67 35.006 0.074 7.24 11.77 13.91
12/28/2022 3:00:00 AM 1.67 35.006 0.074 7.24 11.89 13.91
12/28/2022 3:15:00 AM 1.67 35.006 0.074 7.24 11.86 13.91
12/28/2022 3:30:00 AM 1.65 34.97 0.074 7.23 11.8 13.91
12/28/2022 3:45:00 AM 1.65 34.97 0.074 7.24 11.88 13.91
12/28/2022 4:00:00 AM 1.65 34.97 0.074 7.24 11.79 13.91
12/28/2022 4:15:00 AM 1.65 34.97 0.074 7.24 11.75 13.91
12/28/2022 4:30:00 AM 1.65 34.97 0.074 7.24 11.77 13.91
12/28/2022 4:45:00 AM 1.64 34.952 0.074 7.23 11.7 13.91
12/28/2022 5:00:00 AM 1.63 34.934 0.074 7.24 11.78 13.91
12/28/2022 5:15:00 AM 1.62 34.916 0.074 7.24 11.7 13.92
12/28/2022 5:30:00 AM 1.62 34.916 0.074 7.23 13.87 13.92
12/28/2022 5:45:00 AM 1.61 34.898 0.074 7.23 11.65 13.92
12/28/2022 6:00:00 AM 1.6 34.88 0.074 7.24 11.9 13.93
12/28/2022 6:15:00 AM 1.59 34.862 0.074 7.23 11.72 13.93
12/28/2022 6:30:00 AM 1.58 34.844 0.074 7.23 11.69 13.94
12/28/2022 6:45:00 AM 1.57 34.826 0.074 7.23 11.61 13.94
12/28/2022 7:00:00 AM 1.56 34.808 0.074 7.23 11.54 13.94
12/28/2022 7:15:00 AM 1.55 34.79 0.074 7.24 12.54 13.95
12/28/2022 7:30:00 AM 1.53 34.754 0.074 7.23 12.37 13.96
12/28/2022 7:45:00 AM 1.52 34.736 0.074 7.23 11.6 13.97
12/28/2022 8:00:00 AM 1.52 34.736 0.074 7.24 11.61 14
12/28/2022 8:15:00 AM 1.52 34.736 0.074 7.25 13 14.06
12/28/2022 8:30:00 AM 1.52 34.736 0.074 7.26 13.33 14.11
12/28/2022 8:45:00 AM 1.54 34.772 0.074 7.27 13.37 14.17
12/28/2022 9:00:00 AM 1.57 34.826 0.074 7.29 12.66 14.21
12/28/2022 9:15:00 AM 1.6 34.88 0.074 7.3 12.15 14.24
12/28/2022 9:30:00 AM 1.64 34.952 0.074 7.31 11.98 14.26
12/28/2022 9:45:00 AM 1.69 35.042 0.074 7.33 11.89 14.27
12/28/2022 10:00:00 AM 1.76 35.168 0.074 7.34 11.92 14.27
12/28/2022 10:15:00 AM 1.83 35.294 0.074 7.35 11.93 14.27
12/28/2022 10:30:00 AM 1.92 35.456 0.074 7.36 11.79 14.26
12/28/2022 10:45:00 AM 1.99 35.582 0.073 7.36 11.89 14.25
12/28/2022 11:00:00 AM 2.04 35.672 0.073 7.37 11.95 14.23
12/28/2022 11:15:00 AM 2.12 35.816 0.073 7.38 11.9 14.21
12/28/2022 11:30:00 AM 2.19 35.942 0.073 7.38 11.91 14.19
12/28/2022 11:45:00 AM 2.29 36.122 0.073 7.39 11.95 14.17
12/28/2022 12:00:00 PM 2.37 36.266 0.073 7.39 11.94 14.14
12/28/2022 12:15:00 PM 2.43 36.374 0.073 7.4 11.96 14.11
12/28/2022 12:30:00 PM 2.53 36.554 0.073 7.4 12.02 14.07
12/28/2022 12:45:00 PM 2.65 36.77 0.073 7.4 11.99 14.02
12/28/2022 1:00:00 PM 2.76 36.968 0.073 7.4 12.02 13.99
12/28/2022 1:15:00 PM 2.89 37.202 0.073 7.41 12.01 13.95
12/28/2022 1:30:00 PM 2.9 37.22 0.073 7.41 12.06 13.93
12/28/2022 1:45:00 PM 2.88 37.184 0.073 7.41 11.89 13.91
12/28/2022 2:00:00 PM 2.88 37.184 0.073 7.41 11.95 13.91
12/28/2022 2:15:00 PM 2.88 37.184 0.073 7.41 11.91 13.89
12/28/2022 2:30:00 PM 2.88 37.184 0.073 7.4 11.86 13.88
12/28/2022 2:45:00 PM 2.87 37.166 0.073 7.4 11.79 13.88
12/28/2022 3:00:00 PM 2.85 37.13 0.073 7.4 11.79 13.88
12/28/2022 3:15:00 PM 2.84 37.112 0.073 7.39 11.89 13.88
12/28/2022 3:30:00 PM 2.83 37.094 0.073 7.39 11.87 13.86
12/28/2022 3:45:00 PM 2.82 37.076 0.073 7.38 12 13.84
12/28/2022 4:00:00 PM 2.8 37.04 0.073 7.37 11.97 13.82
12/28/2022 4:15:00 PM 2.77 36.986 0.073 7.36 11.96 13.79
12/28/2022 4:30:00 PM 2.75 36.95 0.073 7.34 11.79 13.74
12/28/2022 4:45:00 PM 2.72 36.896 0.073 7.32 12.53 13.7
12/28/2022 5:00:00 PM 2.68 36.824 0.073 7.31 12.5 13.66
12/28/2022 5:15:00 PM 2.65 36.77 0.073 7.29 12.84 13.63
12/28/2022 5:30:00 PM 2.62 36.716 0.073 7.29 12.39 13.62
12/28/2022 5:45:00 PM 2.58 36.644 0.074 7.28 12.43 13.61
12/28/2022 6:00:00 PM 2.54 36.572 0.074 7.27 12.48 13.61
12/28/2022 6:15:00 PM 2.51 36.518 0.074 7.27 12.5 13.62
12/28/2022 6:30:00 PM 2.47 36.446 0.074 7.26 12.55 13.62
12/28/2022 6:45:00 PM 2.44 36.392 0.074 7.26 12.56 13.63
12/28/2022 7:00:00 PM 2.41 36.338 0.074 7.24 12.4 13.64
12/28/2022 7:15:00 PM 2.38 36.284 0.074 7.25 12.29 13.65
12/28/2022 7:30:00 PM 2.35 36.23 0.074 7.24 12.37 13.66
12/28/2022 7:45:00 PM 2.32 36.176 0.074 7.24 12.42 13.67
12/28/2022 8:00:00 PM 2.29 36.122 0.074 7.24 12.39 13.67
12/28/2022 8:15:00 PM 2.27 36.086 0.074 7.23 12.48 13.68
12/28/2022 8:30:00 PM 2.24 36.032 0.074 7.22 12.5 13.69
12/28/2022 8:45:00 PM 2.21 35.978 0.074 7.23 12.52 13.7
12/28/2022 9:00:00 PM 2.19 35.942 0.074 7.23 12.46 13.71
12/28/2022 9:15:00 PM 2.16 35.888 0.074 7.23 12.39 13.72
12/28/2022 9:30:00 PM 2.13 35.834 0.075 7.22 12.55 13.74
12/28/2022 9:45:00 PM 2.1 35.78 0.075 7.23 12.54 13.74
12/28/2022 10:00:00 PM 2.08 35.744 0.075 7.22 12.45 13.76
12/28/2022 10:15:00 PM 2.06 35.708 0.075 7.23 12.42 13.76
12/28/2022 10:30:00 PM 2.04 35.672 0.075 7.22 12.38 13.77
12/28/2022 10:45:00 PM 2.02 35.636 0.075 7.22 12.32 13.78
12/28/2022 11:00:00 PM 2 35.6 0.075 7.22 12.2 13.79
12/28/2022 11:15:00 PM 1.97 35.546 0.075 7.22 12.09 13.79
12/28/2022 11:30:00 PM 1.95 35.51 0.075 7.23 12.13 13.8
12/28/2022 11:45:00 PM 1.93 35.474 0.075 7.22 12.09 13.81
12/29/2022 12:00:00 AM 1.91 35.438 0.075 7.22 12.02 13.82
12/29/2022 12:15:00 AM 1.89 35.402 0.075 7.22 11.88 13.82
12/29/2022 12:30:00 AM 1.87 35.366 0.075 7.22 11.82 13.83
12/29/2022 12:45:00 AM 1.85 35.33 0.075 7.22 11.58 13.83
12/29/2022 1:00:00 AM 1.83 35.294 0.075 7.23 11.61 13.84
12/29/2022 1:15:00 AM 1.81 35.258 0.075 7.23 11.59 13.85
12/29/2022 1:30:00 AM 1.79 35.222 0.075 7.22 11.57 13.86
12/29/2022 1:45:00 AM 1.77 35.186 0.075 7.22 11.49 13.86
12/29/2022 2:00:00 AM 1.75 35.15 0.075 7.22 11.57 13.87
12/29/2022 2:15:00 AM 1.73 35.114 0.075 7.23 11.57 13.88
12/29/2022 2:30:00 AM 1.71 35.078 0.075 7.23 11.56 13.88
12/29/2022 2:45:00 AM 1.69 35.042 0.075 7.23 11.75 13.89
12/29/2022 3:00:00 AM 1.66 34.988 0.075 7.23 11.75 13.9
12/29/2022 3:15:00 AM 1.64 34.952 0.075 7.23 11.51 13.9
12/29/2022 3:30:00 AM 1.62 34.916 0.075 7.23 11.63 13.91
12/29/2022 3:45:00 AM 1.6 34.88 0.075 7.23 11.53 13.92
12/29/2022 4:00:00 AM 1.57 34.826 0.075 7.22 11.59 13.93
12/29/2022 4:15:00 AM 1.55 34.79 0.075 7.23 11.38 13.95
12/29/2022 4:30:00 AM 1.52 34.736 0.075 7.23 11.25 13.96
12/29/2022 4:45:00 AM 1.5 34.7 0.075 7.23 11.34 13.97
12/29/2022 5:00:00 AM 1.47 34.646 0.075 7.23 11.25 13.98
12/29/2022 5:15:00 AM 1.45 34.61 0.075 7.23 11.38 13.99
12/29/2022 5:30:00 AM 1.42 34.556 0.075 7.23 11.33 14
12/29/2022 5:45:00 AM 1.4 34.52 0.075 7.22 11.18 14.01
12/29/2022 6:00:00 AM 1.37 34.466 0.075 7.22 11.38 14.02
12/29/2022 6:15:00 AM 1.35 34.43 0.075 7.23 11.25 14.03
12/29/2022 6:30:00 AM 1.32 34.376 0.075 7.22 11.22 14.04
12/29/2022 6:45:00 AM 1.3 34.34 0.075 7.22 11.28 14.05
12/29/2022 7:00:00 AM 1.27 34.286 0.075 7.22 11.29 14.06
12/29/2022 7:15:00 AM 1.25 34.25 0.075 7.23 11.27 14.07
12/29/2022 7:30:00 AM 1.23 34.214 0.075 7.23 11.38 14.08
12/29/2022 7:45:00 AM 1.2 34.16 0.075 7.23 11.32 14.1
12/29/2022 8:00:00 AM 1.18 34.124 0.075 7.24 11.31 14.14
12/29/2022 8:15:00 AM 1.17 34.106 0.075 7.24 11.33 14.19
12/29/2022 8:30:00 AM 1.16 34.088 0.075 7.26 11.28 14.23
12/29/2022 8:45:00 AM 1.15 34.07 0.075 7.27 11.29 14.28
12/29/2022 9:00:00 AM 1.16 34.088 0.075 7.27 11.31 14.32
12/29/2022 9:15:00 AM 1.17 34.106 0.075 7.29 11.3 14.36
12/29/2022 9:30:00 AM 1.19 34.142 0.075 7.3 11.28 14.4
12/29/2022 9:45:00 AM 1.23 34.214 0.075 7.31 11.25 14.43
12/29/2022 10:00:00 AM 1.28 34.304 0.075 7.33 11.24 14.44
12/29/2022 10:15:00 AM 1.37 34.466 0.075 7.34 11.23 14.44
12/29/2022 10:30:00 AM 1.47 34.646 0.075 7.35 11.27 14.43
12/29/2022 10:45:00 AM 1.59 34.862 0.075 7.36 11.13 14.42
12/29/2022 11:00:00 AM 1.71 35.078 0.075 7.37 11.42 14.38
12/29/2022 11:15:00 AM 1.85 35.33 0.075 7.38 11.34 14.35
12/29/2022 11:30:00 AM 1.99 35.582 0.075 7.38 11.47 14.31
12/29/2022 11:45:00 AM 2.14 35.852 0.075 7.39 11.48 14.27
12/29/2022 12:00:00 PM 2.3 36.14 0.075 7.4 11.44 14.22
12/29/2022 12:15:00 PM 2.42 36.356 0.074 7.41 11.42 14.19
12/29/2022 12:30:00 PM 2.54 36.572 0.074 7.41 11.42 14.15
12/29/2022 12:45:00 PM 2.64 36.752 0.074 7.42 11.39 14.12
12/29/2022 1:00:00 PM 2.73 36.914 0.074 7.43 11.33 14.09
12/29/2022 1:15:00 PM 2.82 37.076 0.074 7.44 11.36 14.05
12/29/2022 1:30:00 PM 2.9 37.22 0.074 7.44 11.38 14.01
12/29/2022 1:45:00 PM 3.01 37.418 0.074 7.44 11.39 13.99
12/29/2022 2:00:00 PM 3.08 37.544 0.074 7.45 11.24 13.95
12/29/2022 2:15:00 PM 3.14 37.652 0.074 7.45 11.31 13.93
12/29/2022 2:30:00 PM 3.13 37.634 0.074 7.45 12.25 13.86
12/29/2022 2:45:00 PM 3.11 37.598 0.074 7.43 14.09 13.81
12/29/2022 3:00:00 PM 3.07 37.526 0.074 7.42 16.19 13.77
12/29/2022 3:15:00 PM 3.04 37.472 0.074 7.41 16.2 13.74
12/29/2022 3:30:00 PM 3 37.4 0.074 7.4 15.26 13.73
12/29/2022 3:45:00 PM 2.97 37.346 0.074 7.39 13.76 13.72
12/29/2022 4:00:00 PM 2.94 37.292 0.074 7.38 12.72 13.71
12/29/2022 4:15:00 PM 2.92 37.256 0.074 7.37 12.11 13.69
12/29/2022 4:30:00 PM 2.9 37.22 0.074 7.36 11.78 13.67
12/29/2022 4:45:00 PM 2.9 37.22 0.075 7.34 13.67 13.63
12/29/2022 5:00:00 PM 2.9 37.22 0.075 7.32 12.96 13.59
12/29/2022 5:15:00 PM 2.9 37.22 0.075 7.31 12.82 13.55
12/29/2022 5:30:00 PM 2.9 37.22 0.075 7.3 12.15 13.52
12/29/2022 5:45:00 PM 2.9 37.22 0.075 7.29 12.08 13.5
12/29/2022 6:00:00 PM 2.89 37.202 0.075 7.28 11.98 13.49
12/29/2022 6:15:00 PM 2.86 37.148 0.075 7.27 11.86 13.5
12/29/2022 6:30:00 PM 2.83 37.094 0.075 7.27 11.59 13.5
12/29/2022 6:45:00 PM 2.82 37.076 0.075 7.27 11.58 13.5
12/29/2022 7:00:00 PM 2.83 37.094 0.075 7.27 11.3 13.5
12/29/2022 7:15:00 PM 2.83 37.094 0.075 7.26 11.31 13.5
12/29/2022 7:30:00 PM 2.84 37.112 0.075 7.26 11.15 13.5
12/29/2022 7:45:00 PM 2.84 37.112 0.075 7.26 11.05 13.5
12/29/2022 8:00:00 PM 2.85 37.13 0.075 7.26 11.04 13.5
12/29/2022 8:15:00 PM 2.85 37.13 0.075 7.26 11.07 13.49
12/29/2022 8:30:00 PM 2.86 37.148 0.075 7.25 11.41 13.49
12/29/2022 8:45:00 PM 2.85 37.13 0.075 7.26 11.28 13.49
12/29/2022 9:00:00 PM 2.86 37.148 0.076 7.26 11.28 13.49
12/29/2022 9:15:00 PM 2.86 37.148 0.076 7.25 11.29 13.49
12/29/2022 9:30:00 PM 2.87 37.166 0.076 7.25 11.41 13.49
12/29/2022 9:45:00 PM 2.87 37.166 0.076 7.25 11.35 13.49
12/29/2022 10:00:00 PM 2.87 37.166 0.076 7.25 11.3 13.49
12/29/2022 10:15:00 PM 2.88 37.184 0.076 7.25 11.23 13.48
12/29/2022 10:30:00 PM 2.88 37.184 0.076 7.25 11.19 13.48
12/29/2022 10:45:00 PM 2.88 37.184 0.076 7.25 11.22 13.48
12/29/2022 11:00:00 PM 2.89 37.202 0.076 7.25 11.13 13.49
12/29/2022 11:15:00 PM 2.89 37.202 0.076 7.25 11.02 13.48
12/29/2022 11:30:00 PM 2.89 37.202 0.076 7.25 10.99 13.48
12/29/2022 11:45:00 PM 2.9 37.22 0.076 7.25 10.98 13.48
12/30/2022 12:00:00 AM 2.9 37.22 0.076 7.25 10.99 13.48
12/30/2022 12:15:00 AM 2.9 37.22 0.076 7.25 11 13.48
12/30/2022 12:30:00 AM 2.9 37.22 0.076 7.25 10.89 13.48
12/30/2022 12:45:00 AM 2.91 37.238 0.076 7.25 10.89 13.48
12/30/2022 1:00:00 AM 2.91 37.238 0.076 7.25 11 13.48
12/30/2022 1:15:00 AM 2.91 37.238 0.076 7.25 11.02 13.48
12/30/2022 1:30:00 AM 2.9 37.22 0.076 7.25 11 13.48
12/30/2022 1:45:00 AM 2.89 37.202 0.076 7.25 11.03 13.48
12/30/2022 2:00:00 AM 2.86 37.148 0.076 7.25 11.17 13.49
12/30/2022 2:15:00 AM 2.85 37.13 0.076 7.25 11.23 13.5
12/30/2022 2:30:00 AM 2.82 37.076 0.076 7.24 11.21 13.5
12/30/2022 2:45:00 AM 2.8 37.04 0.076 7.24 11.13 13.51
12/30/2022 3:00:00 AM 2.79 37.022 0.076 7.24 11.09 13.52
12/30/2022 3:15:00 AM 2.77 36.986 0.076 7.25 11.1 13.53
12/30/2022 3:30:00 AM 2.75 36.95 0.076 7.25 11.09 13.53
12/30/2022 3:45:00 AM 2.73 36.914 0.076 7.24 11.07 13.54
12/30/2022 4:00:00 AM 2.71 36.878 0.076 7.24 11.03 13.55
12/30/2022 4:15:00 AM 2.68 36.824 0.077 7.25 11.34 13.56
12/30/2022 4:30:00 AM 2.67 36.806 0.077 7.24 11.09 13.56
12/30/2022 4:45:00 AM 2.67 36.806 0.077 7.24 10.97 13.57
12/30/2022 5:00:00 AM 2.67 36.806 0.077 7.25 10.77 13.57
12/30/2022 5:15:00 AM 2.67 36.806 0.077 7.24 10.97 13.57
12/30/2022 5:30:00 AM 2.66 36.788 0.078 7.25 10.93 13.58
12/30/2022 5:45:00 AM 2.64 36.752 0.078 7.25 10.95 13.58
12/30/2022 6:00:00 AM 2.64 36.752 0.078 7.24 11.05 13.59
12/30/2022 6:15:00 AM 2.63 36.734 0.078 7.25 10.87 13.59
12/30/2022 6:30:00 AM 2.63 36.734 0.079 7.26 10.81 13.6
12/30/2022 6:45:00 AM 2.62 36.716 0.079 7.26 11.29 13.6
12/30/2022 7:00:00 AM 2.62 36.716 0.08 7.26 11.26 13.61
12/30/2022 7:15:00 AM 2.61 36.698 0.08 7.27 11.42 13.61
12/30/2022 7:30:00 AM 2.6 36.68 0.081 7.27 14.5 13.62
12/30/2022 7:45:00 AM 2.6 36.68 0.081 7.26 19.38 13.62
12/30/2022 8:00:00 AM 2.59 36.662 0.082 7.28 17.23 13.66
12/30/2022 8:15:00 AM 2.57 36.626 0.082 7.29 18.51 13.71
12/30/2022 8:30:00 AM 2.55 36.59 0.083 7.31 18.65 13.77
12/30/2022 8:45:00 AM 2.54 36.572 0.083 7.34 13.59 13.82
12/30/2022 9:00:00 AM 2.54 36.572 0.084 7.34 11.23 13.88
12/30/2022 9:15:00 AM 2.55 36.59 0.084 7.36 12.2 13.93
12/30/2022 9:30:00 AM 2.57 36.626 0.085 7.38 13.25 13.97
12/30/2022 9:45:00 AM 2.59 36.662 0.085 7.4 12.27 13.98
12/30/2022 10:00:00 AM 2.61 36.698 0.086 7.4 39.34 14
12/30/2022 10:15:00 AM 2.65 36.77 0.086 7.41 11.96 14.03
12/30/2022 10:30:00 AM 2.67 36.806 0.086 7.43 12.15 14.03
12/30/2022 10:45:00 AM 2.76 36.968 0.086 7.44 12.15 14.04
12/30/2022 11:00:00 AM 2.86 37.148 0.086 7.46 12.24 14.02
12/30/2022 11:15:00 AM 2.98 37.364 0.086 7.47 12.38 14.01
12/30/2022 11:30:00 AM 3.06 37.508 0.086 7.48 12.45 13.98
12/30/2022 11:45:00 AM 3.09 37.562 0.086 7.48 12.5 13.97
12/30/2022 12:00:00 PM 3.11 37.598 0.086 7.48 12.75 13.95
12/30/2022 12:15:00 PM 3.11 37.598 0.086 7.49 12.86 13.93
12/30/2022 12:30:00 PM 3.16 37.688 0.086 7.5 13 13.94
12/30/2022 12:45:00 PM 3.19 37.742 0.086 7.5 13.04 13.9
12/30/2022 1:00:00 PM 3.2 37.76 0.086 7.49 13.66 13.89
12/30/2022 1:15:00 PM 3.22 37.796 0.086 7.5 13.26 13.88
12/30/2022 1:30:00 PM 3.25 37.85 0.086 7.5 13.5 13.88
12/30/2022 1:45:00 PM 3.28 37.904 0.086 7.5 13.97 13.87
12/30/2022 2:00:00 PM 3.27 37.886 0.085 7.5 15.08 13.85
12/30/2022 2:15:00 PM 3.21 37.778 0.085 7.5 15.15 13.85
12/30/2022 2:30:00 PM 3.12 37.616 0.085 7.49 15.16 13.84
12/30/2022 2:45:00 PM 3.02 37.436 0.086 7.48 15.7 13.85
12/30/2022 3:00:00 PM 2.8 37.04 0.086 7.47 16.72 13.84
12/30/2022 3:15:00 PM 2.44 36.392 0.086 7.44 20.55 13.88
12/30/2022 3:30:00 PM 2.08 35.744 0.088 7.39 25.29 13.94
12/30/2022 3:45:00 PM 1.78 35.204 0.089 7.38 28.54 14.02
12/30/2022 4:00:00 PM 1.61 34.898 0.09 7.34 29.42 14.08
12/30/2022 4:15:00 PM 1.52 34.736 0.09 7.31 29.6 14.11
12/30/2022 4:30:00 PM 1.47 34.646 0.088 7.3 35.94 14.12
12/30/2022 4:45:00 PM 1.42 34.556 0.087 7.28 38.34 14.12
12/30/2022 5:00:00 PM 1.4 34.52 0.085 7.28 45.53 14.12
12/30/2022 5:15:00 PM 1.37 34.466 0.085 7.28 44.1 14.12
12/30/2022 5:30:00 PM 1.36 34.448 0.084 7.25 42.14 14.13
12/30/2022 5:45:00 PM 1.36 34.448 0.083 7.26 40.97 14.13
12/30/2022 6:00:00 PM 1.37 34.466 0.083 7.26 41.03 14.12
12/30/2022 6:15:00 PM 1.37 34.466 0.082 7.25 40.44 14.12
12/30/2022 6:30:00 PM 1.37 34.466 0.082 7.24 40.24 14.13
12/30/2022 6:45:00 PM 1.38 34.484 0.082 7.24 38.58 14.12
12/30/2022 7:00:00 PM 1.39 34.502 0.081 7.26 36.57 14.11
12/30/2022 7:15:00 PM 1.4 34.52 0.081 7.25 35.44 14.1
12/30/2022 7:30:00 PM 1.42 34.556 0.08 7.24 33.62 14.1
12/30/2022 7:45:00 PM 1.43 34.574 0.08 7.24 30.97 14.09
12/30/2022 8:00:00 PM 1.45 34.61 0.08 7.24 30.48 14.07
12/30/2022 8:15:00 PM 1.47 34.646 0.079 7.22 29.69 14.07
12/30/2022 8:30:00 PM 1.49 34.682 0.079 7.22 34.13 14.06
12/30/2022 8:45:00 PM 1.5 34.7 0.079 7.22 28.93 14.05
12/30/2022 9:00:00 PM 1.52 34.736 0.078 7.22 27.66 14.04
12/30/2022 9:15:00 PM 1.54 34.772 0.078 7.22 26.44 14.03
12/30/2022 9:30:00 PM 1.57 34.826 0.078 7.21 25.28 14.01
12/30/2022 9:45:00 PM 1.61 34.898 0.077 7.23 24.8 14
12/30/2022 10:00:00 PM 1.64 34.952 0.077 7.23 24.01 13.98
12/30/2022 10:15:00 PM 1.68 35.024 0.077 7.23 23.31 13.97
12/30/2022 10:30:00 PM 1.71 35.078 0.077 7.23 22.8 13.96
12/30/2022 10:45:00 PM 1.73 35.114 0.077 7.24 22.13 13.95
12/30/2022 11:00:00 PM 1.75 35.15 0.077 7.23 21.53 13.93
12/30/2022 11:15:00 PM 1.76 35.168 0.077 7.23 21.34 13.92
12/30/2022 11:30:00 PM 1.78 35.204 0.076 7.23 21.94 13.92
12/30/2022 11:45:00 PM 1.79 35.222 0.076 7.23 121.56 13.9
12/31/2022 12:00:00 AM 1.8 35.24 0.076 7.23 19.85 13.9
12/31/2022 12:15:00 AM 1.81 35.258 0.076 7.24 19.88 13.89
12/31/2022 12:30:00 AM 1.82 35.276 0.076 7.23 19.81 13.89
12/31/2022 12:45:00 AM 1.83 35.294 0.076 7.23 19.67 13.88
12/31/2022 1:00:00 AM 1.84 35.312 0.076 7.23 19.66 13.88
12/31/2022 1:15:00 AM 1.86 35.348 0.076 7.23 18.89 13.87
12/31/2022 1:30:00 AM 1.87 35.366 0.076 7.23 20.28 13.86
12/31/2022 1:45:00 AM 1.89 35.402 0.076 7.24 18.05 13.86
12/31/2022 2:00:00 AM 1.9 35.42 0.076 7.23 18.85 13.85
12/31/2022 2:15:00 AM 1.92 35.456 0.076 7.23 18.15 13.84
12/31/2022 2:30:00 AM 1.93 35.474 0.076 7.23 18.41 13.83
12/31/2022 2:45:00 AM 1.94 35.492 0.076 7.24 18.14 13.82
12/31/2022 3:00:00 AM 1.96 35.528 0.076 7.24 18.76 13.81
12/31/2022 3:15:00 AM 1.97 35.546 0.076 7.23 18.72 13.81
12/31/2022 3:30:00 AM 1.98 35.564 0.076 7.23 17.41 13.81
12/31/2022 3:45:00 AM 1.98 35.564 0.076 7.23 17.03 13.8
12/31/2022 4:00:00 AM 1.98 35.564 0.076 7.23 17.98 13.8
12/31/2022 4:15:00 AM 1.99 35.582 0.076 7.23 15.63 13.79
12/31/2022 4:30:00 AM 1.99 35.582 0.076 7.23 29.76 13.79
12/31/2022 4:45:00 AM 2 35.6 0.076 7.23 16.7 13.79
12/31/2022 5:00:00 AM 2 35.6 0.076 7.23 17.43 13.78
12/31/2022 5:15:00 AM 2.01 35.618 0.076 7.22 16.5 13.78
12/31/2022 5:30:00 AM 2.01 35.618 0.075 7.22 16.68 13.77
12/31/2022 5:45:00 AM 2.02 35.636 0.075 7.22 16.92 13.77
12/31/2022 6:00:00 AM 2.02 35.636 0.075 7.23 16.69 13.77
12/31/2022 6:15:00 AM 2.02 35.636 0.075 7.23 16.65 13.76
12/31/2022 6:30:00 AM 2.03 35.654 0.075 7.22 16.44 13.76
12/31/2022 6:45:00 AM 2.04 35.672 0.075 7.23 16.43 13.75
12/31/2022 7:00:00 AM 2.06 35.708 0.075 7.23 16.37 13.75
12/31/2022 7:15:00 AM 2.07 35.726 0.075 7.23 16.02 13.75
12/31/2022 7:30:00 AM 2.09 35.762 0.075 7.23 17.74 13.74
12/31/2022 7:45:00 AM 2.11 35.798 0.075 7.22 16.45 13.73
12/31/2022 8:00:00 AM 2.14 35.852 0.075 7.23 15.89 13.73
12/31/2022 8:15:00 AM 2.17 35.906 0.075 7.23 16.32 13.73
12/31/2022 8:30:00 AM 2.19 35.942 0.075 7.23 16.22 13.75
12/31/2022 8:45:00 AM 2.22 35.996 0.075 7.24 16.12 13.76
12/31/2022 9:00:00 AM 2.25 36.05 0.075 7.25 15.7 13.79
12/31/2022 9:15:00 AM 2.29 36.122 0.075 7.26 15.57 13.81
12/31/2022 9:30:00 AM 2.33 36.194 0.075 7.27 15.66 13.83
12/31/2022 9:45:00 AM 2.38 36.284 0.075 7.28 15.64 13.84
12/31/2022 10:00:00 AM 2.44 36.392 0.075 7.3 15.54 13.86
12/31/2022 10:15:00 AM 2.49 36.482 0.075 7.31 15.56 13.86
12/31/2022 10:30:00 AM 2.55 36.59 0.074 7.31 15.4 13.86
12/31/2022 10:45:00 AM 2.61 36.698 0.074 7.32 15.4 13.86
12/31/2022 11:00:00 AM 2.69 36.842 0.074 7.33 15.34 13.86
12/31/2022 11:15:00 AM 2.77 36.986 0.074 7.34 15.36 13.85
12/31/2022 11:30:00 AM 2.86 37.148 0.074 7.35 15.45 13.83
12/31/2022 11:45:00 AM 2.95 37.31 0.074 7.36 15.21 13.81
12/31/2022 12:00:00 PM 3.04 37.472 0.074 7.35 15.28 13.78
12/31/2022 12:15:00 PM 3.12 37.616 0.074 7.36 15.96 13.75
12/31/2022 12:30:00 PM 3.21 37.778 0.074 7.38 15.81 13.73
12/31/2022 12:45:00 PM 3.29 37.922 0.074 7.37 15.89 13.69
12/31/2022 1:00:00 PM 3.35 38.03 0.074 7.37 15.95 13.65
12/31/2022 1:15:00 PM 3.39 38.102 0.074 7.37 15.28 13.6
12/31/2022 1:30:00 PM 3.43 38.174 0.074 7.36 15.88 13.54
12/31/2022 1:45:00 PM 3.46 38.228 0.074 7.36 16.21 13.5
12/31/2022 2:00:00 PM 3.49 38.282 0.074 7.36 15.85 13.46
12/31/2022 2:15:00 PM 3.51 38.318 0.073 7.34 15.15 13.45
12/31/2022 2:30:00 PM 3.53 38.354 0.073 7.34 15.33 13.4
12/31/2022 2:45:00 PM 3.54 38.372 0.074 7.33 15.2 13.37
12/31/2022 3:00:00 PM 3.55 38.39 0.074 7.3 15.28 13.32
12/31/2022 3:15:00 PM 3.56 38.408 0.074 7.28 15.39 13.29
12/31/2022 3:30:00 PM 3.56 38.408 0.074 7.28 15.75 13.27
12/31/2022 3:45:00 PM 3.56 38.408 0.074 7.28 15.68 13.24
12/31/2022 4:00:00 PM 3.55 38.39 0.074 7.28 16.08 13.22
12/31/2022 4:15:00 PM 3.54 38.372 0.075 7.27 16.43 13.21
12/31/2022 4:30:00 PM 3.52 38.336 0.075 7.27 16.82 13.2
12/31/2022 4:45:00 PM 3.48 38.264 0.075 7.26 17.23 13.2
12/31/2022 5:00:00 PM 3.44 38.192 0.076 7.25 17.84 13.21
12/31/2022 5:15:00 PM 3.39 38.102 0.076 7.23 18.35 13.23
12/31/2022 5:30:00 PM 3.33 37.994 0.076 7.24 19.19 13.25
12/31/2022 5:45:00 PM 3.27 37.886 0.076 7.24 20.11 13.27
12/31/2022 6:00:00 PM 3.2 37.76 0.076 7.21 20.68 13.28
12/31/2022 6:15:00 PM 3.15 37.67 0.076 7.22 21.29 13.3
12/31/2022 6:30:00 PM 3.1 37.58 0.076 7.19 21.92 13.31
12/31/2022 6:45:00 PM 3.06 37.508 0.076 7.25 22 13.33
12/31/2022 7:00:00 PM 3.03 37.454 0.076 7.2 22.77 13.33
12/31/2022 7:15:00 PM 3.01 37.418 0.076 7.2 23.13 13.34
12/31/2022 7:30:00 PM 2.99 37.382 0.076 7.2 23.32 13.34
12/31/2022 7:45:00 PM 2.98 37.364 0.075 7.18 23.58 13.35
12/31/2022 8:00:00 PM 2.98 37.364 0.075 7.18 23.11 13.35
12/31/2022 8:15:00 PM 2.97 37.346 0.075 7.17 23.86 13.35
12/31/2022 8:30:00 PM 2.97 37.346 0.075 7.18 23.99 13.35
12/31/2022 8:45:00 PM 2.97 37.346 0.074 7.23 23.3 13.35
12/31/2022 9:00:00 PM 2.96 37.328 0.074 7.22 23.95 13.35
12/31/2022 9:15:00 PM 2.96 37.328 0.074 7.23 23.33 13.35
12/31/2022 9:30:00 PM 2.95 37.31 0.074 7.22 23.14 13.35
12/31/2022 9:45:00 PM 2.95 37.31 0.073 7.21 23.57 13.35
12/31/2022 10:00:00 PM 2.95 37.31 0.073 7.15 27.02 13.35
12/31/2022 10:15:00 PM 2.95 37.31 0.073 7.18 22.89 13.35
12/31/2022 10:30:00 PM 2.95 37.31 0.073 7.18 23.5 13.35
12/31/2022 10:45:00 PM 2.96 37.328 0.073 7.19 23.24 13.35
12/31/2022 11:00:00 PM 2.96 37.328 0.073 7.19 23.29 13.35
12/31/2022 11:15:00 PM 2.97 37.346 0.073 7.18 23.2 13.36
12/31/2022 11:30:00 PM 2.96 37.328 0.073 7.18 22.56 13.35
12/31/2022 11:45:00 PM 2.95 37.31 0.073 7.17 22.18 13.35
1/1/2023 12:00:00 AM 2.95 37.31 0.072 7.18 22.42 13.36
1/1/2023 12:15:00 AM 2.95 37.31 0.072 7.17 21.93 13.36
1/1/2023 12:30:00 AM 2.96 37.328 0.072 7.18 21.08 13.36
1/1/2023 12:45:00 AM 2.96 37.328 0.072 7.18 21.3 13.36
1/1/2023 1:00:00 AM 2.95 37.31 0.072 7.19 21.46 13.36
1/1/2023 1:15:00 AM 2.95 37.31 0.072 7.18 21.16 13.36
1/1/2023 1:30:00 AM 2.94 37.292 0.072 7.17 21.14 13.36
1/1/2023 1:45:00 AM 2.93 37.274 0.072 7.18 21.61 13.37
1/1/2023 2:00:00 AM 2.93 37.274 0.072 7.18 21.63 13.37
1/1/2023 2:15:00 AM 2.93 37.274 0.072 7.17 21.95 13.37
1/1/2023 2:30:00 AM 2.95 37.31 0.072 7.18 21.85 13.37
1/1/2023 2:45:00 AM 2.96 37.328 0.072 7.17 22.16 13.36
1/1/2023 3:00:00 AM 2.97 37.346 0.071 7.18 23.11 13.36
1/1/2023 3:15:00 AM 2.97 37.346 0.071 7.19 20.98 13.36
1/1/2023 3:30:00 AM 2.97 37.346 0.071 7.19 21.09 13.36
1/1/2023 3:45:00 AM 2.96 37.328 0.071 7.19 22.99 13.36
1/1/2023 4:00:00 AM 2.97 37.346 0.071 7.17 21.42 13.37
1/1/2023 4:15:00 AM 2.97 37.346 0.071 7.17 21.45 13.37
1/1/2023 4:30:00 AM 2.99 37.382 0.071 7.18 20.4 13.37
1/1/2023 4:45:00 AM 2.99 37.382 0.071 7.17 20.02 13.36
1/1/2023 5:00:00 AM 2.99 37.382 0.071 7.17 19.44 13.37
1/1/2023 5:15:00 AM 2.97 37.346 0.071 7.17 19.54 13.37
1/1/2023 5:30:00 AM 2.93 37.274 0.071 7.17 19.78 13.38
1/1/2023 5:45:00 AM 2.9 37.22 0.07 7.17 20.16 13.39
1/1/2023 6:00:00 AM 2.89 37.202 0.07 7.17 21.46 13.4
1/1/2023 6:15:00 AM 2.88 37.184 0.07 7.18 20.3 13.41
1/1/2023 6:30:00 AM 2.89 37.202 0.07 7.18 18.67 13.42
1/1/2023 6:45:00 AM 2.89 37.202 0.07 7.17 19.18 13.41
1/1/2023 7:00:00 AM 2.9 37.22 0.07 7.18 18.47 13.42
1/1/2023 7:15:00 AM 2.91 37.238 0.07 7.17 20.27 13.41
1/1/2023 7:30:00 AM 2.91 37.238 0.07 7.18 20.23 13.42
1/1/2023 7:45:00 AM 2.92 37.256 0.07 7.18 23.73 13.41
1/1/2023 8:00:00 AM 2.92 37.256 0.07 7.18 26.71 13.43
1/1/2023 8:15:00 AM 2.92 37.256 0.07 7.19 25.42 13.45
1/1/2023 8:30:00 AM 2.95 37.31 0.07 7.2 26.88 13.48
1/1/2023 8:45:00 AM 2.98 37.364 0.069 7.21 20.69 13.51
1/1/2023 9:00:00 AM 3.02 37.436 0.069 7.22 23.92 13.53
1/1/2023 9:15:00 AM 3.06 37.508 0.069 7.23 21.05 13.56
1/1/2023 9:30:00 AM 3.11 37.598 0.069 7.24 18.8 13.57
1/1/2023 9:45:00 AM 3.15 37.67 0.069 7.25 22.92 13.58
1/1/2023 10:00:00 AM 3.2 37.76 0.069 7.26 22.96 13.6
1/1/2023 10:15:00 AM 3.28 37.904 0.069 7.27 28.38 13.6
1/1/2023 10:30:00 AM 3.37 38.066 0.069 7.28 30.08 13.59
1/1/2023 10:45:00 AM 3.44 38.192 0.069 7.29 27.89 13.57
1/1/2023 11:00:00 AM 3.53 38.354 0.069 7.3 34.36 13.55
1/1/2023 11:15:00 AM 3.62 38.516 0.068 7.3 34.6 13.54
1/1/2023 11:30:00 AM 3.69 38.642 0.068 7.31 34.65 13.52
1/1/2023 11:45:00 AM 3.71 38.678 0.068 7.32 31.08 13.5
1/1/2023 12:00:00 PM 3.78 38.804 0.068 7.32 33.11 13.49
1/1/2023 12:15:00 PM 3.9 39.02 0.068 7.33 17.64 13.47
1/1/2023 12:30:00 PM 4.03 39.254 0.068 7.34 26.04 13.42
1/1/2023 12:45:00 PM 4.11 39.398 0.068 7.34 33.23 13.39
1/1/2023 1:00:00 PM 4.27 39.686 0.068 7.35 31.98 13.38
1/1/2023 1:15:00 PM 4.33 39.794 0.068 7.36 32.88 13.34
1/1/2023 1:30:00 PM 4.33 39.794 0.068 7.36 32.53 13.32
1/1/2023 1:45:00 PM 4.35 39.83 0.068 7.35 34.19 13.29
1/1/2023 2:00:00 PM 4.34 39.812 0.068 7.35 31.41 13.27
1/1/2023 2:15:00 PM 4.32 39.776 0.068 7.35 29.95 13.26
1/1/2023 2:30:00 PM 4.31 39.758 0.068 7.34 30.46 13.22
1/1/2023 2:45:00 PM 4.3 39.74 0.068 7.32 37.01 13.17
1/1/2023 3:00:00 PM 4.29 39.722 0.068 7.31 32.98 13.16
1/1/2023 3:15:00 PM 4.28 39.704 0.068 7.31 30.52 13.16
1/1/2023 3:30:00 PM 4.26 39.668 0.069 7.3 31.36 13.14
1/1/2023 3:45:00 PM 4.26 39.668 0.069 7.29 33.26 13.13
1/1/2023 4:00:00 PM 4.26 39.668 0.069 7.29 45.04 13.14
1/1/2023 4:15:00 PM 4.25 39.65 0.069 7.28 32.18 13.12
1/1/2023 4:30:00 PM 4.23 39.614 0.069 7.28 30.3 13.09
1/1/2023 4:45:00 PM 4.2 39.56 0.069 7.26 29.69 13.06
1/1/2023 5:00:00 PM 4.18 39.524 0.069 7.25 31.25 13.04
1/1/2023 5:15:00 PM 4.16 39.488 0.069 7.24 23.35 13.02
1/1/2023 5:30:00 PM 4.15 39.47 0.069 7.23 29.15 13
1/1/2023 5:45:00 PM 4.13 39.434 0.069 7.22 29.4 13
1/1/2023 6:00:00 PM 4.11 39.398 0.069 7.22 23.8 13
1/1/2023 6:15:00 PM 4.1 39.38 0.069 7.21 34.98 13
1/1/2023 6:30:00 PM 4.08 39.344 0.069 7.21 47.52 13.01
1/1/2023 6:45:00 PM 4.07 39.326 0.069 7.2 31.73 13.01
1/1/2023 7:00:00 PM 4.06 39.308 0.069 7.2 53.9 13.02
1/1/2023 7:15:00 PM 4.05 39.29 0.069 7.2 40.54 13.02
1/1/2023 7:30:00 PM 4.04 39.272 0.069 7.2 18.47 13.03
1/1/2023 7:45:00 PM 4.03 39.254 0.069 7.19 32.77 13.03
1/1/2023 8:00:00 PM 4.02 39.236 0.069 7.19 39.29 13.04
1/1/2023 8:15:00 PM 4.01 39.218 0.069 7.19 33.81 13.04
1/1/2023 8:30:00 PM 4 39.2 0.069 7.18 27.9 13.04
1/1/2023 8:45:00 PM 3.98 39.164 0.069 7.18 25.78 13.05
1/1/2023 9:00:00 PM 3.97 39.146 0.069 7.18 34.55 13.05
1/1/2023 9:15:00 PM 3.96 39.128 0.069 7.18 28.34 13.05
1/1/2023 9:30:00 PM 3.95 39.11 0.069 7.18 16.33 13.06
1/1/2023 9:45:00 PM 3.94 39.092 0.069 7.18 16.05 13.06
1/1/2023 10:00:00 PM 3.92 39.056 0.069 7.17 16.52 13.07
1/1/2023 10:15:00 PM 3.9 39.02 0.069 7.17 42.56 13.07
1/1/2023 10:30:00 PM 3.89 39.002 0.069 7.18 37.58 13.07
1/1/2023 10:45:00 PM 3.88 38.984 0.069 7.17 32.8 13.08
1/1/2023 11:00:00 PM 3.86 38.948 0.069 7.17 16.87 13.09
1/1/2023 11:15:00 PM 3.84 38.912 0.069 7.17 35.9 13.09
1/1/2023 11:30:00 PM 3.83 38.894 0.069 7.17 17.5 13.09
1/1/2023 11:45:00 PM 3.82 38.876 0.069 7.17 18.27 13.1
1/2/2023 12:00:00 AM 3.81 38.858 0.069 7.17 22.85 13.1
1/2/2023 12:15:00 AM 3.8 38.84 0.069 7.17 31.86 13.11
1/2/2023 12:30:00 AM 3.8 38.84 0.069 7.17 28.48 13.11
1/2/2023 12:45:00 AM 3.8 38.84 0.069 7.17 30.7 13.11
1/2/2023 1:00:00 AM 3.79 38.822 0.069 7.17 35.65 13.12
1/2/2023 1:15:00 AM 3.78 38.804 0.069 7.17 29.69 13.12
1/2/2023 1:30:00 AM 3.77 38.786 0.068 7.17 27.21 13.12
1/2/2023 1:45:00 AM 3.77 38.786 0.068 7.16 31.35 13.12
1/2/2023 2:00:00 AM 3.77 38.786 0.068 7.17 38.36 13.12
1/2/2023 2:15:00 AM 3.78 38.804 0.068 7.16 33.69 13.12
1/2/2023 2:30:00 AM 3.78 38.804 0.068 7.17 16.77 13.12
1/2/2023 2:45:00 AM 3.79 38.822 0.068 7.16 36.61 13.12
1/2/2023 3:00:00 AM 3.79 38.822 0.068 7.17 30.37 13.12
1/2/2023 3:15:00 AM 3.8 38.84 0.068 7.16 34.06 13.13
1/2/2023 3:30:00 AM 3.8 38.84 0.068 7.16 38.1 13.12
1/2/2023 3:45:00 AM 3.8 38.84 0.068 7.17 34.16 13.12
1/2/2023 4:00:00 AM 3.81 38.858 0.068 7.16 33.38 13.12
1/2/2023 4:15:00 AM 3.81 38.858 0.068 7.16 17.62 13.12
1/2/2023 4:30:00 AM 3.82 38.876 0.068 7.16 40.05 13.12
1/2/2023 4:45:00 AM 3.81 38.858 0.068 7.16 18.64 13.12
1/2/2023 5:00:00 AM 3.81 38.858 0.068 7.16 32.45 13.12
1/2/2023 5:15:00 AM 3.81 38.858 0.068 7.16 46.88 13.12
1/2/2023 5:30:00 AM 3.81 38.858 0.068 7.16 40.75 13.12
1/2/2023 5:45:00 AM 3.81 38.858 0.068 7.16 26.59 13.12
1/2/2023 6:00:00 AM 3.81 38.858 0.068 7.16 16.34 13.12
1/2/2023 6:15:00 AM 3.81 38.858 0.068 7.16 36.59 13.13
1/2/2023 6:30:00 AM 3.81 38.858 0.068 7.16 16.84 13.12
1/2/2023 6:45:00 AM 3.82 38.876 0.068 7.16 37.84 13.12
1/2/2023 7:00:00 AM 3.82 38.876 0.067 7.16 38.72 13.12
1/2/2023 7:15:00 AM 3.81 38.858 0.067 7.16 48.37 13.13
1/2/2023 7:30:00 AM 3.8 38.84 0.067 7.16 36.3 13.13
1/2/2023 7:45:00 AM 3.79 38.822 0.067 7.16 31.7 13.14
1/2/2023 8:00:00 AM 3.78 38.804 0.067 7.16 33.07 13.16
1/2/2023 8:15:00 AM 3.77 38.786 0.067 7.17 32.3 13.19
1/2/2023 8:30:00 AM 3.77 38.786 0.067 7.18 33.85 13.23
1/2/2023 8:45:00 AM 3.78 38.804 0.067 7.19 22.35 13.27
1/2/2023 9:00:00 AM 3.8 38.84 0.067 7.2 24.15 13.32
1/2/2023 9:15:00 AM 3.83 38.894 0.067 7.21 23.54 13.35
1/2/2023 9:30:00 AM 3.86 38.948 0.067 7.23 24.1 13.38
1/2/2023 9:45:00 AM 3.9 39.02 0.067 7.24 26.06 13.4
1/2/2023 10:00:00 AM 3.99 39.182 0.067 7.26 27.34 13.43
1/2/2023 10:15:00 AM 4.07 39.326 0.067 7.28 31.68 13.42
1/2/2023 10:30:00 AM 4.13 39.434 0.067 7.28 34.89 13.4
1/2/2023 10:45:00 AM 4.19 39.542 0.066 7.29 27.88 13.39
1/2/2023 11:00:00 AM 4.29 39.722 0.066 7.3 22.71 13.38
1/2/2023 11:15:00 AM 4.37 39.866 0.066 7.31 30.62 13.36
1/2/2023 11:30:00 AM 4.46 40.028 0.066 7.32 30.42 13.33
1/2/2023 11:45:00 AM 4.54 40.172 0.066 7.32 24.89 13.3
1/2/2023 12:00:00 PM 4.72 40.496 0.066 7.33 39.5 13.24
1/2/2023 12:15:00 PM 4.93 40.874 0.066 7.35 38.16 13.21
1/2/2023 12:30:00 PM 5.14 41.252 0.066 7.36 36.11 13.17
1/2/2023 12:45:00 PM 5.18 41.324 0.066 7.36 36.37 13.13
1/2/2023 1:00:00 PM 5.17 41.306 0.066 7.36 37.49 13.12
1/2/2023 1:15:00 PM 5.11 41.198 0.066 7.36 32.13 13.13
1/2/2023 1:30:00 PM 5.08 41.144 0.066 7.36 40.97 13.12
1/2/2023 1:45:00 PM 5.16 41.288 0.066 7.36 41.82 13.09
1/2/2023 2:00:00 PM 5.22 41.396 0.066 7.36 35.61 13.06
1/2/2023 2:15:00 PM 5.26 41.468 0.066 7.36 33.84 13.05
1/2/2023 2:30:00 PM 5.26 41.468 0.066 7.36 16.09 13.02
1/2/2023 2:45:00 PM 5.23 41.414 0.066 7.35 15.29 13.01
1/2/2023 3:00:00 PM 5.23 41.414 0.066 7.35 18.29 13.01
1/2/2023 3:15:00 PM 5.22 41.396 0.066 7.34 15.52 12.98
1/2/2023 3:30:00 PM 5.2 41.36 0.066 7.33 19.33 12.95
1/2/2023 3:45:00 PM 5.18 41.324 0.066 7.31 19.81 12.92
1/2/2023 4:00:00 PM 5.16 41.288 0.066 7.3 15.43 12.89
1/2/2023 4:15:00 PM 5.13 41.234 0.066 7.28 15.54 12.87
1/2/2023 4:30:00 PM 5.1 41.18 0.066 7.27 14.7 12.84
1/2/2023 4:45:00 PM 5.08 41.144 0.066 7.25 15.38 12.8
1/2/2023 5:00:00 PM 5.04 41.072 0.067 7.24 15.38 12.78
1/2/2023 5:15:00 PM 5 41 0.067 7.23 19.52 12.77
1/2/2023 5:30:00 PM 4.96 40.928 0.067 7.22 15.38 12.77
1/2/2023 5:45:00 PM 4.93 40.874 0.067 7.21 15.67 12.77
1/2/2023 6:00:00 PM 4.9 40.82 0.067 7.2 18.89 12.77
1/2/2023 6:15:00 PM 4.87 40.766 0.067 7.2 17.93 12.78
1/2/2023 6:30:00 PM 4.84 40.712 0.067 7.19 18.49 12.79
1/2/2023 6:45:00 PM 4.82 40.676 0.067 7.19 23.15 12.79
1/2/2023 7:00:00 PM 4.79 40.622 0.067 7.19 21.36 12.8
1/2/2023 7:15:00 PM 4.76 40.568 0.067 7.19 16.45 12.81
1/2/2023 7:30:00 PM 4.73 40.514 0.067 7.18 15.89 12.82
1/2/2023 7:45:00 PM 4.71 40.478 0.067 7.18 18.77 12.82
1/2/2023 8:00:00 PM 4.68 40.424 0.067 7.18 19.63 12.84
1/2/2023 8:15:00 PM 4.66 40.388 0.067 7.18 16.14 12.84
1/2/2023 8:30:00 PM 4.63 40.334 0.067 7.18 15.65 12.86
1/2/2023 8:45:00 PM 4.61 40.298 0.067 7.18 18.49 12.86
1/2/2023 9:00:00 PM 4.59 40.262 0.067 7.18 18.04 12.87
1/2/2023 9:15:00 PM 4.57 40.226 0.067 7.18 17.32 12.87
1/2/2023 9:30:00 PM 4.55 40.19 0.067 7.17 16.4 12.88
1/2/2023 9:45:00 PM 4.53 40.154 0.067 7.17 15.5 12.89
1/2/2023 10:00:00 PM 4.52 40.136 0.067 7.17 16.36 12.89
1/2/2023 10:15:00 PM 4.51 40.118 0.067 7.17 18.11 12.89
1/2/2023 10:30:00 PM 4.5 40.1 0.067 7.17 15.78 12.89
1/2/2023 10:45:00 PM 4.49 40.082 0.067 7.17 16.2 12.89
1/2/2023 11:00:00 PM 4.47 40.046 0.067 7.17 14.45 12.9
1/2/2023 11:15:00 PM 4.46 40.028 0.067 7.17 14.53 12.9
1/2/2023 11:30:00 PM 4.45 40.01 0.067 7.16 15.5 12.9
1/2/2023 11:45:00 PM 4.44 39.992 0.067 7.17 14.78 12.9
1/3/2023 12:00:00 AM 4.44 39.992 0.067 7.17 18.84 12.9
1/3/2023 12:15:00 AM 4.45 40.01 0.067 7.16 16.02 12.9
1/3/2023 12:30:00 AM 4.45 40.01 0.067 7.16 16.78 12.9
1/3/2023 12:45:00 AM 4.45 40.01 0.067 7.16 16.76 12.89
1/3/2023 1:00:00 AM 4.45 40.01 0.067 7.16 17.11 12.89
1/3/2023 1:15:00 AM 4.46 40.028 0.067 7.16 16.73 12.89
1/3/2023 1:30:00 AM 4.46 40.028 0.067 7.16 18.63 12.88
1/3/2023 1:45:00 AM 4.46 40.028 0.067 7.17 16.82 12.88
1/3/2023 2:00:00 AM 4.47 40.046 0.067 7.16 21.41 12.88
1/3/2023 2:15:00 AM 4.47 40.046 0.067 7.16 17.62 12.88
1/3/2023 2:30:00 AM 4.48 40.064 0.067 7.16 17.96 12.88
1/3/2023 2:45:00 AM 4.48 40.064 0.067 7.17 16.17 12.88
1/3/2023 3:00:00 AM 4.49 40.082 0.067 7.17 15.07 12.88
1/3/2023 3:15:00 AM 4.49 40.082 0.067 7.17 15.01 12.88
1/3/2023 3:30:00 AM 4.49 40.082 0.067 7.17 14.83 12.87
1/3/2023 3:45:00 AM 4.5 40.1 0.067 7.17 16.59 12.87
1/3/2023 4:00:00 AM 4.5 40.1 0.067 7.17 20.89 12.87
1/3/2023 4:15:00 AM 4.51 40.118 0.067 7.17 19.81 12.86
1/3/2023 4:30:00 AM 4.51 40.118 0.067 7.17 15.26 12.86
1/3/2023 4:45:00 AM 4.52 40.136 0.067 7.17 14.57 12.85
1/3/2023 5:00:00 AM 4.52 40.136 0.067 7.17 17.83 12.85
1/3/2023 5:15:00 AM 4.53 40.154 0.067 7.17 15.21 12.84
1/3/2023 5:30:00 AM 4.53 40.154 0.067 7.17 18.76 12.84
1/3/2023 5:45:00 AM 4.53 40.154 0.067 7.17 14.87 12.83
1/3/2023 6:00:00 AM 4.54 40.172 0.067 7.17 14.61 12.83
1/3/2023 6:15:00 AM 4.54 40.172 0.067 7.17 14.05 12.83
1/3/2023 6:30:00 AM 4.55 40.19 0.067 7.17 14.86 12.82
1/3/2023 6:45:00 AM 4.55 40.19 0.067 7.17 14.79 12.82
1/3/2023 7:00:00 AM 4.56 40.208 0.067 7.17 14.99 12.81
1/3/2023 7:15:00 AM 4.57 40.226 0.067 7.17 15.69 12.81
1/3/2023 7:30:00 AM 4.57 40.226 0.067 7.17 16.72 12.81
1/3/2023 7:45:00 AM 4.58 40.244 0.067 7.17 15.41 12.8
1/3/2023 8:00:00 AM 4.59 40.262 0.066 7.17 14.15 12.8
1/3/2023 8:15:00 AM 4.6 40.28 0.066 7.17 16.42 12.8
1/3/2023 8:30:00 AM 4.61 40.298 0.066 7.17 16.74 12.81
1/3/2023 8:45:00 AM 4.61 40.298 0.066 7.17 21.48 12.81
1/3/2023 9:00:00 AM 4.63 40.334 0.066 7.17 17.31 12.81
1/3/2023 9:15:00 AM 4.64 40.352 0.066 7.17 19.85 12.82
1/3/2023 9:30:00 AM 4.66 40.388 0.066 7.17 17.36 12.83
1/3/2023 9:45:00 AM 4.68 40.424 0.066 7.18 20.14 12.84
1/3/2023 10:00:00 AM 4.7 40.46 0.067 7.18 19.86 12.84
1/3/2023 10:15:00 AM 4.72 40.496 0.068 7.19 21.12 12.84
1/3/2023 10:30:00 AM 4.74 40.532 0.068 7.19 26.93 12.85
1/3/2023 10:45:00 AM 4.76 40.568 0.068 7.21 29.71 12.88
1/3/2023 11:00:00 AM 4.79 40.622 0.068 7.22 31.05 12.87
1/3/2023 11:15:00 AM 4.81 40.658 0.068 7.21 47.03 12.87
1/3/2023 11:30:00 AM 4.83 40.694 0.068 7.21 19.65 12.85
1/3/2023 11:45:00 AM 4.85 40.73 0.069 7.2 25.82 12.84
1/3/2023 12:00:00 PM 4.84 40.712 0.07 7.21 41.18 12.82
1/3/2023 12:15:00 PM 4.8 40.64 0.071 7.2 50.05 12.81
1/3/2023 12:30:00 PM 4.7 40.46 0.074 7.22 92.22 12.84
1/3/2023 12:45:00 PM 4.54 40.172 0.075 7.22 99.89 12.88
1/3/2023 1:00:00 PM 4.35 39.83 0.075 7.23 102.05 12.93
1/3/2023 1:15:00 PM 4.22 39.596 0.075 7.22 105.32 12.96
1/3/2023 1:30:00 PM 4.18 39.524 0.076 7.25 122.91 12.97
1/3/2023 1:45:00 PM 4.18 39.524 0.076 7.19 128.87 12.96
1/3/2023 2:00:00 PM 4.2 39.56 0.076 7.21 224.89 12.95
1/3/2023 2:15:00 PM 4.23 39.614 0.076 7.2 127.6 12.93
1/3/2023 2:30:00 PM 4.25 39.65 0.074 7.16 142.45 12.93
1/3/2023 2:45:00 PM 4.26 39.668 0.073 7.13 246 12.91
1/3/2023 3:00:00 PM 4.3 39.74 0.072 7.15 158.17 12.9
1/3/2023 3:15:00 PM 4.34 39.812 0.072 7.14 179.76 12.88
1/3/2023 3:30:00 PM 4.39 39.902 0.071 7.12 168.36 12.86
1/3/2023 3:45:00 PM 4.44 39.992 0.071 7.16 109.1 12.84
1/3/2023 4:00:00 PM 4.48 40.064 0.07 7.15 117.25 12.83
1/3/2023 4:15:00 PM 4.52 40.136 0.07 7.16 98.63 12.81
1/3/2023 4:30:00 PM 4.56 40.208 0.07 7.15 76.95 12.79
1/3/2023 4:45:00 PM 4.6 40.28 0.069 7.14 80.87 12.78
1/3/2023 5:00:00 PM 4.63 40.334 0.069 7.14 78.5 12.76
1/3/2023 5:15:00 PM 4.66 40.388 0.069 7.14 121.74 12.74
1/3/2023 5:30:00 PM 4.69 40.442 0.069 7.13 137.28 12.73
1/3/2023 5:45:00 PM 4.72 40.496 0.069 7.13 431.81 12.72
1/3/2023 6:00:00 PM 4.74 40.532 0.069 7.14 76.2 12.71
1/3/2023 6:15:00 PM 4.76 40.568 0.069 7.15 72.48 12.7
1/3/2023 6:30:00 PM 4.78 40.604 0.069 7.14 113.04 12.69
1/3/2023 6:45:00 PM 4.8 40.64 0.069 7.15 86.96 12.68
1/3/2023 7:00:00 PM 4.82 40.676 0.069 7.15 71.31 12.68
1/3/2023 7:15:00 PM 4.84 40.712 0.069 7.14 73.74 12.67
1/3/2023 7:30:00 PM 4.86 40.748 0.069 7.13 64.77 12.66
1/3/2023 7:45:00 PM 4.88 40.784 0.069 7.13 58.57 12.66
1/3/2023 8:00:00 PM 4.9 40.82 0.069 7.13 67.5 12.65
1/3/2023 8:15:00 PM 4.93 40.874 0.069 7.17 55.83 12.64
1/3/2023 8:30:00 PM 4.94 40.892 0.069 7.16 71.11 12.64
1/3/2023 8:45:00 PM 4.96 40.928 0.069 7.17 59.71 12.63
1/3/2023 9:00:00 PM 4.99 40.982 0.069 7.19 54.39 12.63
1/3/2023 9:15:00 PM 5.01 41.018 0.069 7.37 56.9 12.61
1/3/2023 9:30:00 PM 5.03 41.054 0.069 7.4 56 12.61
1/3/2023 9:45:00 PM 5.05 41.09 0.069 7.39 60.39 12.59
1/3/2023 10:00:00 PM 5.08 41.144 0.068 7.37 69.75 12.59
1/3/2023 10:15:00 PM 5.1 41.18 0.068 7.37 56.31 12.58
1/3/2023 10:30:00 PM 5.12 41.216 0.068 7.39 50.71 12.57
1/3/2023 10:45:00 PM 5.14 41.252 0.068 7.39 45.96 12.56
1/3/2023 11:00:00 PM 5.16 41.288 0.068 7.39 44.99 12.55
1/3/2023 11:15:00 PM 5.19 41.342 0.068 7.39 44.76 12.55
1/3/2023 11:30:00 PM 5.21 41.378 0.068 7.39 42.45 12.54
1/3/2023 11:45:00 PM 5.23 41.414 0.068 7.4 51.28 12.53
1/4/2023 12:00:00 AM 5.25 41.45 0.068 7.4 41.49 12.52
1/4/2023 12:15:00 AM 5.27 41.486 0.068 7.41 44.58 12.52
1/4/2023 12:30:00 AM 5.29 41.522 0.068 7.41 46.45 12.51
1/4/2023 12:45:00 AM 5.31 41.558 0.068 7.41 41.68 12.51
1/4/2023 1:00:00 AM 5.33 41.594 0.068 7.4 38.41 12.5
1/4/2023 1:15:00 AM 5.35 41.63 0.068 7.41 43.02 12.49
1/4/2023 1:30:00 AM 5.36 41.648 0.068 7.41 42.53 12.48
1/4/2023 1:45:00 AM 5.38 41.684 0.068 7.42 41.76 12.48
1/4/2023 2:00:00 AM 5.39 41.702 0.068 7.4 38.3 12.48
1/4/2023 2:15:00 AM 5.38 41.684 0.068 7.4 43.79 12.47
1/4/2023 2:30:00 AM 5.37 41.666 0.068 7.39 54.52 12.47
1/4/2023 2:45:00 AM 5.37 41.666 0.068 7.41 52.6 12.48
1/4/2023 3:00:00 AM 5.36 41.648 0.068 7.42 68.54 12.48
1/4/2023 3:15:00 AM 5.37 41.666 0.068 7.42 44.02 12.48
1/4/2023 3:30:00 AM 5.38 41.684 0.068 7.42 40.34 12.48
1/4/2023 3:45:00 AM 5.4 41.72 0.068 7.42 42.08 12.47
1/4/2023 4:00:00 AM 5.41 41.738 0.068 7.43 39.84 12.46
1/4/2023 4:15:00 AM 5.43 41.774 0.068 7.44 40.24 12.47
1/4/2023 4:30:00 AM 5.44 41.792 0.068 7.41 38.49 12.46
1/4/2023 4:45:00 AM 5.46 41.828 0.068 7.43 53.48 12.45
1/4/2023 5:00:00 AM 5.47 41.846 0.068 7.43 36.4 12.45
1/4/2023 5:15:00 AM 5.49 41.882 0.068 7.43 39.13 12.45
1/4/2023 5:30:00 AM 5.51 41.918 0.068 7.43 37.46 12.45
1/4/2023 5:45:00 AM 5.52 41.936 0.067 7.43 45.53 12.44
1/4/2023 6:00:00 AM 5.54 41.972 0.067 7.43 37.09 12.44
1/4/2023 6:15:00 AM 5.55 41.99 0.067 7.43 36.77 12.44
1/4/2023 6:30:00 AM 5.56 42.008 0.067 7.43 36.21 12.44
1/4/2023 6:45:00 AM 5.58 42.044 0.067 7.43 38.39 12.43
1/4/2023 7:00:00 AM 5.59 42.062 0.067 7.42 27.49 12.43
1/4/2023 7:15:00 AM 5.6 42.08 0.067 7.43 36.67 12.43
1/4/2023 7:30:00 AM 5.62 42.116 0.067 7.43 32.1 12.42
1/4/2023 7:45:00 AM 5.63 42.134 0.067 7.43 40.47 12.42
1/4/2023 8:00:00 AM 5.64 42.152 0.067 7.43 35.56 12.42
1/4/2023 8:15:00 AM 5.66 42.188 0.067 7.43 33.92 12.43
1/4/2023 8:30:00 AM 5.67 42.206 0.067 7.44 25.86 12.44
1/4/2023 8:45:00 AM 5.69 42.242 0.067 7.42 35.49 12.46
1/4/2023 9:00:00 AM 5.71 42.278 0.067 7.43 34.4 12.47
1/4/2023 9:15:00 AM 5.73 42.314 0.067 7.44 33.22 12.47
1/4/2023 9:30:00 AM 5.76 42.368 0.067 7.43 30.96 12.48
1/4/2023 9:45:00 AM 5.79 42.422 0.067 7.44 32.96 12.49
1/4/2023 10:00:00 AM 5.83 42.494 0.066 7.45 32.1 12.52
1/4/2023 10:15:00 AM 5.88 42.584 0.066 7.46 27.81 12.54
1/4/2023 10:30:00 AM 5.93 42.674 0.066 7.47 34.5 12.54
1/4/2023 10:45:00 AM 5.97 42.746 0.066 7.48 23.22 12.53
1/4/2023 11:00:00 AM 6.01 42.818 0.066 7.49 33.57 12.52
1/4/2023 11:15:00 AM 6.05 42.89 0.066 7.49 34.76 12.5
1/4/2023 11:30:00 AM 6.09 42.962 0.066 7.49 37.38 12.48
1/4/2023 11:45:00 AM 6.14 43.052 0.066 7.49 29.63 12.47
1/4/2023 12:00:00 PM 6.2 43.16 0.066 7.5 34.12 12.45
1/4/2023 12:15:00 PM 6.26 43.268 0.066 7.51 30.63 12.43
1/4/2023 12:30:00 PM 6.31 43.358 0.066 7.51 32.01 12.4
1/4/2023 12:45:00 PM 6.35 43.43 0.066 7.51 37.47 12.38
1/4/2023 1:00:00 PM 6.38 43.484 0.066 7.51 34.11 12.34
1/4/2023 1:15:00 PM 6.41 43.538 0.066 7.51 29.2 12.32
1/4/2023 1:30:00 PM 6.43 43.574 0.065 7.51 32.89 12.3
1/4/2023 1:45:00 PM 6.45 43.61 0.065 7.51 32.11 12.29
1/4/2023 2:00:00 PM 6.47 43.646 0.065 7.51 32.41 12.26
1/4/2023 2:15:00 PM 6.48 43.664 0.065 7.5 32.02 12.23
1/4/2023 2:30:00 PM 6.49 43.682 0.065 7.49 30.49 12.23
1/4/2023 2:45:00 PM 6.5 43.7 0.065 7.49 25.28 12.21
1/4/2023 3:00:00 PM 6.5 43.7 0.065 7.48 32.6 12.2
1/4/2023 3:15:00 PM 6.51 43.718 0.065 7.48 28.07 12.2
1/4/2023 3:30:00 PM 6.52 43.736 0.065 7.48 30.68 12.19
1/4/2023 3:45:00 PM 6.52 43.736 0.065 7.48 26.85 12.18
1/4/2023 4:00:00 PM 6.52 43.736 0.065 7.47 38.22 12.16
1/4/2023 4:15:00 PM 6.51 43.718 0.065 7.46 31.86 12.14
1/4/2023 4:30:00 PM 6.5 43.7 0.065 7.45 30.23 12.13
1/4/2023 4:45:00 PM 6.49 43.682 0.065 7.44 23.98 12.12
1/4/2023 5:00:00 PM 6.49 43.682 0.065 7.44 35.15 12.12
1/4/2023 5:15:00 PM 6.48 43.664 0.065 7.43 29.48 12.11
1/4/2023 5:30:00 PM 6.48 43.664 0.065 7.42 29.98 12.1
1/4/2023 5:45:00 PM 6.47 43.646 0.065 7.42 32.06 12.1
1/4/2023 6:00:00 PM 6.46 43.628 0.065 7.42 31.32 12.1
1/4/2023 6:15:00 PM 6.46 43.628 0.065 7.42 26.48 12.1
1/4/2023 6:30:00 PM 6.45 43.61 0.065 7.42 26.19 12.1
1/4/2023 6:45:00 PM 6.45 43.61 0.065 7.42 29.48 12.09
1/4/2023 7:00:00 PM 6.45 43.61 0.065 7.42 35.11 12.1
1/4/2023 7:15:00 PM 6.45 43.61 0.065 7.42 41.67 12.09
1/4/2023 7:30:00 PM 6.45 43.61 0.065 7.42 34.97 12.1
1/4/2023 7:45:00 PM 6.46 43.628 0.065 7.42 28.31 12.1
1/4/2023 8:00:00 PM 6.46 43.628 0.065 7.42 30.82 12.1
1/4/2023 8:15:00 PM 6.46 43.628 0.065 7.43 27.67 12.1
1/4/2023 8:30:00 PM 6.46 43.628 0.065 7.42 31.76 12.1
1/4/2023 8:45:00 PM 6.46 43.628 0.065 7.42 32.6 12.09
1/4/2023 9:00:00 PM 6.46 43.628 0.065 7.42 26.81 12.09
1/4/2023 9:15:00 PM 6.47 43.646 0.065 7.42 27.58 12.09
1/4/2023 9:30:00 PM 6.47 43.646 0.065 7.42 33.63 12.09
1/4/2023 9:45:00 PM 6.47 43.646 0.065 7.42 31.5 12.09
1/4/2023 10:00:00 PM 6.47 43.646 0.065 7.42 34.97 12.09
1/4/2023 10:15:00 PM 6.47 43.646 0.065 7.41 31.91 12.09
1/4/2023 10:30:00 PM 6.45 43.61 0.065 7.41 30.42 12.09
1/4/2023 10:45:00 PM 6.44 43.592 0.065 7.42 30.07 12.1
1/4/2023 11:00:00 PM 6.43 43.574 0.065 7.41 38.4 12.11
1/4/2023 11:15:00 PM 6.41 43.538 0.065 7.42 28.54 12.11
1/4/2023 11:30:00 PM 6.4 43.52 0.065 7.42 30.26 12.12
1/4/2023 11:45:00 PM 6.42 43.556 0.065 7.42 31.36 12.12
1/5/2023 12:00:00 AM 6.42 43.556 0.065 7.42 30.42 12.13
1/5/2023 12:15:00 AM 6.42 43.556 0.065 7.43 41.28 12.13
1/5/2023 12:30:00 AM 6.39 43.502 0.065 7.43 47.87 12.14
1/5/2023 12:45:00 AM 6.36 43.448 0.065 7.44 36.95 12.14
1/5/2023 1:00:00 AM 6.33 43.394 0.065 7.43 39.37 12.15
1/5/2023 1:15:00 AM 6.3 43.34 0.065 7.42 29.54 12.16
1/5/2023 1:30:00 AM 6.26 43.268 0.065 7.43 50.72 12.17
1/5/2023 1:45:00 AM 6.23 43.214 0.065 7.43 30.22 12.18
1/5/2023 2:00:00 AM 6.19 43.142 0.064 7.43 31.93 12.2
1/5/2023 2:15:00 AM 6.15 43.07 0.064 7.43 36.13 12.21
1/5/2023 2:30:00 AM 6.11 42.998 0.064 7.43 33.91 12.22
1/5/2023 2:45:00 AM 6.06 42.908 0.064 7.43 30.3 12.24
1/5/2023 3:00:00 AM 6.02 42.836 0.064 7.42 32.7 12.26
1/5/2023 3:15:00 AM 5.97 42.746 0.064 7.43 30.27 12.28
1/5/2023 3:30:00 AM 5.91 42.638 0.064 7.44 27.76 12.31
1/5/2023 3:45:00 AM 5.86 42.548 0.064 7.44 31.05 12.32
1/5/2023 4:00:00 AM 5.81 42.458 0.064 7.43 35.61 12.34
1/5/2023 4:15:00 AM 5.77 42.386 0.064 7.43 29.2 12.36
1/5/2023 4:30:00 AM 5.74 42.332 0.064 7.43 28.7 12.37
1/5/2023 4:45:00 AM 5.7 42.26 0.064 7.43 25.89 12.38
1/5/2023 5:00:00 AM 5.67 42.206 0.064 7.43 25.18 12.39
1/5/2023 5:15:00 AM 5.64 42.152 0.064 7.43 31.41 12.4
1/5/2023 5:30:00 AM 5.6 42.08 0.064 7.43 36.56 12.41
1/5/2023 5:45:00 AM 5.56 42.008 0.064 7.42 31.94 12.42
1/5/2023 6:00:00 AM 5.53 41.954 0.064 7.43 29.14 12.44
1/5/2023 6:15:00 AM 5.5 41.9 0.064 7.42 31.04 12.45
1/5/2023 6:30:00 AM 5.47 41.846 0.064 7.43 30.07 12.45
1/5/2023 6:45:00 AM 5.45 41.81 0.064 7.42 37.8 12.46
1/5/2023 7:00:00 AM 5.42 41.756 0.064 7.42 31.59 12.47
1/5/2023 7:15:00 AM 5.4 41.72 0.064 7.43 42.41 12.48
1/5/2023 7:30:00 AM 5.38 41.684 0.064 7.42 30.16 12.49
1/5/2023 7:45:00 AM 5.37 41.666 0.064 7.43 33 12.5
1/5/2023 8:00:00 AM 5.36 41.648 0.064 7.43 32.76 12.53
1/5/2023 8:15:00 AM 5.36 41.648 0.064 7.44 26.91 12.57
1/5/2023 8:30:00 AM 5.35 41.63 0.064 7.45 30.94 12.61
1/5/2023 8:45:00 AM 5.36 41.648 0.064 7.46 30.52 12.65
1/5/2023 9:00:00 AM 5.38 41.684 0.064 7.47 28.53 12.67
1/5/2023 9:15:00 AM 5.41 41.738 0.064 7.48 29.5 12.7
1/5/2023 9:30:00 AM 5.45 41.81 0.063 7.49 29.64 12.72
1/5/2023 9:45:00 AM 5.5 41.9 0.063 7.5 29.41 12.73
1/5/2023 10:00:00 AM 5.54 41.972 0.063 7.51 29.45 12.72
1/5/2023 10:15:00 AM 5.58 42.044 0.063 7.51 30.14 12.73
1/5/2023 10:30:00 AM 5.64 42.152 0.063 7.52 25.76 12.72
1/5/2023 10:45:00 AM 5.72 42.296 0.063 7.52 47.32 12.71
1/5/2023 11:00:00 AM 5.77 42.386 0.063 7.53 29.27 12.7
1/5/2023 11:15:00 AM 5.79 42.422 0.063 7.53 51.14 12.68
1/5/2023 11:30:00 AM 5.89 42.602 0.063 7.54 29.41 12.66
1/5/2023 11:45:00 AM 5.99 42.782 0.063 7.55 28.37 12.63
1/5/2023 12:00:00 PM 6.11 42.998 0.063 7.56 35.95 12.6
1/5/2023 12:15:00 PM 6.18 43.124 0.063 7.55 29.38 12.59
1/5/2023 12:30:00 PM 6.14 43.052 0.063 7.55 29.97 12.56
1/5/2023 12:45:00 PM 6.17 43.106 0.063 7.54 29.05 12.56
1/5/2023 1:00:00 PM 6.24 43.232 0.063 7.55 28.55 12.56
1/5/2023 1:15:00 PM 6.26 43.268 0.063 7.56 31.94 12.56
1/5/2023 1:30:00 PM 6.25 43.25 0.063 7.55 26.26 12.53
1/5/2023 1:45:00 PM 6.26 43.268 0.063 7.55 27.87 12.53
1/5/2023 2:00:00 PM 6.27 43.286 0.063 7.55 35.65 12.51
1/5/2023 2:15:00 PM 6.31 43.358 0.063 7.55 33.11 12.49
1/5/2023 2:30:00 PM 6.29 43.322 0.063 7.53 26.88 12.47
1/5/2023 2:45:00 PM 6.27 43.286 0.063 7.54 37.35 12.45
1/5/2023 3:00:00 PM 6.25 43.25 0.063 7.53 36.67 12.43
1/5/2023 3:15:00 PM 6.21 43.178 0.063 7.53 25.97 12.44
1/5/2023 3:30:00 PM 6.19 43.142 0.063 7.52 65.76 12.47
1/5/2023 3:45:00 PM 6.14 43.052 0.063 7.52 32.49 12.47
1/5/2023 4:00:00 PM 6.11 42.998 0.063 7.51 30.95 12.47
1/5/2023 4:15:00 PM 6.07 42.926 0.063 7.5 42.2 12.46
1/5/2023 4:30:00 PM 6.02 42.836 0.063 7.49 37.71 12.43
1/5/2023 4:45:00 PM 5.98 42.764 0.063 7.46 29.5 12.42
1/5/2023 5:00:00 PM 5.95 42.71 0.063 7.45 29.24 12.39
1/5/2023 5:15:00 PM 5.91 42.638 0.063 7.43 26.5 12.38
1/5/2023 5:30:00 PM 5.88 42.584 0.063 7.42 25.35 12.37
1/5/2023 5:45:00 PM 5.84 42.512 0.063 7.42 28.23 12.37
1/5/2023 6:00:00 PM 5.79 42.422 0.063 7.41 25.93 12.38
1/5/2023 6:15:00 PM 5.74 42.332 0.063 7.41 26.03 12.38
1/5/2023 6:30:00 PM 5.69 42.242 0.063 7.41 28.09 12.4
1/5/2023 6:45:00 PM 5.65 42.17 0.063 7.4 29.94 12.41
1/5/2023 7:00:00 PM 5.6 42.08 0.063 7.41 29.96 12.42
1/5/2023 7:15:00 PM 5.56 42.008 0.063 7.41 29.91 12.44
1/5/2023 7:30:00 PM 5.52 41.936 0.063 7.41 29.32 12.45
1/5/2023 7:45:00 PM 5.49 41.882 0.063 7.4 28.03 12.46
1/5/2023 8:00:00 PM 5.44 41.792 0.063 7.39 26.24 12.47
1/5/2023 8:15:00 PM 5.39 41.702 0.063 7.38 25.56 12.49
1/5/2023 8:30:00 PM 5.33 41.594 0.063 7.38 32.55 12.5
1/5/2023 8:45:00 PM 5.28 41.504 0.063 7.38 28.77 12.53
1/5/2023 9:00:00 PM 5.23 41.414 0.063 7.37 31.73 12.55
1/5/2023 9:15:00 PM 5.18 41.324 0.063 7.37 26.07 12.56
1/5/2023 9:30:00 PM 5.13 41.234 0.063 7.37 27.42 12.58
1/5/2023 9:45:00 PM 5.07 41.126 0.063 7.36 25.62 12.59
1/5/2023 10:00:00 PM 5.02 41.036 0.063 7.35 25.48 12.61
1/5/2023 10:15:00 PM 4.96 40.928 0.063 7.36 22.99 12.62
1/5/2023 10:30:00 PM 4.92 40.856 0.063 7.37 49.42 12.64
1/5/2023 10:45:00 PM 4.87 40.766 0.063 7.35 37.69 12.65
1/5/2023 11:00:00 PM 4.83 40.694 0.063 7.36 25.1 12.66
1/5/2023 11:15:00 PM 4.78 40.604 0.063 7.36 49.97 12.68
1/5/2023 11:30:00 PM 4.75 40.55 0.063 7.36 39.33 12.69
1/5/2023 11:45:00 PM 4.72 40.496 0.063 7.37 28.05 12.71
1/6/2023 12:00:00 AM 4.7 40.46 0.063 7.38 45.85 12.72
1/6/2023 12:15:00 AM 4.68 40.424 0.063 7.38 27.55 12.73
1/6/2023 12:30:00 AM 4.66 40.388 0.063 7.38 28.38 12.73
1/6/2023 12:45:00 AM 4.63 40.334 0.063 7.39 28.22 12.74
1/6/2023 1:00:00 AM 4.59 40.262 0.063 7.38 27.55 12.76
1/6/2023 1:15:00 AM 4.56 40.208 0.063 7.37 26.73 12.76
1/6/2023 1:30:00 AM 4.52 40.136 0.063 7.38 32.66 12.77
1/6/2023 1:45:00 AM 4.5 40.1 0.063 7.38 34.69 12.78
1/6/2023 2:00:00 AM 4.48 40.064 0.063 7.38 31.73 12.78
1/6/2023 2:15:00 AM 4.46 40.028 0.063 7.39 27.39 12.79
1/6/2023 2:30:00 AM 4.45 40.01 0.063 7.38 31.26 12.8
1/6/2023 2:45:00 AM 4.44 39.992 0.063 7.39 60.45 12.81
1/6/2023 3:00:00 AM 4.43 39.974 0.063 7.38 40.57 12.81
1/6/2023 3:15:00 AM 4.43 39.974 0.063 7.39 30.48 12.81
1/6/2023 3:30:00 AM 4.42 39.956 0.063 7.41 29.22 12.82
1/6/2023 3:45:00 AM 4.42 39.956 0.063 7.4 27.65 12.82
1/6/2023 4:00:00 AM 4.41 39.938 0.063 7.4 34.74 12.82
1/6/2023 4:15:00 AM 4.41 39.938 0.063 7.4 28.59 12.82
1/6/2023 4:30:00 AM 4.41 39.938 0.063 7.4 47.48 12.82
1/6/2023 4:45:00 AM 4.41 39.938 0.063 7.39 35.22 12.82
1/6/2023 5:00:00 AM 4.4 39.92 0.063 7.39 31.39 12.82
1/6/2023 5:15:00 AM 4.39 39.902 0.063 7.39 33.7 12.82
1/6/2023 5:30:00 AM 4.38 39.884 0.063 7.39 958.95 12.83
1/6/2023 5:45:00 AM 4.37 39.866 0.063 7.39 29.69 12.83
1/6/2023 6:00:00 AM 4.36 39.848 0.063 7.39 28.21 12.83
1/6/2023 6:15:00 AM 4.34 39.812 0.063 7.38 27.4 12.83
1/6/2023 6:30:00 AM 4.31 39.758 0.063 7.39 28.22 12.84
1/6/2023 6:45:00 AM 4.29 39.722 0.063 7.38 29.23 12.84
1/6/2023 7:00:00 AM 4.27 39.686 0.063 7.39 27.42 12.85
1/6/2023 7:15:00 AM 4.24 39.632 0.063 7.39 30.68 12.86
1/6/2023 7:30:00 AM 4.23 39.614 0.063 7.39 28.69 12.87
1/6/2023 7:45:00 AM 4.22 39.596 0.063 7.37 24.56 12.87
1/6/2023 8:00:00 AM 4.2 39.56 0.063 7.38 26.52 12.89
1/6/2023 8:15:00 AM 4.21 39.578 0.063 7.38 31.84 12.91
1/6/2023 8:30:00 AM 4.23 39.614 0.063 7.39 31.08 12.94
1/6/2023 8:45:00 AM 4.25 39.65 0.063 7.4 29.58 12.97
1/6/2023 9:00:00 AM 4.28 39.704 0.063 7.41 29.57 13.03
1/6/2023 9:15:00 AM 4.31 39.758 0.063 7.43 26.77 13.06
1/6/2023 9:30:00 AM 4.34 39.812 0.063 7.44 29.24 13.07
1/6/2023 9:45:00 AM 4.36 39.848 0.063 7.44 31.92 13.07
1/6/2023 10:00:00 AM 4.39 39.902 0.063 7.44 25.08 13.07
1/6/2023 10:15:00 AM 4.43 39.974 0.063 7.46 27.78 13.09
1/6/2023 10:30:00 AM 4.46 40.028 0.063 7.46 26.34 13.1
1/6/2023 10:45:00 AM 4.5 40.1 0.063 7.46 26.69 13.09
1/6/2023 11:00:00 AM 4.51 40.118 0.064 7.46 26.44 13.08
1/6/2023 11:15:00 AM 4.55 40.19 0.064 7.47 24.56 13.09
1/6/2023 11:30:00 AM 4.6 40.28 0.064 7.49 38.34 13.1
1/6/2023 11:45:00 AM 4.65 40.37 0.064 7.49 35.1 13.1
1/6/2023 12:00:00 PM 4.7 40.46 0.064 7.5 36.36 13.09
1/6/2023 12:15:00 PM 4.75 40.55 0.064 7.51 34.28 13.08
1/6/2023 12:30:00 PM 4.81 40.658 0.063 7.53 38.8 13.07
1/6/2023 12:45:00 PM 4.87 40.766 0.063 7.52 45.26 13.05
1/6/2023 1:00:00 PM 4.95 40.91 0.063 7.53 39.67 13.04
1/6/2023 1:15:00 PM 4.97 40.946 0.063 7.54 39.01 13.02
1/6/2023 1:30:00 PM 5.01 41.018 0.063 7.53 34.22 13
1/6/2023 1:45:00 PM 5.02 41.036 0.063 7.54 34.18 13
1/6/2023 2:00:00 PM 5.03 41.054 0.063 7.54 32.53 12.98
1/6/2023 2:15:00 PM 5.04 41.072 0.063 7.54 31.53 12.98
1/6/2023 2:30:00 PM 5.05 41.09 0.063 7.53 31.74 12.98
1/6/2023 2:45:00 PM 5.07 41.126 0.063 7.53 30.36 12.96
1/6/2023 3:00:00 PM 5.06 41.108 0.063 7.52 27.44 12.91
1/6/2023 3:15:00 PM 5.04 41.072 0.063 7.51 25.18 12.87
1/6/2023 3:30:00 PM 5.03 41.054 0.063 7.5 23.71 12.85
1/6/2023 3:45:00 PM 5.02 41.036 0.063 7.49 28.86 12.85
1/6/2023 4:00:00 PM 5.01 41.018 0.063 7.49 28.84 12.85
1/6/2023 4:15:00 PM 4.98 40.964 0.063 7.48 31.53 12.82
1/6/2023 4:30:00 PM 4.96 40.928 0.064 7.48 26.98 12.79
1/6/2023 4:45:00 PM 4.93 40.874 0.064 7.47 28.02 12.77
1/6/2023 5:00:00 PM 4.91 40.838 0.064 7.46 30.53 12.75
1/6/2023 5:15:00 PM 4.89 40.802 0.064 7.45 62.56 12.74
1/6/2023 5:30:00 PM 4.86 40.748 0.064 7.44 29.61 12.75
1/6/2023 5:45:00 PM 4.83 40.694 0.064 7.45 49.95 12.75
1/6/2023 6:00:00 PM 4.8 40.64 0.064 7.44 36.96 12.75
1/6/2023 6:15:00 PM 4.77 40.586 0.064 7.44 40.25 12.76
1/6/2023 6:30:00 PM 4.74 40.532 0.064 7.43 27.83 12.77
1/6/2023 6:45:00 PM 4.72 40.496 0.064 7.43 28.76 12.78
1/6/2023 7:00:00 PM 4.7 40.46 0.064 7.42 25.32 12.8
1/6/2023 7:15:00 PM 4.67 40.406 0.064 7.42 25.64 12.81
1/6/2023 7:30:00 PM 4.65 40.37 0.064 7.42 33.42 12.81
1/6/2023 7:45:00 PM 4.63 40.334 0.064 7.42 30.78 12.83
1/6/2023 8:00:00 PM 4.61 40.298 0.064 7.42 32.34 12.83
1/6/2023 8:15:00 PM 4.6 40.28 0.064 7.42 34.07 12.84
1/6/2023 8:30:00 PM 4.58 40.244 0.064 7.42 31.1 12.84
1/6/2023 8:45:00 PM 4.57 40.226 0.064 7.43 27.09 12.85
1/6/2023 9:00:00 PM 4.55 40.19 0.064 7.42 26.77 12.86
1/6/2023 9:15:00 PM 4.54 40.172 0.064 7.43 27.89 12.86
1/6/2023 9:30:00 PM 4.52 40.136 0.064 7.43 27.68 12.86
1/6/2023 9:45:00 PM 4.51 40.118 0.064 7.43 24.21 12.87
1/6/2023 10:00:00 PM 4.49 40.082 0.064 7.42 26.04 12.88
1/6/2023 10:15:00 PM 4.48 40.064 0.064 7.43 25.11 12.88
1/6/2023 10:30:00 PM 4.47 40.046 0.065 7.43 25.16 12.88
1/6/2023 10:45:00 PM 4.46 40.028 0.065 7.43 41.18 12.89
1/6/2023 11:00:00 PM 4.45 40.01 0.065 7.42 29.04 12.89
1/6/2023 11:15:00 PM 4.44 39.992 0.065 7.43 43.96 12.89
1/6/2023 11:30:00 PM 4.43 39.974 0.065 7.42 34.27 12.9
1/6/2023 11:45:00 PM 4.41 39.938 0.065 7.43 26.9 12.9
1/7/2023 12:00:00 AM 4.4 39.92 0.065 7.42 35.77 12.91
1/7/2023 12:15:00 AM 4.38 39.884 0.065 7.41 29.89 12.91
1/7/2023 12:30:00 AM 4.37 39.866 0.065 7.42 25.7 12.91
1/7/2023 12:45:00 AM 4.36 39.848 0.064 7.42 31.72 12.91
1/7/2023 1:00:00 AM 4.36 39.848 0.064 7.42 29.73 12.91
1/7/2023 1:15:00 AM 4.35 39.83 0.064 7.42 28.64 12.92
1/7/2023 1:30:00 AM 4.34 39.812 0.064 7.42 28.57 12.92
1/7/2023 1:45:00 AM 4.33 39.794 0.064 7.42 48.55 12.92
1/7/2023 2:00:00 AM 4.32 39.776 0.064 7.41 36.23 12.92
1/7/2023 2:15:00 AM 4.31 39.758 0.064 7.42 137.6 12.93
1/7/2023 2:30:00 AM 4.31 39.758 0.064 7.43 29.8 12.93
1/7/2023 2:45:00 AM 4.3 39.74 0.064 7.43 103.9 12.93
1/7/2023 3:00:00 AM 4.3 39.74 0.064 7.42 37.85 12.93
1/7/2023 3:15:00 AM 4.29 39.722 0.064 7.43 42.21 12.93
1/7/2023 3:30:00 AM 4.29 39.722 0.064 7.42 34.18 12.94
1/7/2023 3:45:00 AM 4.28 39.704 0.064 7.43 56.65 12.94
1/7/2023 4:00:00 AM 4.28 39.704 0.064 7.41 43.4 12.94
1/7/2023 4:15:00 AM 4.27 39.686 0.064 7.42 46.89 12.94
1/7/2023 4:30:00 AM 4.27 39.686 0.064 7.42 40.96 12.94
1/7/2023 4:45:00 AM 4.26 39.668 0.064 7.41 50.96 12.94
1/7/2023 5:00:00 AM 4.26 39.668 0.064 7.42 45.07 12.94
1/7/2023 5:15:00 AM 4.26 39.668 0.064 7.42 32.46 12.95
1/7/2023 5:30:00 AM 4.25 39.65 0.064 7.43 41.7 12.94
1/7/2023 5:45:00 AM 4.25 39.65 0.064 7.42 36.37 12.95
1/7/2023 6:00:00 AM 4.25 39.65 0.064 7.42 35.43 12.95
1/7/2023 6:15:00 AM 4.25 39.65 0.064 7.42 35.21 12.95
1/7/2023 6:30:00 AM 4.24 39.632 0.064 7.41 35.2 12.95
1/7/2023 6:45:00 AM 4.24 39.632 0.064 7.41 42.91 12.95
1/7/2023 7:00:00 AM 4.24 39.632 0.064 7.41 36.98 12.96
1/7/2023 7:15:00 AM 4.24 39.632 0.064 7.42 37.31 12.96
1/7/2023 7:30:00 AM 4.23 39.614 0.064 7.41 47.26 12.96
1/7/2023 7:45:00 AM 4.23 39.614 0.064 7.42 33.4 12.97
1/7/2023 8:00:00 AM 4.23 39.614 0.064 7.42 43.06 12.98
1/7/2023 8:15:00 AM 4.23 39.614 0.064 7.42 45.48 13
1/7/2023 8:30:00 AM 4.24 39.632 0.064 7.42 40.33 13.03
1/7/2023 8:45:00 AM 4.25 39.65 0.064 7.43 33.85 13.06
1/7/2023 9:00:00 AM 4.27 39.686 0.064 7.45 40.25 13.1
1/7/2023 9:15:00 AM 4.29 39.722 0.064 7.45 34.26 13.15
1/7/2023 9:30:00 AM 4.32 39.776 0.064 7.48 39.15 13.17
1/7/2023 9:45:00 AM 4.35 39.83 0.064 7.48 39.33 13.19
1/7/2023 10:00:00 AM 4.38 39.884 0.064 7.5 37.96 13.2
1/7/2023 10:15:00 AM 4.41 39.938 0.064 7.49 35.36 13.2
1/7/2023 10:30:00 AM 4.44 39.992 0.064 7.51 41.96 13.2
1/7/2023 10:45:00 AM 4.48 40.064 0.064 7.51 38.67 13.21
1/7/2023 11:00:00 AM 4.52 40.136 0.064 7.52 46.36 13.22
1/7/2023 11:15:00 AM 4.56 40.208 0.064 7.52 32.36 13.22
1/7/2023 11:30:00 AM 4.6 40.28 0.064 7.54 39.82 13.22
1/7/2023 11:45:00 AM 4.64 40.352 0.064 7.54 43.24 13.21
1/7/2023 12:00:00 PM 4.67 40.406 0.064 7.54 32.57 13.2
1/7/2023 12:15:00 PM 4.71 40.478 0.064 7.55 37.37 13.19
1/7/2023 12:30:00 PM 4.75 40.55 0.064 7.55 42.77 13.18
1/7/2023 12:45:00 PM 4.79 40.622 0.064 7.56 34.42 13.17
1/7/2023 1:00:00 PM 4.83 40.694 0.064 7.56 32.33 13.16
1/7/2023 1:15:00 PM 4.83 40.694 0.064 7.56 40.34 13.13
1/7/2023 1:30:00 PM 4.84 40.712 0.064 7.55 36.73 13.12
1/7/2023 1:45:00 PM 4.85 40.73 0.064 7.56 33.66 13.12
1/7/2023 2:00:00 PM 4.86 40.748 0.064 7.56 38.56 13.12
1/7/2023 2:15:00 PM 4.87 40.766 0.064 7.56 35.43 13.11
1/7/2023 2:30:00 PM 4.87 40.766 0.064 7.56 35.36 13.11
1/7/2023 2:45:00 PM 4.88 40.784 0.064 7.56 46.19 13.12
1/7/2023 3:00:00 PM 4.87 40.766 0.064 7.55 48.85 13.1
1/7/2023 3:15:00 PM 4.85 40.73 0.064 7.54 55.51 13.07
1/7/2023 3:30:00 PM 4.85 40.73 0.064 7.54 38.13 13.07
1/7/2023 3:45:00 PM 4.82 40.676 0.064 7.53 37.56 13.02
1/7/2023 4:00:00 PM 4.78 40.604 0.064 7.51 39.92 12.99
1/7/2023 4:15:00 PM 4.74 40.532 0.065 7.5 39.62 12.97
1/7/2023 4:30:00 PM 4.73 40.514 0.065 7.49 40.75 12.96
1/7/2023 4:45:00 PM 4.69 40.442 0.064 7.48 30.92 12.95
1/7/2023 5:00:00 PM 4.66 40.388 0.065 7.48 33.52 12.93
1/7/2023 5:15:00 PM 4.63 40.334 0.065 7.47 30.54 12.92
1/7/2023 5:30:00 PM 4.6 40.28 0.065 7.46 32.99 12.91
1/7/2023 5:45:00 PM 4.58 40.244 0.065 7.45 29.77 12.91
1/7/2023 6:00:00 PM 4.55 40.19 0.065 7.45 29.48 12.91
1/7/2023 6:15:00 PM 4.49 40.082 0.065 7.44 29.1 12.92
1/7/2023 6:30:00 PM 4.47 40.046 0.065 7.44 22.93 12.92
1/7/2023 6:45:00 PM 4.45 40.01 0.065 7.44 37.86 12.93
1/7/2023 7:00:00 PM 4.41 39.938 0.065 7.44 30.35 12.95
1/7/2023 7:15:00 PM 4.39 39.902 0.065 7.43 27.47 12.96
1/7/2023 7:30:00 PM 4.38 39.884 0.065 7.44 28.71 12.96
1/7/2023 7:45:00 PM 4.37 39.866 0.065 7.43 25.19 12.97
1/7/2023 8:00:00 PM 4.35 39.83 0.065 7.44 27.97 12.97
1/7/2023 8:15:00 PM 4.34 39.812 0.065 7.44 34.38 12.98
1/7/2023 8:30:00 PM 4.31 39.758 0.065 7.43 28.33 12.99
1/7/2023 8:45:00 PM 4.3 39.74 0.065 7.43 34.8 12.99
1/7/2023 9:00:00 PM 4.28 39.704 0.065 7.42 28.26 13
1/7/2023 9:15:00 PM 4.26 39.668 0.065 7.43 26.98 13.01
1/7/2023 9:30:00 PM 4.25 39.65 0.065 7.43 27.82 13.01
1/7/2023 9:45:00 PM 4.23 39.614 0.065 7.43 27.08 13.02
1/7/2023 10:00:00 PM 4.23 39.614 0.065 7.43 27.81 13.02
1/7/2023 10:15:00 PM 4.21 39.578 0.066 7.43 21.64 13.03
1/7/2023 10:30:00 PM 4.2 39.56 0.065 7.43 29.7 13.03
1/7/2023 10:45:00 PM 4.18 39.524 0.066 7.43 25.3 13.04
1/7/2023 11:00:00 PM 4.16 39.488 0.066 7.43 25.6 13.04
1/7/2023 11:15:00 PM 4.16 39.488 0.066 7.43 29.3 13.04
1/7/2023 11:30:00 PM 4.15 39.47 0.066 7.43 24.61 13.05
1/7/2023 11:45:00 PM 4.14 39.452 0.066 7.44 26.09 13.05
1/8/2023 12:00:00 AM 4.12 39.416 0.066 7.43 24.84 13.06
1/8/2023 12:15:00 AM 4.12 39.416 0.066 7.43 29.52 13.06
1/8/2023 12:30:00 AM 4.11 39.398 0.066 7.43 27.5 13.06
1/8/2023 12:45:00 AM 4.1 39.38 0.066 7.43 29.66 13.07
1/8/2023 1:00:00 AM 4.08 39.344 0.066 7.43 34.09 13.07
1/8/2023 1:15:00 AM 4.07 39.326 0.066 7.43 24.94 13.08
1/8/2023 1:30:00 AM 4.05 39.29 0.066 7.43 31.93 13.08
1/8/2023 1:45:00 AM 4.04 39.272 0.066 7.43 26.41 13.09
1/8/2023 2:00:00 AM 4.03 39.254 0.066 7.43 25.4 13.09
1/8/2023 2:15:00 AM 4.02 39.236 0.066 7.43 25.31 13.09
1/8/2023 2:30:00 AM 4.01 39.218 0.066 7.43 24.83 13.1
1/8/2023 2:45:00 AM 4 39.2 0.066 7.43 26.72 13.1
1/8/2023 3:00:00 AM 3.99 39.182 0.066 7.43 27.12 13.11
1/8/2023 3:15:00 AM 3.98 39.164 0.066 7.43 22.48 13.12
1/8/2023 3:30:00 AM 3.96 39.128 0.066 7.43 26.71 13.12
1/8/2023 3:45:00 AM 3.95 39.11 0.066 7.44 24.1 13.13
1/8/2023 4:00:00 AM 3.94 39.092 0.066 7.43 24.86 13.13
1/8/2023 4:15:00 AM 3.93 39.074 0.066 7.44 24.86 13.13
1/8/2023 4:30:00 AM 3.91 39.038 0.066 7.42 27.32 13.13
1/8/2023 4:45:00 AM 3.9 39.02 0.066 7.43 26.23 13.14
1/8/2023 5:00:00 AM 3.89 39.002 0.066 7.42 27.02 13.14
1/8/2023 5:15:00 AM 3.88 38.984 0.066 7.42 24.42 13.14
1/8/2023 5:30:00 AM 3.87 38.966 0.066 7.42 25.8 13.14
1/8/2023 5:45:00 AM 3.86 38.948 0.066 7.42 26.65 13.15
1/8/2023 6:00:00 AM 3.85 38.93 0.066 7.42 26.24 13.15
1/8/2023 6:15:00 AM 3.84 38.912 0.066 7.43 24.27 13.16
1/8/2023 6:30:00 AM 3.83 38.894 0.066 7.42 25.69 13.16
1/8/2023 6:45:00 AM 3.82 38.876 0.066 7.43 29.51 13.16
1/8/2023 7:00:00 AM 3.81 38.858 0.066 7.42 24.67 13.17
1/8/2023 7:15:00 AM 3.8 38.84 0.066 7.42 28.52 13.17
1/8/2023 7:30:00 AM 3.78 38.804 0.066 7.42 26.35 13.18
1/8/2023 7:45:00 AM 3.77 38.786 0.066 7.43 26.36 13.19
1/8/2023 8:00:00 AM 3.76 38.768 0.066 7.43 27.49 13.21
1/8/2023 8:15:00 AM 3.75 38.75 0.066 7.43 28.33 13.24
1/8/2023 8:30:00 AM 3.76 38.768 0.066 7.44 28.87 13.27
1/8/2023 8:45:00 AM 3.75 38.75 0.066 7.45 24.87 13.31
1/8/2023 9:00:00 AM 3.76 38.768 0.066 7.46 31.87 13.35
1/8/2023 9:15:00 AM 3.77 38.786 0.066 7.47 30.88 13.4
1/8/2023 9:30:00 AM 3.78 38.804 0.066 7.49 25.06 13.44
1/8/2023 9:45:00 AM 3.8 38.84 0.066 7.5 25.53 13.46
1/8/2023 10:00:00 AM 3.83 38.894 0.066 7.51 27.37 13.49
1/8/2023 10:15:00 AM 3.86 38.948 0.066 7.52 24.29 13.51
1/8/2023 10:30:00 AM 3.91 39.038 0.066 7.53 25.8 13.52
1/8/2023 10:45:00 AM 3.96 39.128 0.066 7.54 28.09 13.52
1/8/2023 11:00:00 AM 4.01 39.218 0.066 7.55 25.1 13.52
1/8/2023 11:15:00 AM 4.06 39.308 0.066 7.55 25.66 13.51
1/8/2023 11:30:00 AM 4.12 39.416 0.065 7.56 20.02 13.5
1/8/2023 11:45:00 AM 4.18 39.524 0.065 7.57 26.55 13.48
1/8/2023 12:00:00 PM 4.21 39.578 0.065 7.57 24.92 13.44
1/8/2023 12:15:00 PM 4.26 39.668 0.065 7.57 31.98 13.42
1/8/2023 12:30:00 PM 4.41 39.938 0.065 7.57 29.17 13.38
1/8/2023 12:45:00 PM 4.54 40.172 0.065 7.57 26.66 13.33
1/8/2023 1:00:00 PM 4.63 40.334 0.065 7.57 24.51 13.29
1/8/2023 1:15:00 PM 4.7 40.46 0.065 7.57 21.89 13.25
1/8/2023 1:30:00 PM 4.76 40.568 0.065 7.57 25.74 13.21
1/8/2023 1:45:00 PM 4.77 40.586 0.065 7.57 26.28 13.18
1/8/2023 2:00:00 PM 4.76 40.568 0.065 7.57 24.86 13.15
1/8/2023 2:15:00 PM 4.75 40.55 0.065 7.57 23.22 13.17
1/8/2023 2:30:00 PM 4.71 40.478 0.066 7.56 23.85 13.15
1/8/2023 2:45:00 PM 4.66 40.388 0.066 7.55 26.09 13.14
1/8/2023 3:00:00 PM 4.6 40.28 0.066 7.55 24.58 13.13
1/8/2023 3:15:00 PM 4.53 40.154 0.066 7.54 26.97 13.13
1/8/2023 3:30:00 PM 4.49 40.082 0.066 7.53 24.22 13.13
1/8/2023 3:45:00 PM 4.45 40.01 0.066 7.53 26.98 13.12
1/8/2023 4:00:00 PM 4.39 39.902 0.066 7.52 25.03 13.11
1/8/2023 4:15:00 PM 4.34 39.812 0.066 7.52 24.34 13.1
1/8/2023 4:30:00 PM 4.3 39.74 0.066 7.52 21.69 13.09
1/8/2023 4:45:00 PM 4.24 39.632 0.066 7.5 24.87 13.07
1/8/2023 5:00:00 PM 4.18 39.524 0.066 7.49 24.97 13.06
1/8/2023 5:15:00 PM 4.12 39.416 0.066 7.48 27.84 13.05
1/8/2023 5:30:00 PM 4.06 39.308 0.066 7.47 25.55 13.04
1/8/2023 5:45:00 PM 4 39.2 0.066 7.46 27.66 13.04
1/8/2023 6:00:00 PM 3.95 39.11 0.066 7.46 28.01 13.05
1/8/2023 6:15:00 PM 3.93 39.074 0.066 7.45 27.33 13.05
1/8/2023 6:30:00 PM 3.89 39.002 0.067 7.45 26.07 13.06
1/8/2023 6:45:00 PM 3.85 38.93 0.067 7.45 25.3 13.07
1/8/2023 7:00:00 PM 3.81 38.858 0.067 7.44 25.19 13.08
1/8/2023 7:15:00 PM 3.77 38.786 0.067 7.43 21.27 13.08
1/8/2023 7:30:00 PM 3.73 38.714 0.067 7.43 25.15 13.1
1/8/2023 7:45:00 PM 3.71 38.678 0.067 7.42 23.23 13.11
1/8/2023 8:00:00 PM 3.7 38.66 0.067 7.43 28.24 13.11
1/8/2023 8:15:00 PM 3.69 38.642 0.067 7.43 24.28 13.12
1/8/2023 8:30:00 PM 3.68 38.624 0.067 7.42 22.59 13.12
1/8/2023 8:45:00 PM 3.66 38.588 0.067 7.42 25.05 13.12
1/8/2023 9:00:00 PM 3.65 38.57 0.067 7.43 23.32 13.13
1/8/2023 9:15:00 PM 3.63 38.534 0.067 7.43 24.35 13.13
1/8/2023 9:30:00 PM 3.6 38.48 0.067 7.43 25.51 13.13
1/8/2023 9:45:00 PM 3.56 38.408 0.067 7.43 23.88 13.13
1/8/2023 10:00:00 PM 3.52 38.336 0.067 7.43 23.99 13.14
1/8/2023 10:15:00 PM 3.49 38.282 0.067 7.43 23.49 13.16
1/8/2023 10:30:00 PM 3.45 38.21 0.067 7.42 25.37 13.17
1/8/2023 10:45:00 PM 3.41 38.138 0.067 7.42 24.43 13.19
1/8/2023 11:00:00 PM 3.38 38.084 0.067 7.42 24.46 13.2
1/8/2023 11:15:00 PM 3.35 38.03 0.067 7.42 22.77 13.21
1/8/2023 11:30:00 PM 3.34 38.012 0.067 7.42 23.17 13.22
1/8/2023 11:45:00 PM 3.34 38.012 0.067 7.43 28.43 13.22
1/9/2023 12:00:00 AM 3.33 37.994 0.067 7.43 27.1 13.23
1/9/2023 12:15:00 AM 3.33 37.994 0.067 7.43 26.85 13.22
1/9/2023 12:30:00 AM 3.32 37.976 0.067 7.42 21.09 13.22
1/9/2023 12:45:00 AM 3.32 37.976 0.067 7.43 23.41 13.22
1/9/2023 1:00:00 AM 3.31 37.958 0.067 7.43 26.13 13.22
1/9/2023 1:15:00 AM 3.31 37.958 0.067 7.43 28.48 13.22
1/9/2023 1:30:00 AM 3.3 37.94 0.067 7.43 25.72 13.22
1/9/2023 1:45:00 AM 3.29 37.922 0.067 7.43 24.38 13.22
1/9/2023 2:00:00 AM 3.28 37.904 0.067 7.43 22.7 13.22
1/9/2023 2:15:00 AM 3.28 37.904 0.067 7.43 22.16 13.23
1/9/2023 2:30:00 AM 3.28 37.904 0.067 7.42 22.9 13.23
1/9/2023 2:45:00 AM 3.28 37.904 0.067 7.42 23.71 13.23
1/9/2023 3:00:00 AM 3.28 37.904 0.067 7.42 24.39 13.23
1/9/2023 3:15:00 AM 3.26 37.868 0.067 7.42 26.15 13.23
1/9/2023 3:30:00 AM 3.24 37.832 0.067 7.42 25.44 13.23
1/9/2023 3:45:00 AM 3.22 37.796 0.067 7.42 23.81 13.23
1/9/2023 4:00:00 AM 3.19 37.742 0.067 7.42 24.64 13.24
1/9/2023 4:15:00 AM 3.18 37.724 0.067 7.42 24.03 13.24
1/9/2023 4:30:00 AM 3.19 37.742 0.067 7.43 23.6 13.24
1/9/2023 4:45:00 AM 3.18 37.724 0.067 7.42 22.29 13.25
1/9/2023 5:00:00 AM 3.17 37.706 0.067 7.42 25.28 13.25
1/9/2023 5:15:00 AM 3.17 37.706 0.067 7.43 24.65 13.25
1/9/2023 5:30:00 AM 3.18 37.724 0.067 7.42 24.06 13.25
1/9/2023 5:45:00 AM 3.19 37.742 0.067 7.43 25.61 13.25
1/9/2023 6:00:00 AM 3.2 37.76 0.067 7.43 24.88 13.25
1/9/2023 6:15:00 AM 3.2 37.76 0.067 7.43 24.84 13.24
1/9/2023 6:30:00 AM 3.21 37.778 0.067 7.43 29.58 13.24
1/9/2023 6:45:00 AM 3.21 37.778 0.067 7.44 26.59 13.24
1/9/2023 7:00:00 AM 3.21 37.778 0.067 7.44 22.74 13.25
1/9/2023 7:15:00 AM 3.21 37.778 0.067 7.44 23.11 13.25
1/9/2023 7:30:00 AM 3.2 37.76 0.067 7.44 23.3 13.25
1/9/2023 7:45:00 AM 3.19 37.742 0.067 7.44 25 13.26
1/9/2023 8:00:00 AM 3.19 37.742 0.067 7.45 24 13.29
1/9/2023 8:15:00 AM 3.2 37.76 0.067 7.46 24.19 13.32
1/9/2023 8:30:00 AM 3.2 37.76 0.067 7.46 22.76 13.36
1/9/2023 8:45:00 AM 3.21 37.778 0.067 7.47 25.73 13.41
1/9/2023 9:00:00 AM 3.2 37.76 0.067 7.49 27.18 13.46
1/9/2023 9:15:00 AM 3.22 37.796 0.067 7.5 25.84 13.51
1/9/2023 9:30:00 AM 3.25 37.85 0.067 7.52 24.1 13.56
1/9/2023 9:45:00 AM 3.29 37.922 0.067 7.53 24.2 13.59
1/9/2023 10:00:00 AM 3.33 37.994 0.067 7.54 26.66 13.61
1/9/2023 10:15:00 AM 3.39 38.102 0.067 7.55 27.98 13.62
1/9/2023 10:30:00 AM 3.41 38.138 0.067 7.56 23.65 13.62
1/9/2023 10:45:00 AM 3.44 38.192 0.067 7.57 23.53 13.6
1/9/2023 11:00:00 AM 3.51 38.318 0.067 7.57 28.48 13.59
1/9/2023 11:15:00 AM 3.62 38.516 0.067 7.57 25.7 13.55
1/9/2023 11:30:00 AM 3.74 38.732 0.067 7.58 27.06 13.52
1/9/2023 11:45:00 AM 3.86 38.948 0.067 7.58 24.43 13.48
1/9/2023 12:00:00 PM 3.96 39.128 0.067 7.58 1432.14 13.45
1/9/2023 12:15:00 PM 4.03 39.254 0.067 7.59 25.98 13.42
1/9/2023 12:30:00 PM 4.11 39.398 0.067 7.59 26.17 13.38
1/9/2023 12:45:00 PM 4.2 39.56 0.067 7.59 24.25 13.35
1/9/2023 1:00:00 PM 4.27 39.686 0.067 7.59 24.41 13.33
1/9/2023 1:15:00 PM 4.33 39.794 0.067 7.6 27.98 13.3
1/9/2023 1:30:00 PM 4.37 39.866 0.067 7.6 26.51 13.28
1/9/2023 1:45:00 PM 4.37 39.866 0.067 7.6 24.26 13.26
1/9/2023 2:00:00 PM 4.37 39.866 0.067 7.6 26.68 13.25
1/9/2023 2:15:00 PM 4.34 39.812 0.067 7.6 25.1 13.23
1/9/2023 2:30:00 PM 4.31 39.758 0.067 7.6 25.31 13.22
1/9/2023 2:45:00 PM 4.25 39.65 0.067 7.6 22.21 13.21
1/9/2023 3:00:00 PM 4.18 39.524 0.067 7.59 24.37 13.2
1/9/2023 3:15:00 PM 4.12 39.416 0.067 7.59 23.97 13.19
1/9/2023 3:30:00 PM 4.07 39.326 0.067 7.58 24.38 13.19
1/9/2023 3:45:00 PM 4.03 39.254 0.067 7.57 29.19 13.19
1/9/2023 4:00:00 PM 3.99 39.182 0.067 7.57 22.63 13.19
1/9/2023 4:15:00 PM 3.94 39.092 0.067 7.56 23.98 13.18
1/9/2023 4:30:00 PM 3.9 39.02 0.067 7.55 23.72 13.17
1/9/2023 4:45:00 PM 3.86 38.948 0.067 7.55 24.55 13.16
1/9/2023 5:00:00 PM 3.81 38.858 0.067 7.53 25.85 13.14
1/9/2023 5:15:00 PM 3.75 38.75 0.067 7.51 24.93 13.12
1/9/2023 5:30:00 PM 3.69 38.642 0.067 7.5 22.79 13.11
1/9/2023 5:45:00 PM 3.64 38.552 0.067 7.49 22.98 13.11
1/9/2023 6:00:00 PM 3.58 38.444 0.067 7.49 23.96 13.11
1/9/2023 6:15:00 PM 3.53 38.354 0.067 7.48 26.56 13.12
1/9/2023 6:30:00 PM 3.48 38.264 0.068 7.49 23.53 13.14
1/9/2023 6:45:00 PM 3.44 38.192 0.068 7.48 22.44 13.15
1/9/2023 7:00:00 PM 3.4 38.12 0.068 7.48 27.04 13.16
1/9/2023 7:15:00 PM 3.35 38.03 0.068 7.48 23.71 13.19
1/9/2023 7:30:00 PM 3.31 37.958 0.068 7.48 26.22 13.2
1/9/2023 7:45:00 PM 3.27 37.886 0.068 7.45 24.86 13.21
1/9/2023 8:00:00 PM 3.24 37.832 0.068 7.45 23.35 13.22
1/9/2023 8:15:00 PM 3.22 37.796 0.068 7.47 24.77 13.23
1/9/2023 8:30:00 PM 3.2 37.76 0.068 7.46 23.64 13.24
1/9/2023 8:45:00 PM 3.2 37.76 0.068 7.46 25.27 13.24
1/9/2023 9:00:00 PM 3.2 37.76 0.068 7.46 26.96 13.25
1/9/2023 9:15:00 PM 3.19 37.742 0.068 7.46 22.27 13.25
1/9/2023 9:30:00 PM 3.18 37.724 0.068 7.46 25.38 13.26
1/9/2023 9:45:00 PM 3.18 37.724 0.068 7.46 26.82 13.26
1/9/2023 10:00:00 PM 3.19 37.742 0.068 7.46 25.64 13.26
1/9/2023 10:15:00 PM 3.2 37.76 0.068 7.45 25.71 13.26
1/9/2023 10:30:00 PM 3.21 37.778 0.068 7.47 25.14 13.26
1/9/2023 10:45:00 PM 3.21 37.778 0.068 7.48 24.7 13.26
1/9/2023 11:00:00 PM 3.22 37.796 0.068 7.47 24.4 13.25
1/9/2023 11:15:00 PM 3.23 37.814 0.068 7.48 28.11 13.25
1/9/2023 11:30:00 PM 3.24 37.832 0.068 7.49 23.64 13.25
1/9/2023 11:45:00 PM 3.24 37.832 0.068 7.48 27.69 13.25
1/10/2023 12:00:00 AM 3.25 37.85 0.068 7.48 20.84 13.25
1/10/2023 12:15:00 AM 3.25 37.85 0.068 7.48 24.63 13.24
1/10/2023 12:30:00 AM 3.26 37.868 0.068 7.48 25.98 13.24
1/10/2023 12:45:00 AM 3.27 37.886 0.068 7.48 22.99 13.24
1/10/2023 1:00:00 AM 3.27 37.886 0.068 7.48 23.5 13.24
1/10/2023 1:15:00 AM 3.28 37.904 0.068 7.48 25.12 13.24
1/10/2023 1:30:00 AM 3.28 37.904 0.068 7.48 23.99 13.24
1/10/2023 1:45:00 AM 3.28 37.904 0.068 7.47 23.71 13.24
1/10/2023 2:00:00 AM 3.29 37.922 0.068 7.47 23.41 13.23
1/10/2023 2:15:00 AM 3.3 37.94 0.068 7.48 27.77 13.23
1/10/2023 2:30:00 AM 3.31 37.958 0.068 7.48 24.13 13.23
1/10/2023 2:45:00 AM 3.31 37.958 0.068 7.47 23.66 13.23
1/10/2023 3:00:00 AM 3.32 37.976 0.068 7.47 23.43 13.23
1/10/2023 3:15:00 AM 3.33 37.994 0.068 7.48 24.83 13.23
1/10/2023 3:30:00 AM 3.33 37.994 0.068 7.48 27.41 13.23
1/10/2023 3:45:00 AM 3.33 37.994 0.068 7.48 24.92 13.22
1/10/2023 4:00:00 AM 3.33 37.994 0.068 7.48 24.76 13.22
1/10/2023 4:15:00 AM 3.34 38.012 0.068 7.48 27.13 13.22
1/10/2023 4:30:00 AM 3.34 38.012 0.068 7.49 26 13.22
1/10/2023 4:45:00 AM 3.35 38.03 0.068 7.47 24.17 13.22
1/10/2023 5:00:00 AM 3.35 38.03 0.068 7.48 25.79 13.22
1/10/2023 5:15:00 AM 3.35 38.03 0.068 7.48 25.9 13.21
1/10/2023 5:30:00 AM 3.34 38.012 0.068 7.48 27.6 13.21
1/10/2023 5:45:00 AM 3.34 38.012 0.068 7.48 22.37 13.22
1/10/2023 6:00:00 AM 3.35 38.03 0.068 7.48 25.39 13.21
1/10/2023 6:15:00 AM 3.35 38.03 0.068 7.48 25.9 13.22
1/10/2023 6:30:00 AM 3.35 38.03 0.068 7.48 23.83 13.22
1/10/2023 6:45:00 AM 3.35 38.03 0.068 7.47 22.94 13.22
1/10/2023 7:00:00 AM 3.35 38.03 0.068 7.48 24.26 13.22
1/10/2023 7:15:00 AM 3.35 38.03 0.068 7.47 23.62 13.22
1/10/2023 7:30:00 AM 3.35 38.03 0.068 7.48 23.29 13.22
1/10/2023 7:45:00 AM 3.36 38.048 0.068 7.48 27.04 13.22
1/10/2023 8:00:00 AM 3.36 38.048 0.068 7.48 27.3 13.23
1/10/2023 8:15:00 AM 3.36 38.048 0.069 7.48 24.22 13.24
1/10/2023 8:30:00 AM 3.36 38.048 0.069 7.49 23.57 13.25
1/10/2023 8:45:00 AM 3.37 38.066 0.068 7.49 27.54 13.27
1/10/2023 9:00:00 AM 3.38 38.084 0.068 7.51 23.09 13.32
1/10/2023 9:15:00 AM 3.4 38.12 0.068 7.51 24.51 13.37
1/10/2023 9:30:00 AM 3.42 38.156 0.068 7.52 25.05 13.41
1/10/2023 9:45:00 AM 3.44 38.192 0.068 7.54 23.81 13.45
1/10/2023 10:00:00 AM 3.46 38.228 0.068 7.55 24.38 13.46
1/10/2023 10:15:00 AM 3.49 38.282 0.068 7.55 22.59 13.49
1/10/2023 10:30:00 AM 3.52 38.336 0.068 7.58 23.39 13.49
1/10/2023 10:45:00 AM 3.55 38.39 0.068 7.57 23.11 13.49
1/10/2023 11:00:00 AM 3.57 38.426 0.068 7.58 23.23 13.49
1/10/2023 11:15:00 AM 3.6 38.48 0.068 7.59 22.91 13.5
1/10/2023 11:30:00 AM 3.62 38.516 0.068 7.59 23.79 13.5
1/10/2023 11:45:00 AM 3.65 38.57 0.068 7.6 26.25 13.5
1/10/2023 12:00:00 PM 3.67 38.606 0.068 7.6 24.32 13.5
1/10/2023 12:15:00 PM 3.7 38.66 0.068 7.61 23.37 13.49
1/10/2023 12:30:00 PM 3.73 38.714 0.068 7.62 20.98 13.5
1/10/2023 12:45:00 PM 3.76 38.768 0.068 7.62 24.82 13.5
1/10/2023 1:00:00 PM 3.8 38.84 0.068 7.62 27.32 13.5
1/10/2023 1:15:00 PM 3.82 38.876 0.068 7.63 28.24 13.49
1/10/2023 1:30:00 PM 3.84 38.912 0.068 7.63 24.02 13.47
1/10/2023 1:45:00 PM 3.87 38.966 0.068 7.63 23.36 13.47
1/10/2023 2:00:00 PM 3.9 39.02 0.068 7.64 24.94 13.47
1/10/2023 2:15:00 PM 3.93 39.074 0.068 7.64 25.26 13.45
1/10/2023 2:30:00 PM 3.95 39.11 0.068 7.64 23.63 13.45
1/10/2023 2:45:00 PM 3.97 39.146 0.068 7.65 23.25 13.44
1/10/2023 3:00:00 PM 3.98 39.164 0.068 7.64 24.86 13.43
1/10/2023 3:15:00 PM 3.99 39.182 0.068 7.64 23.19 13.41
1/10/2023 3:30:00 PM 4 39.2 0.068 7.64 24.69 13.38
1/10/2023 3:45:00 PM 4 39.2 0.068 7.63 21.85 13.35
1/10/2023 4:00:00 PM 4 39.2 0.068 7.61 23.98 13.3
1/10/2023 4:15:00 PM 3.99 39.182 0.068 7.6 22.79 13.26
1/10/2023 4:30:00 PM 3.99 39.182 0.068 7.59 30.06 13.21
1/10/2023 4:45:00 PM 3.98 39.164 0.068 7.57 24.66 13.16
1/10/2023 5:00:00 PM 3.97 39.146 0.068 7.56 22.34 13.12
1/10/2023 5:15:00 PM 3.95 39.11 0.069 7.54 23.25 13.08
1/10/2023 5:30:00 PM 3.94 39.092 0.069 7.53 24 13.06
1/10/2023 5:45:00 PM 3.93 39.074 0.069 7.52 24.49 13.05
1/10/2023 6:00:00 PM 3.91 39.038 0.069 7.52 27.21 13.05
1/10/2023 6:15:00 PM 3.9 39.02 0.069 7.51 23.71 13.04
1/10/2023 6:30:00 PM 3.89 39.002 0.069 7.51 27.53 13.04
1/10/2023 6:45:00 PM 3.88 38.984 0.069 7.5 22.81 13.04
1/10/2023 7:00:00 PM 3.86 38.948 0.069 7.5 24.91 13.04
1/10/2023 7:15:00 PM 3.85 38.93 0.069 7.5 23.3 13.05
1/10/2023 7:30:00 PM 3.84 38.912 0.069 7.49 25.77 13.05
1/10/2023 7:45:00 PM 3.83 38.894 0.069 7.49 22.76 13.06
1/10/2023 8:00:00 PM 3.82 38.876 0.069 7.49 23.5 13.06
1/10/2023 8:15:00 PM 3.81 38.858 0.069 7.49 28.02 13.07
1/10/2023 8:30:00 PM 3.8 38.84 0.069 7.49 24.19 13.06
1/10/2023 8:45:00 PM 3.79 38.822 0.069 7.49 26.57 13.07
1/10/2023 9:00:00 PM 3.78 38.804 0.069 7.49 25.5 13.07
1/10/2023 9:15:00 PM 3.78 38.804 0.069 7.48 22.76 13.08
1/10/2023 9:30:00 PM 3.77 38.786 0.069 7.48 21.08 13.08
1/10/2023 9:45:00 PM 3.76 38.768 0.069 7.48 23.23 13.09
1/10/2023 10:00:00 PM 3.75 38.75 0.069 7.49 25.55 13.09
1/10/2023 10:15:00 PM 3.74 38.732 0.07 7.49 22.84 13.09
1/10/2023 10:30:00 PM 3.73 38.714 0.07 7.48 23.9 13.1
1/10/2023 10:45:00 PM 3.73 38.714 0.07 7.49 23.65 13.1
1/10/2023 11:00:00 PM 3.72 38.696 0.07 7.49 24.76 13.1
1/10/2023 11:15:00 PM 3.71 38.678 0.07 7.48 24.79 13.11
1/10/2023 11:30:00 PM 3.71 38.678 0.07 7.48 26.14 13.11
1/10/2023 11:45:00 PM 3.7 38.66 0.07 7.49 21.32 13.11
1/11/2023 12:00:00 AM 3.7 38.66 0.07 7.49 26.67 13.11
1/11/2023 12:15:00 AM 3.69 38.642 0.07 7.48 23.62 13.11
1/11/2023 12:30:00 AM 3.69 38.642 0.07 7.49 24.07 13.12
1/11/2023 12:45:00 AM 3.68 38.624 0.07 7.48 25.01 13.12
1/11/2023 1:00:00 AM 3.68 38.624 0.07 7.48 25.28 13.12
1/11/2023 1:15:00 AM 3.67 38.606 0.07 7.49 23.62 13.12
1/11/2023 1:30:00 AM 3.66 38.588 0.07 7.48 33.52 13.12
1/11/2023 1:45:00 AM 3.63 38.534 0.07 7.49 23.17 13.13
1/11/2023 2:00:00 AM 3.58 38.444 0.07 7.49 23.3 13.14
1/11/2023 2:15:00 AM 3.55 38.39 0.07 7.49 24.14 13.15
1/11/2023 2:30:00 AM 3.52 38.336 0.07 7.49 27.01 13.16
1/11/2023 2:45:00 AM 3.52 38.336 0.07 7.49 22.92 13.17
1/11/2023 3:00:00 AM 3.51 38.318 0.07 7.49 23.6 13.18
1/11/2023 3:15:00 AM 3.51 38.318 0.07 7.48 22.25 13.18
1/11/2023 3:30:00 AM 3.51 38.318 0.07 7.48 28.56 13.18
1/11/2023 3:45:00 AM 3.51 38.318 0.07 7.49 24.01 13.18
1/11/2023 4:00:00 AM 3.51 38.318 0.07 7.49 24.11 13.18
1/11/2023 4:15:00 AM 3.51 38.318 0.07 7.49 23.41 13.18
1/11/2023 4:30:00 AM 3.51 38.318 0.07 7.49 26.03 13.18
1/11/2023 4:45:00 AM 3.51 38.318 0.07 7.48 24.45 13.18
1/11/2023 5:00:00 AM 3.51 38.318 0.07 7.49 21.2 13.18
1/11/2023 5:15:00 AM 3.52 38.336 0.07 7.49 22.41 13.18
1/11/2023 5:30:00 AM 3.52 38.336 0.07 7.49 21.08 13.18
1/11/2023 5:45:00 AM 3.52 38.336 0.07 7.49 23.25 13.18
1/11/2023 6:00:00 AM 3.52 38.336 0.07 7.49 23.82 13.18
1/11/2023 6:15:00 AM 3.52 38.336 0.07 7.49 24.61 13.18
1/11/2023 6:30:00 AM 3.51 38.318 0.07 7.49 22.72 13.18
1/11/2023 6:45:00 AM 3.51 38.318 0.07 7.49 26.33 13.18
1/11/2023 7:00:00 AM 3.51 38.318 0.07 7.48 24.49 13.19
1/11/2023 7:15:00 AM 3.51 38.318 0.07 7.49 25.86 13.19
1/11/2023 7:30:00 AM 3.51 38.318 0.07 7.49 24.05 13.19
1/11/2023 7:45:00 AM 3.5 38.3 0.07 7.5 25.03 13.2
1/11/2023 8:00:00 AM 3.49 38.282 0.07 7.5 23.19 13.24
1/11/2023 8:15:00 AM 3.49 38.282 0.07 7.51 23.1 13.33
1/11/2023 8:30:00 AM 3.48 38.264 0.07 7.53 19.43 13.4
1/11/2023 8:45:00 AM 3.48 38.264 0.07 7.55 25.52 13.46
1/11/2023 9:00:00 AM 3.49 38.282 0.07 7.57 23.97 13.52
1/11/2023 9:15:00 AM 3.51 38.318 0.07 7.58 22.75 13.56
1/11/2023 9:30:00 AM 3.54 38.372 0.07 7.6 21.93 13.6
1/11/2023 9:45:00 AM 3.56 38.408 0.07 7.61 20.56 13.62
1/11/2023 10:00:00 AM 3.6 38.48 0.07 7.62 24.37 13.64
1/11/2023 10:15:00 AM 3.66 38.588 0.07 7.63 21.89 13.65
1/11/2023 10:30:00 AM 3.72 38.696 0.069 7.64 26.03 13.66
1/11/2023 10:45:00 AM 3.78 38.804 0.069 7.66 23.52 13.65
1/11/2023 11:00:00 AM 3.86 38.948 0.069 7.66 24.73 13.64
1/11/2023 11:15:00 AM 3.94 39.092 0.069 7.67 31.91 13.63
1/11/2023 11:30:00 AM 4.01 39.218 0.069 7.67 23.51 13.6
1/11/2023 11:45:00 AM 4.09 39.362 0.069 7.69 23.62 13.58
1/11/2023 12:00:00 PM 4.19 39.542 0.069 7.69 22.41 13.55
1/11/2023 12:15:00 PM 4.26 39.668 0.069 7.69 24.2 13.52
1/11/2023 12:30:00 PM 4.32 39.776 0.069 7.69 22.32 13.5
1/11/2023 12:45:00 PM 4.4 39.92 0.069 7.7 23.82 13.48
1/11/2023 1:00:00 PM 4.45 40.01 0.069 7.7 25.5 13.45
1/11/2023 1:15:00 PM 4.48 40.064 0.069 7.7 28.36 13.43
1/11/2023 1:30:00 PM 4.5 40.1 0.069 7.7 26.94 13.41
1/11/2023 1:45:00 PM 4.52 40.136 0.069 7.7 24.27 13.4
1/11/2023 2:00:00 PM 4.53 40.154 0.069 7.7 23.09 13.39
1/11/2023 2:15:00 PM 4.56 40.208 0.069 7.71 26.31 13.38
1/11/2023 2:30:00 PM 4.58 40.244 0.069 7.71 24.72 13.38
1/11/2023 2:45:00 PM 4.6 40.28 0.069 7.71 23.61 13.37
1/11/2023 3:00:00 PM 4.61 40.298 0.069 7.71 22.08 13.34
1/11/2023 3:15:00 PM 4.59 40.262 0.069 7.7 22.41 13.32
1/11/2023 3:30:00 PM 4.57 40.226 0.069 7.69 23.29 13.29
1/11/2023 3:45:00 PM 4.55 40.19 0.069 7.68 23.14 13.25
1/11/2023 4:00:00 PM 4.52 40.136 0.069 7.66 22.8 13.22
1/11/2023 4:15:00 PM 4.5 40.1 0.069 7.64 23.63 13.16
1/11/2023 4:30:00 PM 4.47 40.046 0.07 7.63 27.24 13.12
1/11/2023 4:45:00 PM 4.44 39.992 0.07 7.61 26.03 13.07
1/11/2023 5:00:00 PM 4.4 39.92 0.07 7.6 24.06 13.04
1/11/2023 5:15:00 PM 4.36 39.848 0.07 7.58 26.91 13
1/11/2023 5:30:00 PM 4.3 39.74 0.07 7.56 22.01 12.97
1/11/2023 5:45:00 PM 4.24 39.632 0.07 7.55 23.24 12.96
1/11/2023 6:00:00 PM 4.17 39.506 0.07 7.54 24.3 12.95
1/11/2023 6:15:00 PM 4.11 39.398 0.07 7.54 23.51 12.96
1/11/2023 6:30:00 PM 4.06 39.308 0.07 7.53 23.89 12.97
1/11/2023 6:45:00 PM 4.01 39.218 0.07 7.52 24 12.98
1/11/2023 7:00:00 PM 3.97 39.146 0.07 7.52 22.48 13
1/11/2023 7:15:00 PM 3.93 39.074 0.07 7.5 23.89 13.01
1/11/2023 7:30:00 PM 3.89 39.002 0.071 7.51 19.44 13.02
1/11/2023 7:45:00 PM 3.85 38.93 0.071 7.51 25.09 13.03
1/11/2023 8:00:00 PM 3.83 38.894 0.071 7.51 25.99 13.04
1/11/2023 8:15:00 PM 3.8 38.84 0.071 7.51 22.42 13.06
1/11/2023 8:30:00 PM 3.78 38.804 0.071 7.51 24.96 13.06
1/11/2023 8:45:00 PM 3.76 38.768 0.071 7.5 24.38 13.07
1/11/2023 9:00:00 PM 3.75 38.75 0.071 7.5 22.88 13.08
1/11/2023 9:15:00 PM 3.74 38.732 0.071 7.5 24.09 13.09
1/11/2023 9:30:00 PM 3.73 38.714 0.071 7.51 21.52 13.09
1/11/2023 9:45:00 PM 3.72 38.696 0.071 7.51 25.16 13.09
1/11/2023 10:00:00 PM 3.71 38.678 0.071 7.5 24.11 13.09
1/11/2023 10:15:00 PM 3.7 38.66 0.071 7.5 29.31 13.09
1/11/2023 10:30:00 PM 3.69 38.642 0.071 7.5 25.96 13.1
1/11/2023 10:45:00 PM 3.67 38.606 0.071 7.5 25.05 13.1
1/11/2023 11:00:00 PM 3.66 38.588 0.071 7.5 21.8 13.11
1/11/2023 11:15:00 PM 3.64 38.552 0.071 7.5 23.89 13.11
1/11/2023 11:30:00 PM 3.63 38.534 0.071 7.5 23.59 13.11
1/11/2023 11:45:00 PM 3.62 38.516 0.071 7.5 21.57 13.12
1/12/2023 12:00:00 AM 3.61 38.498 0.071 7.5 21.69 13.12
1/12/2023 12:15:00 AM 3.6 38.48 0.071 7.5 22.5 13.12
1/12/2023 12:30:00 AM 3.59 38.462 0.071 7.5 25.97 13.12
1/12/2023 12:45:00 AM 3.59 38.462 0.071 7.5 23.69 13.12
1/12/2023 1:00:00 AM 3.59 38.462 0.071 7.51 23.15 13.12
1/12/2023 1:15:00 AM 3.59 38.462 0.071 7.5 25.68 13.12
1/12/2023 1:30:00 AM 3.59 38.462 0.071 7.51 25.41 13.12
1/12/2023 1:45:00 AM 3.59 38.462 0.071 7.5 23.65 13.12
1/12/2023 2:00:00 AM 3.59 38.462 0.071 7.51 24.37 13.12
1/12/2023 2:15:00 AM 3.59 38.462 0.071 7.5 24.26 13.12
1/12/2023 2:30:00 AM 3.59 38.462 0.071 7.5 22.79 13.12
1/12/2023 2:45:00 AM 3.59 38.462 0.071 7.5 24.17 13.11
1/12/2023 3:00:00 AM 3.6 38.48 0.071 7.5 23.32 13.11
1/12/2023 3:15:00 AM 3.6 38.48 0.071 7.51 24.14 13.11
1/12/2023 3:30:00 AM 3.6 38.48 0.071 7.51 26.3 13.11
1/12/2023 3:45:00 AM 3.6 38.48 0.071 7.5 27.26 13.11
1/12/2023 4:00:00 AM 3.61 38.498 0.071 7.5 23.76 13.11
1/12/2023 4:15:00 AM 3.61 38.498 0.071 7.5 24.04 13.1
1/12/2023 4:30:00 AM 3.62 38.516 0.071 7.5 23.39 13.1
1/12/2023 4:45:00 AM 3.63 38.534 0.071 7.5 24.75 13.09
1/12/2023 5:00:00 AM 3.64 38.552 0.071 7.51 24.96 13.09
1/12/2023 5:15:00 AM 3.64 38.552 0.071 7.5 24.24 13.09
1/12/2023 5:30:00 AM 3.64 38.552 0.071 7.5 23.23 13.09
1/12/2023 5:45:00 AM 3.64 38.552 0.071 7.5 24.35 13.09
1/12/2023 6:00:00 AM 3.65 38.57 0.071 7.5 22.49 13.09
1/12/2023 6:15:00 AM 3.65 38.57 0.071 7.51 24.82 13.09
1/12/2023 6:30:00 AM 3.65 38.57 0.071 7.51 23.47 13.08
1/12/2023 6:45:00 AM 3.65 38.57 0.071 7.5 24.02 13.08
1/12/2023 7:00:00 AM 3.66 38.588 0.071 7.51 21.5 13.08
1/12/2023 7:15:00 AM 3.66 38.588 0.071 7.5 25.09 13.08
1/12/2023 7:30:00 AM 3.67 38.606 0.071 7.5 22.25 13.08
1/12/2023 7:45:00 AM 3.67 38.606 0.071 7.51 25.59 13.08
1/12/2023 8:00:00 AM 3.68 38.624 0.071 7.51 23.86 13.08
1/12/2023 8:15:00 AM 3.69 38.642 0.071 7.51 23.86 13.09
1/12/2023 8:30:00 AM 3.7 38.66 0.071 7.51 24.94 13.11
1/12/2023 8:45:00 AM 3.71 38.678 0.071 7.53 22.15 13.14
1/12/2023 9:00:00 AM 3.72 38.696 0.071 7.53 20.03 13.16
1/12/2023 9:15:00 AM 3.73 38.714 0.071 7.54 27.48 13.18
1/12/2023 9:30:00 AM 3.75 38.75 0.071 7.54 22.3 13.2
1/12/2023 9:45:00 AM 3.76 38.768 0.071 7.55 26.14 13.22
1/12/2023 10:00:00 AM 3.78 38.804 0.071 7.56 23.34 13.24
1/12/2023 10:15:00 AM 3.79 38.822 0.071 7.57 24.33 13.26
1/12/2023 10:30:00 AM 3.81 38.858 0.071 7.57 25.51 13.29
1/12/2023 10:45:00 AM 3.84 38.912 0.071 7.59 23.64 13.33
1/12/2023 11:00:00 AM 3.86 38.948 0.071 7.59 25.2 13.33
1/12/2023 11:15:00 AM 3.88 38.984 0.071 7.6 26.09 13.34
1/12/2023 11:30:00 AM 3.9 39.02 0.071 7.61 21.23 13.33
1/12/2023 11:45:00 AM 3.93 39.074 0.071 7.61 29.04 13.34
1/12/2023 12:00:00 PM 3.95 39.11 0.071 7.62 23.35 13.35
1/12/2023 12:15:00 PM 3.97 39.146 0.071 7.62 24.46 13.34
1/12/2023 12:30:00 PM 4 39.2 0.071 7.63 24.49 13.34
1/12/2023 12:45:00 PM 4.02 39.236 0.071 7.63 20.67 13.32
1/12/2023 1:00:00 PM 4.03 39.254 0.071 7.63 21.1 13.29
1/12/2023 1:15:00 PM 4.05 39.29 0.071 7.63 28.42 13.28
1/12/2023 1:30:00 PM 4.07 39.326 0.071 7.64 24.31 13.28
1/12/2023 1:45:00 PM 4.08 39.344 0.071 7.63 24.55 13.25
1/12/2023 2:00:00 PM 4.1 39.38 0.071 7.63 24.52 13.24
1/12/2023 2:15:00 PM 4.11 39.398 0.071 7.63 21.16 13.22
1/12/2023 2:30:00 PM 4.12 39.416 0.071 7.62 24.78 13.17
1/12/2023 2:45:00 PM 4.13 39.434 0.071 7.61 22.65 13.13
1/12/2023 3:00:00 PM 4.14 39.452 0.071 7.6 23.43 13.1
1/12/2023 3:15:00 PM 4.14 39.452 0.071 7.6 24.19 13.07
1/12/2023 3:30:00 PM 4.14 39.452 0.071 7.59 22.27 13.05
1/12/2023 3:45:00 PM 4.14 39.452 0.07 7.58 24.22 13.02
1/12/2023 4:00:00 PM 4.14 39.452 0.07 7.58 23.36 13
1/12/2023 4:15:00 PM 4.14 39.452 0.07 7.57 26.88 12.97
1/12/2023 4:30:00 PM 4.15 39.47 0.07 7.56 24.18 12.93
1/12/2023 4:45:00 PM 4.15 39.47 0.07 7.55 23.24 12.9
1/12/2023 5:00:00 PM 4.16 39.488 0.07 7.54 23.86 12.88
1/12/2023 5:15:00 PM 4.16 39.488 0.07 7.54 24.74 12.85
1/12/2023 5:30:00 PM 4.17 39.506 0.07 7.52 26.47 12.84
1/12/2023 5:45:00 PM 4.18 39.524 0.07 7.52 20.74 12.83
1/12/2023 6:00:00 PM 4.19 39.542 0.071 7.52 30.45 12.81
1/12/2023 6:15:00 PM 4.2 39.56 0.071 7.52 24.91 12.8
1/12/2023 6:30:00 PM 4.21 39.578 0.072 7.51 24.69 12.8
1/12/2023 6:45:00 PM 4.23 39.614 0.072 7.51 23.01 12.79
1/12/2023 7:00:00 PM 4.24 39.632 0.072 7.51 27.32 12.79
1/12/2023 7:15:00 PM 4.26 39.668 0.072 7.52 23.34 12.78
1/12/2023 7:30:00 PM 4.27 39.686 0.072 7.51 20.88 12.77
1/12/2023 7:45:00 PM 4.28 39.704 0.072 7.51 26.32 12.77
1/12/2023 8:00:00 PM 4.3 39.74 0.072 7.5 26.35 12.76
1/12/2023 8:15:00 PM 4.31 39.758 0.072 7.5 23.1 12.75
1/12/2023 8:30:00 PM 4.33 39.794 0.071 7.5 24.97 12.75
1/12/2023 8:45:00 PM 4.34 39.812 0.071 7.5 25.88 12.74
1/12/2023 9:00:00 PM 4.35 39.83 0.071 7.5 25.38 12.73
1/12/2023 9:15:00 PM 4.36 39.848 0.071 7.49 28.54 12.72
1/12/2023 9:30:00 PM 4.38 39.884 0.071 7.5 21.99 12.72
1/12/2023 9:45:00 PM 4.39 39.902 0.072 7.5 24.64 12.72
1/12/2023 10:00:00 PM 4.4 39.92 0.072 7.5 27.71 12.71
1/12/2023 10:15:00 PM 4.41 39.938 0.073 7.5 29.53 12.71
1/12/2023 10:30:00 PM 4.42 39.956 0.073 7.5 24.47 12.7
1/12/2023 10:45:00 PM 4.43 39.974 0.074 7.5 23.39 12.7
1/12/2023 11:00:00 PM 4.44 39.992 0.074 7.5 22.46 12.69
1/12/2023 11:15:00 PM 4.45 40.01 0.074 7.5 25.58 12.69
1/12/2023 11:30:00 PM 4.45 40.01 0.075 7.51 28.91 12.68
1/12/2023 11:45:00 PM 4.46 40.028 0.075 7.51 27.7 12.68
1/13/2023 12:00:00 AM 4.46 40.028 0.075 7.51 26.56 12.68
1/13/2023 12:15:00 AM 4.47 40.046 0.076 7.51 25.03 12.67
1/13/2023 12:30:00 AM 4.47 40.046 0.076 7.51 26.39 12.67
1/13/2023 12:45:00 AM 4.48 40.064 0.076 7.51 27.28 12.66
1/13/2023 1:00:00 AM 4.48 40.064 0.076 7.52 24.1 12.66
1/13/2023 1:15:00 AM 4.48 40.064 0.077 7.51 22.77 12.66
1/13/2023 1:30:00 AM 4.49 40.082 0.077 7.51 24.87 12.66
1/13/2023 1:45:00 AM 4.49 40.082 0.077 7.53 25.15 12.65
1/13/2023 2:00:00 AM 4.49 40.082 0.078 7.51 26.3 12.65
1/13/2023 2:15:00 AM 4.49 40.082 0.078 7.51 27.73 12.65
1/13/2023 2:30:00 AM 4.5 40.1 0.078 7.51 24.59 12.65
1/13/2023 2:45:00 AM 4.5 40.1 0.078 7.52 27.3 12.65
1/13/2023 3:00:00 AM 4.5 40.1 0.078 7.52 28.83 12.65
1/13/2023 3:15:00 AM 4.5 40.1 0.078 7.52 29.44 12.65
1/13/2023 3:30:00 AM 4.5 40.1 0.078 7.51 27.37 12.65
1/13/2023 3:45:00 AM 4.51 40.118 0.079 7.51 26.87 12.64
1/13/2023 4:00:00 AM 4.51 40.118 0.079 7.51 32.7 12.64
1/13/2023 4:15:00 AM 4.52 40.136 0.079 7.52 31.71 12.64
1/13/2023 4:30:00 AM 4.51 40.118 0.08 7.52 28.92 12.64
1/13/2023 4:45:00 AM 4.51 40.118 0.079 7.52 27.85 12.65
1/13/2023 5:00:00 AM 4.5 40.1 0.079 7.52 27.66 12.65
1/13/2023 5:15:00 AM 4.49 40.082 0.079 7.52 27.97 12.66
1/13/2023 5:30:00 AM 4.48 40.064 0.079 7.52 35.42 12.67
1/13/2023 5:45:00 AM 4.46 40.028 0.079 7.52 30.04 12.68
1/13/2023 6:00:00 AM 4.44 39.992 0.079 7.52 32.9 12.69
1/13/2023 6:15:00 AM 4.4 39.92 0.079 7.51 34.83 12.71
1/13/2023 6:30:00 AM 4.35 39.83 0.08 7.52 35.72 12.73
1/13/2023 6:45:00 AM 4.29 39.722 0.081 7.53 38.61 12.75
1/13/2023 7:00:00 AM 4.23 39.614 0.082 7.54 37.68 12.78
1/13/2023 7:15:00 AM 4.16 39.488 0.082 7.52 39.42 12.81
1/13/2023 7:30:00 AM 4.1 39.38 0.082 7.51 40.96 12.84
1/13/2023 7:45:00 AM 4.05 39.29 0.082 7.52 47.14 12.86
1/13/2023 8:00:00 AM 4.01 39.218 0.081 7.51 45.16 12.89
1/13/2023 8:15:00 AM 3.97 39.146 0.081 7.53 43.8 12.91
1/13/2023 8:30:00 AM 3.94 39.092 0.081 7.51 41 12.93
1/13/2023 8:45:00 AM 3.91 39.038 0.081 7.52 41.49 12.96
1/13/2023 9:00:00 AM 3.89 39.002 0.08 7.53 42.19 13.01
1/13/2023 9:15:00 AM 3.88 38.984 0.08 7.54 41.72 13.08
1/13/2023 9:30:00 AM 3.87 38.966 0.08 7.55 38.72 13.12
1/13/2023 9:45:00 AM 3.86 38.948 0.079 7.56 76.2 13.14
1/13/2023 10:00:00 AM 3.85 38.93 0.079 7.56 39.89 13.16
1/13/2023 10:15:00 AM 3.84 38.912 0.078 7.56 35.75 13.17
1/13/2023 10:30:00 AM 3.84 38.912 0.078 7.57 34.29 13.2
1/13/2023 10:45:00 AM 3.83 38.894 0.077 7.57 34.16 13.2
1/13/2023 11:00:00 AM 3.83 38.894 0.077 7.57 36.57 13.2
1/13/2023 11:15:00 AM 3.82 38.876 0.076 7.57 54.23 13.2
1/13/2023 11:30:00 AM 3.8 38.84 0.076 7.57 33.93 13.22
1/13/2023 11:45:00 AM 3.77 38.786 0.076 7.57 30.85 13.22
1/13/2023 12:00:00 PM 3.75 38.75 0.076 7.57 36.91 13.23
1/13/2023 12:15:00 PM 3.75 38.75 0.076 7.57 30.25 13.26
1/13/2023 12:30:00 PM 3.75 38.75 0.075 7.58 29.36 13.27
1/13/2023 12:45:00 PM 3.75 38.75 0.075 7.58 30.44 13.27
1/13/2023 1:00:00 PM 3.74 38.732 0.075 7.59 33.57 13.28
1/13/2023 1:15:00 PM 3.73 38.714 0.075 7.59 50.81 13.28
1/13/2023 1:30:00 PM 3.72 38.696 0.075 7.59 31.51 13.27
1/13/2023 1:45:00 PM 3.7 38.66 0.075 7.57 28.28 13.28
1/13/2023 2:00:00 PM 3.69 38.642 0.075 7.58 28.88 13.3
1/13/2023 2:15:00 PM 3.69 38.642 0.075 7.59 34.88 13.3
1/13/2023 2:30:00 PM 3.67 38.606 0.075 7.58 28.16 13.28
1/13/2023 2:45:00 PM 3.65 38.57 0.075 7.58 23.16 13.28
1/13/2023 3:00:00 PM 3.62 38.516 0.075 7.57 34.88 13.26
1/13/2023 3:15:00 PM 3.59 38.462 0.075 7.57 28.55 13.26
1/13/2023 3:30:00 PM 3.57 38.426 0.075 7.57 28.53 13.25
1/13/2023 3:45:00 PM 3.54 38.372 0.075 7.56 27.29 13.23
1/13/2023 4:00:00 PM 3.51 38.318 0.075 7.55 30.93 13.22
1/13/2023 4:15:00 PM 3.47 38.246 0.075 7.54 28.36 13.2
1/13/2023 4:30:00 PM 3.45 38.21 0.075 7.54 69.72 13.2
1/13/2023 4:45:00 PM 3.42 38.156 0.075 7.53 28.49 13.2
1/13/2023 5:00:00 PM 3.39 38.102 0.075 7.52 31.45 13.19
1/13/2023 5:15:00 PM 3.35 38.03 0.075 7.51 26.84 13.19
1/13/2023 5:30:00 PM 3.32 37.976 0.075 7.51 25.52 13.2
1/13/2023 5:45:00 PM 3.29 37.922 0.075 7.5 26.94 13.2
1/13/2023 6:00:00 PM 3.26 37.868 0.075 7.5 29.88 13.2
1/13/2023 6:15:00 PM 3.24 37.832 0.075 7.5 29.04 13.21
1/13/2023 6:30:00 PM 3.2 37.76 0.075 7.5 39.1 13.22
1/13/2023 6:45:00 PM 3.17 37.706 0.075 7.5 28.02 13.23
1/13/2023 7:00:00 PM 3.14 37.652 0.075 7.5 24.53 13.24
1/13/2023 7:15:00 PM 3.11 37.598 0.075 7.5 31.9 13.25
1/13/2023 7:30:00 PM 3.07 37.526 0.075 7.5 26.47 13.27
1/13/2023 7:45:00 PM 3.04 37.472 0.075 7.49 30.28 13.28
1/13/2023 8:00:00 PM 3 37.4 0.075 7.5 30.97 13.29
1/13/2023 8:15:00 PM 2.97 37.346 0.075 7.49 24.65 13.3
1/13/2023 8:30:00 PM 2.94 37.292 0.075 7.49 24.34 13.31
1/13/2023 8:45:00 PM 2.91 37.238 0.075 7.5 27.34 13.32
1/13/2023 9:00:00 PM 2.89 37.202 0.075 7.49 25.92 13.34
1/13/2023 9:15:00 PM 2.87 37.166 0.075 7.5 31.64 13.35
1/13/2023 9:30:00 PM 2.85 37.13 0.075 7.49 25.29 13.36
1/13/2023 9:45:00 PM 2.83 37.094 0.075 7.5 26.74 13.37
1/13/2023 10:00:00 PM 2.81 37.058 0.075 7.5 25.11 13.37
1/13/2023 10:15:00 PM 2.78 37.004 0.075 7.5 31.14 13.39
1/13/2023 10:30:00 PM 2.77 36.986 0.075 7.49 25.46 13.39
1/13/2023 10:45:00 PM 2.75 36.95 0.075 7.5 23.33 13.4
1/13/2023 11:00:00 PM 2.72 36.896 0.075 7.5 25.94 13.41
1/13/2023 11:15:00 PM 2.71 36.878 0.075 7.5 24.39 13.41
1/13/2023 11:30:00 PM 2.68 36.824 0.075 7.5 24.85 13.42
1/13/2023 11:45:00 PM 2.66 36.788 0.075 7.5 30.47 13.42
1/14/2023 12:00:00 AM 2.64 36.752 0.075 7.5 21 13.43
1/14/2023 12:15:00 AM 2.62 36.716 0.075 7.5 22.71 13.44
1/14/2023 12:30:00 AM 2.6 36.68 0.075 7.5 29.12 13.45
1/14/2023 12:45:00 AM 2.57 36.626 0.075 7.5 25.73 13.45
1/14/2023 1:00:00 AM 2.55 36.59 0.075 7.5 30.03 13.46
1/14/2023 1:15:00 AM 2.53 36.554 0.075 7.5 26.37 13.46
1/14/2023 1:30:00 AM 2.52 36.536 0.074 7.5 27.05 13.47
1/14/2023 1:45:00 AM 2.49 36.482 0.074 7.5 23.26 13.48
1/14/2023 2:00:00 AM 2.47 36.446 0.074 7.5 25.49 13.49
1/14/2023 2:15:00 AM 2.46 36.428 0.074 7.5 25.33 13.5
1/14/2023 2:30:00 AM 2.44 36.392 0.074 7.5 27.8 13.5
1/14/2023 2:45:00 AM 2.41 36.338 0.074 7.5 27.66 13.52
1/14/2023 3:00:00 AM 2.39 36.302 0.074 7.5 26.7 13.53
1/14/2023 3:15:00 AM 2.37 36.266 0.074 7.51 30.47 13.53
1/14/2023 3:30:00 AM 2.34 36.212 0.074 7.5 53.1 13.54
1/14/2023 3:45:00 AM 2.32 36.176 0.074 7.49 23.13 13.55
1/14/2023 4:00:00 AM 2.3 36.14 0.074 7.49 29.39 13.56
1/14/2023 4:15:00 AM 2.28 36.104 0.074 7.5 22.97 13.57
1/14/2023 4:30:00 AM 2.26 36.068 0.074 7.5 25.89 13.57
1/14/2023 4:45:00 AM 2.25 36.05 0.074 7.5 25.72 13.58
1/14/2023 5:00:00 AM 2.24 36.032 0.074 7.5 23.77 13.59
1/14/2023 5:15:00 AM 2.22 35.996 0.074 7.5 23.99 13.6
1/14/2023 5:30:00 AM 2.21 35.978 0.074 7.5 28.12 13.61
1/14/2023 5:45:00 AM 2.19 35.942 0.074 7.5 26.42 13.61
1/14/2023 6:00:00 AM 2.16 35.888 0.074 7.5 22.72 13.62
1/14/2023 6:15:00 AM 2.13 35.834 0.074 7.5 27.24 13.64
1/14/2023 6:30:00 AM 2.11 35.798 0.074 7.5 25.07 13.65
1/14/2023 6:45:00 AM 2.1 35.78 0.074 7.49 25.86 13.65
1/14/2023 7:00:00 AM 2.07 35.726 0.074 7.5 28.59 13.66
1/14/2023 7:15:00 AM 2.05 35.69 0.074 7.49 24.32 13.67
1/14/2023 7:30:00 AM 2.05 35.69 0.074 7.5 24.13 13.68
1/14/2023 7:45:00 AM 2.04 35.672 0.074 7.5 25.8 13.69
1/14/2023 8:00:00 AM 2.02 35.636 0.074 7.5 28.5 13.7
1/14/2023 8:15:00 AM 2.01 35.618 0.074 7.5 25.5 13.73
1/14/2023 8:30:00 AM 2 35.6 0.074 7.51 25.18 13.76
1/14/2023 8:45:00 AM 2 35.6 0.074 7.52 24.65 13.79
1/14/2023 9:00:00 AM 1.98 35.564 0.074 7.52 24.4 13.84
1/14/2023 9:15:00 AM 1.97 35.546 0.074 7.53 29.95 13.88
1/14/2023 9:30:00 AM 1.97 35.546 0.073 7.54 27.55 13.92
1/14/2023 9:45:00 AM 1.96 35.528 0.073 7.55 26.51 13.96
1/14/2023 10:00:00 AM 1.96 35.528 0.073 7.56 24.41 14
1/14/2023 10:15:00 AM 1.96 35.528 0.073 7.57 24.23 14.04
1/14/2023 10:30:00 AM 1.96 35.528 0.073 7.58 26.26 14.07
1/14/2023 10:45:00 AM 1.98 35.564 0.073 7.59 25.46 14.1
1/14/2023 11:00:00 AM 2.01 35.618 0.073 7.6 23.67 14.11
1/14/2023 11:15:00 AM 2.05 35.69 0.073 7.61 27.93 14.12
1/14/2023 11:30:00 AM 2.1 35.78 0.073 7.61 26.73 14.12
1/14/2023 11:45:00 AM 2.16 35.888 0.073 7.63 30.74 14.11
1/14/2023 12:00:00 PM 2.2 35.96 0.073 7.62 24.62 14.1
1/14/2023 12:15:00 PM 2.24 36.032 0.073 7.63 21.74 14.09
1/14/2023 12:30:00 PM 2.28 36.104 0.073 7.63 20.48 14.07
1/14/2023 12:45:00 PM 2.3 36.14 0.073 7.64 24.88 14.06
1/14/2023 1:00:00 PM 2.34 36.212 0.072 7.64 26.65 14.05
1/14/2023 1:15:00 PM 2.39 36.302 0.072 7.64 25.07 14.04
1/14/2023 1:30:00 PM 2.42 36.356 0.072 7.64 22.6 14.03
1/14/2023 1:45:00 PM 2.45 36.41 0.072 7.65 25.82 14.02
1/14/2023 2:00:00 PM 2.47 36.446 0.072 7.65 25.13 14
1/14/2023 2:15:00 PM 2.47 36.446 0.072 7.65 25.56 13.99
1/14/2023 2:30:00 PM 2.47 36.446 0.072 7.65 24.63 13.98
1/14/2023 2:45:00 PM 2.47 36.446 0.072 7.64 24.41 13.98
1/14/2023 3:00:00 PM 2.45 36.41 0.072 7.64 34.96 13.98
1/14/2023 3:15:00 PM 2.45 36.41 0.072 7.63 28.69 13.97
1/14/2023 3:30:00 PM 2.44 36.392 0.072 7.63 24.91 13.96
1/14/2023 3:45:00 PM 2.41 36.338 0.072 7.63 29.14 13.94
1/14/2023 4:00:00 PM 2.39 36.302 0.072 7.62 26.06 13.93
1/14/2023 4:15:00 PM 2.36 36.248 0.072 7.61 30.66 13.92
1/14/2023 4:30:00 PM 2.34 36.212 0.072 7.6 23.52 13.89
1/14/2023 4:45:00 PM 2.32 36.176 0.072 7.59 25.57 13.85
1/14/2023 5:00:00 PM 2.3 36.14 0.072 7.57 24.46 13.8
1/14/2023 5:15:00 PM 2.26 36.068 0.072 7.56 25.85 13.76
1/14/2023 5:30:00 PM 2.23 36.014 0.073 7.54 24.79 13.73
1/14/2023 5:45:00 PM 2.19 35.942 0.073 7.54 25.72 13.73
1/14/2023 6:00:00 PM 2.15 35.87 0.073 7.52 26.78 13.72
1/14/2023 6:15:00 PM 2.13 35.834 0.073 7.51 22.72 13.72
1/14/2023 6:30:00 PM 2.09 35.762 0.071 7.5 23.18 13.73
1/14/2023 6:45:00 PM 2.06 35.708 0.073 7.5 28.98 13.74
1/14/2023 7:00:00 PM 2.03 35.654 0.073 7.49 24.95 13.75
1/14/2023 7:15:00 PM 2 35.6 0.073 7.49 24.43 13.76
1/14/2023 7:30:00 PM 1.96 35.528 0.073 7.48 25.47 13.78
1/14/2023 7:45:00 PM 1.93 35.474 0.073 7.49 23.18 13.78
1/14/2023 8:00:00 PM 1.9 35.42 0.073 7.49 24.54 13.79
1/14/2023 8:15:00 PM 1.87 35.366 0.073 7.48 25.63 13.81
1/14/2023 8:30:00 PM 1.84 35.312 0.073 7.48 25.79 13.82
1/14/2023 8:45:00 PM 1.83 35.294 0.073 7.48 24.26 13.83
1/14/2023 9:00:00 PM 1.82 35.276 0.073 7.48 23.36 13.83
1/14/2023 9:15:00 PM 1.81 35.258 0.073 7.48 24.78 13.83
1/14/2023 9:30:00 PM 1.79 35.222 0.073 7.48 24.55 13.84
1/14/2023 9:45:00 PM 1.78 35.204 0.073 7.48 25.32 13.85
1/14/2023 10:00:00 PM 1.77 35.186 0.073 7.48 23.56 13.85
1/14/2023 10:15:00 PM 1.76 35.168 0.073 7.48 28.55 13.86
1/14/2023 10:30:00 PM 1.75 35.15 0.073 7.48 25.46 13.86
1/14/2023 10:45:00 PM 1.74 35.132 0.073 7.48 25.3 13.86
1/14/2023 11:00:00 PM 1.74 35.132 0.073 7.48 24.35 13.86
1/14/2023 11:15:00 PM 1.73 35.114 0.073 7.48 26.24 13.86
1/14/2023 11:30:00 PM 1.71 35.078 0.073 7.47 24.34 13.87
1/14/2023 11:45:00 PM 1.7 35.06 0.073 7.48 29.91 13.87
1/15/2023 12:00:00 AM 1.69 35.042 0.073 7.47 26.25 13.88
1/15/2023 12:15:00 AM 1.68 35.024 0.073 7.48 26.45 13.87
1/15/2023 12:30:00 AM 1.67 35.006 0.073 7.47 25.47 13.88
1/15/2023 12:45:00 AM 1.65 34.97 0.073 7.48 24.12 13.88
1/15/2023 1:00:00 AM 1.64 34.952 0.073 7.47 23.88 13.89
1/15/2023 1:15:00 AM 1.64 34.952 0.073 7.48 25.08 13.89
1/15/2023 1:30:00 AM 1.64 34.952 0.073 7.47 23.86 13.9
1/15/2023 1:45:00 AM 1.64 34.952 0.073 7.48 25.35 13.91
1/15/2023 2:00:00 AM 1.63 34.934 0.072 7.48 27.45 13.91
1/15/2023 2:15:00 AM 1.62 34.916 0.072 7.48 27.42 13.92
1/15/2023 2:30:00 AM 1.61 34.898 0.072 7.46 27.5 13.93
1/15/2023 2:45:00 AM 1.6 34.88 0.072 7.47 24.87 13.93
1/15/2023 3:00:00 AM 1.6 34.88 0.072 7.47 25.15 13.94
1/15/2023 3:15:00 AM 1.59 34.862 0.072 7.47 24.25 13.94
1/15/2023 3:30:00 AM 1.59 34.862 0.072 7.47 23.93 13.95
1/15/2023 3:45:00 AM 1.59 34.862 0.072 7.47 25.4 13.95
1/15/2023 4:00:00 AM 1.59 34.862 0.072 7.47 25.03 13.95
1/15/2023 4:15:00 AM 1.58 34.844 0.072 7.47 26.62 13.95
1/15/2023 4:30:00 AM 1.58 34.844 0.072 7.47 25.09 13.95
1/15/2023 4:45:00 AM 1.56 34.808 0.072 7.47 25.76 13.96
1/15/2023 5:00:00 AM 1.55 34.79 0.072 7.47 24.16 13.96
1/15/2023 5:15:00 AM 1.55 34.79 0.072 7.47 24.39 13.96
1/15/2023 5:30:00 AM 1.55 34.79 0.072 7.47 29.35 13.97
1/15/2023 5:45:00 AM 1.54 34.772 0.072 7.47 27.21 13.97
1/15/2023 6:00:00 AM 1.53 34.754 0.072 7.47 25.64 13.97
1/15/2023 6:15:00 AM 1.53 34.754 0.072 7.47 25.96 13.97
1/15/2023 6:30:00 AM 1.53 34.754 0.072 7.47 24.18 13.98
1/15/2023 6:45:00 AM 1.53 34.754 0.072 7.47 25.51 13.98
1/15/2023 7:00:00 AM 1.52 34.736 0.072 7.47 25.65 13.99
1/15/2023 7:15:00 AM 1.51 34.718 0.072 7.46 26.5 13.99
1/15/2023 7:30:00 AM 1.52 34.736 0.072 7.46 21.92 14
1/15/2023 7:45:00 AM 1.51 34.718 0.072 7.48 25.75 14.01
1/15/2023 8:00:00 AM 1.51 34.718 0.072 7.46 25.87 14.04
1/15/2023 8:15:00 AM 1.5 34.7 0.072 7.48 23.96 14.08
1/15/2023 8:30:00 AM 1.51 34.718 0.072 7.49 24.15 14.15
1/15/2023 8:45:00 AM 1.53 34.754 0.072 7.5 25.18 14.2
1/15/2023 9:00:00 AM 1.55 34.79 0.071 7.51 22.67 14.26
1/15/2023 9:15:00 AM 1.58 34.844 0.071 7.53 24.7 14.3
1/15/2023 9:30:00 AM 1.61 34.898 0.071 7.54 26.2 14.33
1/15/2023 9:45:00 AM 1.67 35.006 0.071 7.56 25.11 14.35
1/15/2023 10:00:00 AM 1.72 35.096 0.071 7.57 24.52 14.36
1/15/2023 10:15:00 AM 1.78 35.204 0.071 7.58 23.84 14.37
1/15/2023 10:30:00 AM 1.84 35.312 0.071 7.59 24.02 14.36
1/15/2023 10:45:00 AM 1.9 35.42 0.071 7.6 23.84 14.35
1/15/2023 11:00:00 AM 1.94 35.492 0.071 7.59 27.86 14.34
1/15/2023 11:15:00 AM 2 35.6 0.071 7.6 25.74 14.31
1/15/2023 11:30:00 AM 2.12 35.816 0.071 7.61 31.65 14.28
1/15/2023 11:45:00 AM 2.29 36.122 0.071 7.61 22.17 14.22
1/15/2023 12:00:00 PM 2.44 36.392 0.071 7.6 22.59 14.16
1/15/2023 12:15:00 PM 2.57 36.626 0.07 7.61 24.43 14.11
1/15/2023 12:30:00 PM 2.69 36.842 0.07 7.61 23.65 14.07
1/15/2023 12:45:00 PM 2.8 37.04 0.07 7.61 25.07 14.01
1/15/2023 1:00:00 PM 2.9 37.22 0.07 7.61 27.44 13.96
1/15/2023 1:15:00 PM 2.98 37.364 0.07 7.61 27.82 13.92
1/15/2023 1:30:00 PM 3.04 37.472 0.07 7.61 24.25 13.89
1/15/2023 1:45:00 PM 3.06 37.508 0.07 7.61 23.45 13.87
1/15/2023 2:00:00 PM 3.08 37.544 0.07 7.6 24.33 13.84
1/15/2023 2:15:00 PM 3.08 37.544 0.07 7.6 24.8 13.82
1/15/2023 2:30:00 PM 3.06 37.508 0.07 7.59 26.66 13.8
1/15/2023 2:45:00 PM 3.02 37.436 0.07 7.59 23.32 13.79
1/15/2023 3:00:00 PM 2.96 37.328 0.07 7.59 24.14 13.77
1/15/2023 3:15:00 PM 2.89 37.202 0.07 7.57 25.28 13.76
1/15/2023 3:30:00 PM 2.84 37.112 0.07 7.57 23.87 13.75
1/15/2023 3:45:00 PM 2.78 37.004 0.07 7.55 24.9 13.76
1/15/2023 4:00:00 PM 2.73 36.914 0.07 7.55 24.44 13.76
1/15/2023 4:15:00 PM 2.68 36.824 0.07 7.54 24.41 13.76
1/15/2023 4:30:00 PM 2.64 36.752 0.07 7.54 22.41 13.76
1/15/2023 4:45:00 PM 2.59 36.662 0.071 7.53 22.43 13.75
1/15/2023 5:00:00 PM 2.55 36.59 0.071 7.53 22.45 13.73
1/15/2023 5:15:00 PM 2.49 36.482 0.071 7.51 25.26 13.71
1/15/2023 5:30:00 PM 2.43 36.374 0.071 7.52 29.24 13.7
1/15/2023 5:45:00 PM 2.37 36.266 0.071 7.46 23.61 13.69
1/15/2023 6:00:00 PM 2.31 36.158 0.071 7.48 23.91 13.7
1/15/2023 6:15:00 PM 2.26 36.068 0.071 7.48 24.1 13.71
1/15/2023 6:30:00 PM 2.2 35.96 0.071 7.47 22.43 13.73
1/15/2023 6:45:00 PM 2.15 35.87 0.071 7.46 24.99 13.74
1/15/2023 7:00:00 PM 2.11 35.798 0.071 7.46 25.32 13.76
1/15/2023 7:15:00 PM 2.06 35.708 0.071 7.48 25.74 13.77
1/15/2023 7:30:00 PM 2.02 35.636 0.071 7.45 25.08 13.79
1/15/2023 7:45:00 PM 1.98 35.564 0.071 7.44 24.61 13.81
1/15/2023 8:00:00 PM 1.94 35.492 0.071 7.45 27.8 13.82
1/15/2023 8:15:00 PM 1.9 35.42 0.071 7.46 25.41 13.83
1/15/2023 8:30:00 PM 1.86 35.348 0.071 7.45 24.31 13.84
1/15/2023 8:45:00 PM 1.82 35.276 0.071 7.44 24.08 13.86
1/15/2023 9:00:00 PM 1.77 35.186 0.071 7.44 25.85 13.87
1/15/2023 9:15:00 PM 1.73 35.114 0.071 7.43 25.31 13.89
1/15/2023 9:30:00 PM 1.69 35.042 0.071 7.44 24.73 13.9
1/15/2023 9:45:00 PM 1.64 34.952 0.071 7.45 22.93 13.92
1/15/2023 10:00:00 PM 1.6 34.88 0.071 7.44 22.94 13.94
1/15/2023 10:15:00 PM 1.55 34.79 0.071 7.45 23.72 13.95
1/15/2023 10:30:00 PM 1.51 34.718 0.071 7.44 23.19 13.97
1/15/2023 10:45:00 PM 1.47 34.646 0.071 7.45 23.6 13.98
1/15/2023 11:00:00 PM 1.44 34.592 0.071 7.44 22.78 14
1/15/2023 11:15:00 PM 1.4 34.52 0.071 7.44 24.59 14.01
1/15/2023 11:30:00 PM 1.36 34.448 0.071 7.44 24.34 14.02
1/15/2023 11:45:00 PM 1.33 34.394 0.071 7.44 23.35 14.04
1/16/2023 12:00:00 AM 1.3 34.34 0.071 7.44 23.67 14.04
1/16/2023 12:15:00 AM 1.27 34.286 0.071 7.46 22.46 14.06
1/16/2023 12:30:00 AM 1.24 34.232 0.071 7.43 24.21 14.06
1/16/2023 12:45:00 AM 1.21 34.178 0.071 7.45 27.33 14.08
1/16/2023 1:00:00 AM 1.18 34.124 0.071 7.45 26.69 14.09
1/16/2023 1:15:00 AM 1.15 34.07 0.071 7.45 25.43 14.09
1/16/2023 1:30:00 AM 1.12 34.016 0.071 7.45 26.4 14.1
1/16/2023 1:45:00 AM 1.08 33.944 0.071 7.43 23.64 14.11
1/16/2023 2:00:00 AM 1.05 33.89 0.071 7.42 25.61 14.12
1/16/2023 2:15:00 AM 1.02 33.836 0.071 7.44 23.29 14.13
1/16/2023 2:30:00 AM 0.99 33.782 0.071 7.46 26.6 14.14
1/16/2023 2:45:00 AM 0.96 33.728 0.071 7.44 25.92 14.16
1/16/2023 3:00:00 AM 0.94 33.692 0.071 7.46 28.96 14.17
1/16/2023 3:15:00 AM 0.91 33.638 0.071 7.45 26.06 14.18
1/16/2023 3:30:00 AM 0.88 33.584 0.071 7.44 25.72 14.19
1/16/2023 3:45:00 AM 0.85 33.53 0.07 7.43 21.89 14.21
1/16/2023 4:00:00 AM 0.83 33.494 0.07 7.45 21.7 14.22
1/16/2023 4:15:00 AM 0.8 33.44 0.07 7.45 27.1 14.23
1/16/2023 4:30:00 AM 0.78 33.404 0.07 7.44 24.19 14.24
1/16/2023 4:45:00 AM 0.76 33.368 0.07 7.44 25.19 14.25
1/16/2023 5:00:00 AM 0.74 33.332 0.07 7.43 21.32 14.25
1/16/2023 5:15:00 AM 0.72 33.296 0.07 7.45 25.59 14.26
1/16/2023 5:30:00 AM 0.7 33.26 0.07 7.43 29.2 14.27
1/16/2023 5:45:00 AM 0.68 33.224 0.07 7.44 23.59 14.28
1/16/2023 6:00:00 AM 0.66 33.188 0.07 7.43 24.41 14.29
1/16/2023 6:15:00 AM 0.64 33.152 0.07 7.44 23.78 14.29
1/16/2023 6:30:00 AM 0.62 33.116 0.07 7.44 26.18 14.3
1/16/2023 6:45:00 AM 0.61 33.098 0.07 7.41 24.17 14.31
1/16/2023 7:00:00 AM 0.59 33.062 0.07 7.43 23.32 14.31
1/16/2023 7:15:00 AM 0.58 33.044 0.069 7.44 23.05 14.32
1/16/2023 7:30:00 AM 0.56 33.008 0.069 7.42 25.58 14.33
1/16/2023 7:45:00 AM 0.55 32.99 0.069 7.44 26.29 14.35